Darstellungsparameter: Aktuell verwendete Einstellungen:
Skalierung der Graphiken ... ?
xyx+y,   Skalierungsfaktor:      Skalierung: Modus: x, Faktor: 1
Darstellungszeitraum ... ?
Vom - - bis: - -   Zeitraum: 13.08.2010 - 13.09.2010
Min/Max/Avg-Anzeige ... ?
Zeige MMA aktuell
Zeige MMA Monat
Zeige MMA alles
Zeige --A aktuell
Zeige --A Monat
Zeige --A alles
Keine MMA-Anzeige
MMA:
Average (ber die Originaldaten)
MMA-Basis: 13.08.2010 - 13.09.2010
Quicknavigation für Darstellung... ?
Tage:      1T, 2T, 3T, 5T -1T -2T -3T -5T +1T +2T +3T +5T
Wochen: 1W, 2W, 3W -1W -2W -3W +1W +2W +3W
Monate: 1M, 3M, 6M -1M -3M -6M +1M +3M +6M
Jahre:    1J, 3J, 5J, 10J -1J -3J -5J -10J +1J +3J +5J +10J
Nutze für die Darstellung ... ?
Originaldaten oder Mittelwerte auf ...
Stundenbasis Tagesbasis Wochenbasis
Monatsbasis Jahresbasis      Datenbasis: Original-Daten
Darstellen als:
Statistik (Auto) Statistik J:M      Darstellung:
Zur Graphik,    zurück zur Übersicht aller Sensoren.
 
Tabellarische Datenbersicht: ?
 
Sensor: Nr:Datum:Temp:Abs-Feuchte:Windchill:Wind:
Aussen-T/F 1 13-08-2010 00:07:03 16.7 C 9.38 g/m*3 16.7 C 0 km/h
2 13-08-2010 00:19:03 16.9 C 9.49 g/m*3 16.9 C 0 km/h
3 13-08-2010 00:31:03 17 C 9.26 g/m*3 17 C 0 km/h
4 13-08-2010 00:43:03 16.9 C 9.49 g/m*3 16.9 C 0 km/h
5 13-08-2010 00:55:03 16.6 C 9.46 g/m*3 16.6 C 0 km/h
6 13-08-2010 01:07:03 16.4 C 9.35 g/m*3 16.4 C 0 km/h
7 13-08-2010 01:19:03 16.2 C 9.1 g/m*3 16.2 C 0 km/h
8 13-08-2010 01:31:03 16.2 C 9.24 g/m*3 16.2 C 0 km/h
9 13-08-2010 01:43:03 16 C 9.26 g/m*3 16 C 0 km/h
10 13-08-2010 01:55:03 16.1 C 9.32 g/m*3 16.1 C 0 km/h
11 13-08-2010 02:07:03 16.1 C 9.46 g/m*3 16.1 C 0 km/h
12 13-08-2010 02:19:03 15.9 C 9.62 g/m*3 15.9 C 0 km/h
13 13-08-2010 02:31:03 15.8 C 9.69 g/m*3 15.8 C 0 km/h
14 13-08-2010 02:43:03 15.8 C 9.83 g/m*3 15.8 C 0 km/h
15 13-08-2010 02:55:03 15.5 C 9.78 g/m*3 15.5 C 0 km/h
16 13-08-2010 03:07:03 15.5 C 9.78 g/m*3 15.5 C 0 km/h
17 13-08-2010 03:19:03 15.3 C 9.66 g/m*3 15.3 C 0 km/h
18 13-08-2010 03:31:03 15.3 C 9.79 g/m*3 15.3 C 0 km/h
19 13-08-2010 03:43:04 15.3 C 9.92 g/m*3 15.3 C 0 km/h
20 13-08-2010 03:55:04 15.3 C 10.06 g/m*3 15.3 C 0 km/h
21 13-08-2010 04:07:04 15.2 C 9.99 g/m*3 15.2 C 0 km/h
22 13-08-2010 04:19:04 15.1 C 9.93 g/m*3 15.1 C 0 km/h
23 13-08-2010 04:31:04 15 C 10 g/m*3 15 C 0 km/h
24 13-08-2010 04:43:04 15 C 10 g/m*3 15 C 0 km/h
25 13-08-2010 04:55:04 14.9 C 10.07 g/m*3 14.9 C 0 km/h
Sensor: Nr:Datum:Temp:Abs-Feuchte:Windchill:Wind:
Aussen-T/F 26 13-08-2010 05:07:04 14.8 C 10.01 g/m*3 14.8 C 0 km/h
27 13-08-2010 05:19:04 14.8 C 10.01 g/m*3 14.8 C 0 km/h
28 13-08-2010 05:31:04 14.8 C 10.01 g/m*3 14.8 C 0 km/h
29 13-08-2010 05:43:04 14.7 C 9.95 g/m*3 14.7 C 0 km/h
30 13-08-2010 05:55:04 14.7 C 9.95 g/m*3 14.7 C 0 km/h
31 13-08-2010 06:07:04 14.7 C 9.95 g/m*3 14.7 C 0 km/h
32 13-08-2010 06:19:04 14.7 C 10.07 g/m*3 14.7 C 0 km/h
33 13-08-2010 06:31:04 14.7 C 10.07 g/m*3 14.7 C 0 km/h
34 13-08-2010 06:43:04 14.7 C 10.07 g/m*3 14.7 C 0 km/h
35 13-08-2010 06:55:02 14.7 C 10.07 g/m*3 14.7 C 0 km/h
36 13-08-2010 07:07:02 14.8 C 10.13 g/m*3 14.8 C 0 km/h
37 13-08-2010 07:19:02 15 C 10.13 g/m*3 15 C 0 km/h
38 13-08-2010 07:31:02 15 C 10.13 g/m*3 15 C 0 km/h
39 13-08-2010 07:43:02 15.2 C 10.12 g/m*3 15.2 C 0 km/h
40 13-08-2010 07:55:02 15.1 C 10.06 g/m*3 15.1 C 0 km/h
41 13-08-2010 08:07:02 14.8 C 10.13 g/m*3 14.8 C 0 km/h
42 13-08-2010 08:19:02 14.9 C 10.2 g/m*3 14.9 C 0 km/h
43 13-08-2010 08:31:02 15.2 C 10.38 g/m*3 15.2 C 0 km/h
44 13-08-2010 08:43:02 15.3 C 10.45 g/m*3 15.3 C 0 km/h
45 13-08-2010 08:55:01 15.6 C 10.51 g/m*3 15.6 C 0 km/h
46 13-08-2010 09:07:01 15.6 C 10.51 g/m*3 15.6 C 0 km/h
47 13-08-2010 09:19:02 15.8 C 10.23 g/m*3 15.8 C 0 km/h
48 13-08-2010 09:31:01 16.1 C 10.14 g/m*3 16.1 C 0 km/h
49 13-08-2010 09:43:01 16.6 C 10.17 g/m*3 16.6 C 0 km/h
50 13-08-2010 09:55:03 17.2 C 10.4 g/m*3 17.2 C 0 km/h
Sensor: Nr:Datum:Temp:Abs-Feuchte:Windchill:Wind:
Aussen-T/F 51 13-08-2010 10:07:02 17.6 C 10.05 g/m*3 17.6 C 0 km/h
52 13-08-2010 10:19:03 18.3 C 10.01 g/m*3 18.3 C 0 km/h
53 13-08-2010 10:31:02 19 C 9.45 g/m*3 19 C 0 km/h
54 13-08-2010 10:43:02 19.5 C 9.4 g/m*3 19.5 C 0 km/h
55 13-08-2010 10:55:02 19.8 C 9.22 g/m*3 19.8 C 0 km/h
56 13-08-2010 11:07:02 20.9 C 9.11 g/m*3 20.9 C 0 km/h
57 13-08-2010 11:19:02 21.2 C 8.52 g/m*3 21.2 C 0 km/h
58 13-08-2010 11:31:03 21 C 8.24 g/m*3 21 C 0 km/h
59 13-08-2010 11:43:03 21.4 C 7.69 g/m*3 21.4 C 0 km/h
60 13-08-2010 11:55:02 21.7 C 8.39 g/m*3 21.7 C 0 km/h
61 13-08-2010 12:07:01 22.1 C 7.81 g/m*3 22.1 C 0 km/h
62 13-08-2010 12:19:02 21.7 C 7.63 g/m*3 21.7 C 0 km/h
63 13-08-2010 12:31:02 22.2 C 7.85 g/m*3 22.2 C 0 km/h
64 13-08-2010 12:43:02 22.2 C 7.85 g/m*3 22.2 C 0 km/h
65 13-08-2010 12:55:02 22.8 C 7.52 g/m*3 22.8 C 0 km/h
66 13-08-2010 13:07:02 22.5 C 7.19 g/m*3 22.5 C 0 km/h
67 13-08-2010 13:19:02 23.2 C 7.28 g/m*3 23.2 C 0 km/h
68 13-08-2010 13:31:02 23.2 C 7.48 g/m*3 23.2 C 0 km/h
69 13-08-2010 13:43:02 23.5 C 6.56 g/m*3 23.5 C 0 km/h
70 13-08-2010 13:55:01 22.6 C 6.43 g/m*3 22.6 C 0 km/h
71 13-08-2010 14:07:01 22.6 C 6.43 g/m*3 22.6 C 0 km/h
72 13-08-2010 14:19:01 23.2 C 6.44 g/m*3 23.2 C 0 km/h
73 13-08-2010 14:31:01 24.1 C 6.78 g/m*3 24.1 C 0 km/h
74 13-08-2010 14:43:01 24.4 C 6.23 g/m*3 24.4 C 0 km/h
75 13-08-2010 14:55:01 25.3 C 6.55 g/m*3 25.3 C 0 km/h
Sensor: Nr:Datum:Temp:Abs-Feuchte:Windchill:Wind:
Aussen-T/F 76 13-08-2010 15:07:01 24.7 C 6.11 g/m*3 24.7 C 0 km/h
77 13-08-2010 15:19:02 24.6 C 6.3 g/m*3 24.6 C 0 km/h
78 13-08-2010 15:31:01 24.9 C 6.18 g/m*3 24.9 C 0 km/h
79 13-08-2010 15:43:01 24.1 C 5.69 g/m*3 24.1 C 0 km/h
80 13-08-2010 15:55:01 23.8 C 5.81 g/m*3 23.8 C 0 km/h
81 13-08-2010 16:07:01 24.3 C 5.75 g/m*3 24.3 C 0 km/h
82 13-08-2010 16:19:02 24.4 C 6.45 g/m*3 24.4 C 0 km/h
83 13-08-2010 16:31:01 24.5 C 6.94 g/m*3 24.5 C 0 km/h
84 13-08-2010 16:43:01 24.1 C 6.78 g/m*3 24.1 C 0 km/h
85 13-08-2010 16:55:02 23.9 C 7.79 g/m*3 23.9 C 0 km/h
86 13-08-2010 17:07:02 24 C 6.96 g/m*3 24 C 0 km/h
87 13-08-2010 17:19:02 23.7 C 7.27 g/m*3 23.7 C 0 km/h
88 13-08-2010 17:31:02 23.7 C 7.06 g/m*3 23.7 C 0 km/h
89 13-08-2010 17:43:02 23.6 C 7.66 g/m*3 23.6 C 0 km/h
90 13-08-2010 17:55:02 23.3 C 8.15 g/m*3 23.3 C 0 km/h
91 13-08-2010 18:07:02 22.9 C 8.17 g/m*3 22.9 C 0 km/h
92 13-08-2010 18:19:01 22.8 C 8.13 g/m*3 22.8 C 0 km/h
93 13-08-2010 18:31:02 22.5 C 8.19 g/m*3 22.5 C 0 km/h
94 13-08-2010 18:43:02 22.3 C 8.29 g/m*3 22.3 C 0 km/h
95 13-08-2010 18:55:02 22 C 7.96 g/m*3 22 C 0 km/h
96 13-08-2010 19:07:02 21.7 C 8.01 g/m*3 21.7 C 0 km/h
97 13-08-2010 19:19:02 22.1 C 7.81 g/m*3 22.1 C 0 km/h
98 13-08-2010 19:31:02 21.9 C 8.1 g/m*3 21.9 C 0 km/h
99 13-08-2010 19:43:02 21.5 C 7.92 g/m*3 21.5 C 0 km/h
100 13-08-2010 19:55:02 22 C 7.57 g/m*3 22 C 0 km/h
Sensor: Nr:Datum:Temp:Abs-Feuchte:Windchill:Wind:
Aussen-T/F 101 13-08-2010 20:07:02 21.7 C 7.82 g/m*3 21.7 C 0 km/h
102 13-08-2010 20:19:02 20.7 C 7.92 g/m*3 20.7 C 0 km/h
103 13-08-2010 20:31:02 19.8 C 8.03 g/m*3 19.8 C 0 km/h
104 13-08-2010 20:43:02 19 C 7.99 g/m*3 19 C 0 km/h
105 13-08-2010 20:55:02 18.3 C 7.82 g/m*3 18.3 C 0 km/h
106 13-08-2010 21:07:02 17.9 C 7.79 g/m*3 17.9 C 0 km/h
107 13-08-2010 21:19:03 17.7 C 7.69 g/m*3 17.7 C 0 km/h
108 13-08-2010 21:31:02 17.8 C 7.89 g/m*3 17.8 C 0 km/h
109 13-08-2010 21:43:02 17.5 C 7.75 g/m*3 17.5 C 0 km/h
110 13-08-2010 21:55:03 17.4 C 8 g/m*3 17.4 C 0 km/h
111 13-08-2010 22:07:02 17.3 C 8.1 g/m*3 17.3 C 0 km/h
112 13-08-2010 22:19:02 17.1 C 8.01 g/m*3 17.1 C 0 km/h
113 13-08-2010 22:31:03 16.8 C 8.29 g/m*3 16.8 C 0 km/h
114 13-08-2010 22:43:03 16.4 C 8.37 g/m*3 16.4 C 0 km/h
115 13-08-2010 22:56:03 16 C 8.17 g/m*3 16 C 0 km/h
116 13-08-2010 23:08:03 15.8 C 8.35 g/m*3 15.8 C 0 km/h
117 13-08-2010 23:20:03 15.6 C 8.38 g/m*3 15.6 C 0 km/h
118 13-08-2010 23:32:03 15.5 C 8.86 g/m*3 15.5 C 0 km/h
119 13-08-2010 23:44:03 15.2 C 8.83 g/m*3 15.2 C 0 km/h
120 13-08-2010 23:56:03 15.1 C 8.77 g/m*3 15.1 C 0 km/h
121 14-08-2010 00:08:03 15 C 8.72 g/m*3 15 C 0 km/h
122 14-08-2010 00:20:03 14.9 C 8.92 g/m*3 14.9 C 0 km/h
123 14-08-2010 00:32:04 14.6 C 8.88 g/m*3 14.6 C 0 km/h
124 14-08-2010 00:44:04 14.5 C 8.95 g/m*3 14.5 C 0 km/h
125 14-08-2010 00:56:04 14.5 C 9.08 g/m*3 14.5 C 0 km/h
Sensor: Nr:Datum:Temp:Abs-Feuchte:Windchill:Wind:
Aussen-T/F 126 14-08-2010 01:08:04 14.3 C 9.09 g/m*3 14.3 C 0 km/h
127 14-08-2010 01:20:04 14.1 C 9.1 g/m*3 14.1 C 0 km/h
128 14-08-2010 01:32:04 13.8 C 9.06 g/m*3 13.8 C 0 km/h
129 14-08-2010 01:44:04 13.9 C 9.11 g/m*3 13.9 C 0 km/h
130 14-08-2010 01:56:04 13.8 C 9.17 g/m*3 13.8 C 0 km/h
131 14-08-2010 02:08:04 13.6 C 9.06 g/m*3 13.6 C 0 km/h
132 14-08-2010 02:20:04 13.4 C 8.95 g/m*3 13.4 C 0 km/h
133 14-08-2010 02:32:04 13.3 C 9.01 g/m*3 13.3 C 0 km/h
134 14-08-2010 02:44:04 13.2 C 8.96 g/m*3 13.2 C 0 km/h
135 14-08-2010 02:56:04 13.1 C 9.01 g/m*3 13.1 C 0 km/h
136 14-08-2010 03:08:04 12.9 C 9.02 g/m*3 12.9 C 0 km/h
137 14-08-2010 03:20:04 12.7 C 8.91 g/m*3 12.7 C 0 km/h
138 14-08-2010 03:32:04 12.6 C 8.85 g/m*3 12.6 C 0 km/h
139 14-08-2010 03:44:04 12.5 C 8.91 g/m*3 12.5 C 0 km/h
140 14-08-2010 03:56:04 12.3 C 8.69 g/m*3 12.3 C 0 km/h
141 14-08-2010 04:08:04 12.2 C 8.74 g/m*3 12.2 C 0 km/h
142 14-08-2010 04:20:04 12.1 C 8.69 g/m*3 12.1 C 0 km/h
143 14-08-2010 04:32:05 12.1 C 8.69 g/m*3 12.1 C 0 km/h
144 14-08-2010 04:44:05 12 C 8.74 g/m*3 12 C 0 km/h
145 14-08-2010 04:56:05 11.9 C 8.9 g/m*3 11.9 C 0 km/h
146 14-08-2010 05:08:05 11.8 C 8.84 g/m*3 11.8 C 0 km/h
147 14-08-2010 05:20:05 11.7 C 8.79 g/m*3 11.7 C 0 km/h
148 14-08-2010 05:32:05 11.6 C 8.73 g/m*3 11.6 C 0 km/h
149 14-08-2010 05:44:05 11.5 C 8.68 g/m*3 11.5 C 0 km/h
150 14-08-2010 05:56:05 11.5 C 8.78 g/m*3 11.5 C 0 km/h
Sensor: Nr:Datum:Temp:Abs-Feuchte:Windchill:Wind:
Aussen-T/F 151 14-08-2010 06:08:05 11.4 C 8.83 g/m*3 11.4 C 0 km/h
152 14-08-2010 06:20:05 11.1 C 8.66 g/m*3 11.1 C 0 km/h
153 14-08-2010 06:32:05 11.1 C 8.76 g/m*3 11.1 C 0 km/h
154 14-08-2010 06:44:05 11 C 8.71 g/m*3 11 C 0 km/h
155 14-08-2010 06:56:05 11 C 8.71 g/m*3 11 C 0 km/h
156 14-08-2010 07:08:04 11.1 C 8.76 g/m*3 11.1 C 0 km/h
157 14-08-2010 07:20:03 11.1 C 8.76 g/m*3 11.1 C 0 km/h
158 14-08-2010 07:32:04 11.3 C 8.87 g/m*3 11.3 C 0 km/h
159 14-08-2010 07:44:04 11.4 C 9.03 g/m*3 11.4 C 0 km/h
160 14-08-2010 07:56:02 11.5 C 9.09 g/m*3 11.5 C 0 km/h
161 14-08-2010 08:08:02 11.8 C 9.26 g/m*3 11.8 C 0 km/h
162 14-08-2010 08:20:02 12.1 C 9.33 g/m*3 12.1 C 0 km/h
163 14-08-2010 08:32:02 12.3 C 9.45 g/m*3 12.3 C 0 km/h
164 14-08-2010 08:44:02 12.6 C 9.51 g/m*3 12.6 C 0 km/h
165 14-08-2010 08:56:02 12.8 C 9.52 g/m*3 12.8 C 0 km/h
166 14-08-2010 09:08:02 13.2 C 9.53 g/m*3 13.2 C 0 km/h
167 14-08-2010 09:20:02 13.8 C 9.89 g/m*3 13.8 C 0 km/h
168 14-08-2010 09:32:02 14.4 C 10.01 g/m*3 14.4 C 0 km/h
169 14-08-2010 09:44:02 15 C 10 g/m*3 15 C 0 km/h
170 14-08-2010 09:56:01 15.6 C 10.24 g/m*3 15.6 C 0 km/h
171 14-08-2010 10:08:01 16.2 C 10.2 g/m*3 16.2 C 0 km/h
172 14-08-2010 10:20:02 16.9 C 10.36 g/m*3 16.9 C 0 km/h
173 14-08-2010 10:32:01 17.7 C 10.41 g/m*3 17.7 C 0 km/h
174 14-08-2010 10:44:01 18.3 C 10.48 g/m*3 18.3 C 0 km/h
175 14-08-2010 10:56:01 19 C 10.43 g/m*3 19 C 0 km/h
Sensor: Nr:Datum:Temp:Abs-Feuchte:Windchill:Wind:
Aussen-T/F 176 14-08-2010 11:08:01 19.5 C 10.57 g/m*3 19.5 C 0 km/h
177 14-08-2010 11:20:02 20 C 10.37 g/m*3 20 C 0 km/h
178 14-08-2010 11:32:01 20.6 C 10.38 g/m*3 20.6 C 0 km/h
179 14-08-2010 11:44:01 21.4 C 10.31 g/m*3 21.4 C 0 km/h
180 14-08-2010 11:56:02 21.9 C 10.03 g/m*3 21.9 C 0 km/h
181 14-08-2010 12:08:02 22.2 C 9.42 g/m*3 22.2 C 0 km/h
182 14-08-2010 12:20:02 22.7 C 9.9 g/m*3 22.7 C 0 km/h
183 14-08-2010 12:32:03 23.1 C 9.3 g/m*3 23.1 C 0 km/h
184 14-08-2010 12:44:03 23.2 C 8.94 g/m*3 23.2 C 0 km/h
185 14-08-2010 12:56:02 23.6 C 8.29 g/m*3 23.6 C 0 km/h
186 14-08-2010 13:08:01 24.5 C 8.06 g/m*3 24.5 C 0 km/h
187 14-08-2010 13:20:02 25.7 C 7.66 g/m*3 25.7 C 0 km/h
188 14-08-2010 13:32:02 26.4 C 7.47 g/m*3 26.4 C 0 km/h
189 14-08-2010 13:44:02 27.1 C 6.73 g/m*3 27.1 C 0 km/h
190 14-08-2010 13:56:02 27.5 C 6.88 g/m*3 27.5 C 0 km/h
191 14-08-2010 14:08:01 27.5 C 6.88 g/m*3 27.5 C 0 km/h
192 14-08-2010 14:20:02 28.2 C 7.42 g/m*3 28.2 C 0 km/h
193 14-08-2010 14:32:01 27.9 C 6.76 g/m*3 27.9 C 0 km/h
194 14-08-2010 14:44:01 27.4 C 6.84 g/m*3 27.4 C 0 km/h
195 14-08-2010 14:56:02 27.1 C 6.99 g/m*3 27.1 C 0 km/h
196 14-08-2010 15:08:02 27.7 C 6.95 g/m*3 27.7 C 0 km/h
197 14-08-2010 15:20:02 27.7 C 6.95 g/m*3 27.7 C 0 km/h
198 14-08-2010 15:32:03 27.5 C 6.61 g/m*3 27.5 C 0 km/h
199 14-08-2010 15:44:03 28.1 C 6.84 g/m*3 28.1 C 0 km/h
200 14-08-2010 15:56:02 29.2 C 6.1 g/m*3 29.2 C 0 km/h
Sensor: Nr:Datum:Temp:Abs-Feuchte:Windchill:Wind:
Aussen-T/F 201 14-08-2010 16:08:01 29.6 C 6.53 g/m*3 29.6 C 0 km/h
202 14-08-2010 16:20:02 30 C 6.67 g/m*3 30 C 0 km/h
203 14-08-2010 16:32:02 30 C 6.37 g/m*3 30 C 0 km/h
204 14-08-2010 16:44:02 30.3 C 6.47 g/m*3 30.3 C 0 km/h
205 14-08-2010 16:56:02 30.6 C 6.26 g/m*3 30.6 C 0 km/h
206 14-08-2010 17:08:02 30.7 C 6.3 g/m*3 30.7 C 0 km/h
207 14-08-2010 17:20:02 30.6 C 6.26 g/m*3 30.6 C 0 km/h
208 14-08-2010 17:32:02 30.9 C 6.37 g/m*3 30.9 C 0 km/h
209 14-08-2010 17:44:02 31 C 6.4 g/m*3 31 C 0 km/h
210 14-08-2010 17:56:01 31.2 C 6.47 g/m*3 31.2 C 0 km/h
211 14-08-2010 18:08:01 31.4 C 6.54 g/m*3 31.4 C 0 km/h
212 14-08-2010 18:20:01 31.5 C 6.57 g/m*3 31.5 C 0 km/h
213 14-08-2010 18:32:01 31.3 C 6.5 g/m*3 31.3 C 0 km/h
214 14-08-2010 18:44:01 31 C 6.4 g/m*3 31 C 0 km/h
215 14-08-2010 18:56:01 30.9 C 6.37 g/m*3 30.9 C 0 km/h
216 14-08-2010 19:08:01 29.6 C 7.72 g/m*3 29.6 C 0 km/h
217 14-08-2010 19:20:02 28.2 C 7.15 g/m*3 28.2 C 0 km/h
218 14-08-2010 19:32:01 27.4 C 7.37 g/m*3 27.4 C 0 km/h
219 14-08-2010 19:44:01 27.2 C 7.55 g/m*3 27.2 C 0 km/h
220 14-08-2010 19:56:03 26.9 C 7.93 g/m*3 26.9 C 0 km/h
221 14-08-2010 20:08:02 26.6 C 8.05 g/m*3 26.6 C 0 km/h
222 14-08-2010 20:20:02 25.8 C 8.19 g/m*3 25.8 C 0 km/h
223 14-08-2010 20:32:02 24.7 C 8.15 g/m*3 24.7 C 0 km/h
224 14-08-2010 20:44:02 24 C 8.05 g/m*3 24 C 0 km/h
225 14-08-2010 20:56:02 23.2 C 8.32 g/m*3 23.2 C 0 km/h
Sensor: Nr:Datum:Temp:Abs-Feuchte:Windchill:Wind:
Aussen-T/F 226 14-08-2010 21:08:02 22.7 C 8.49 g/m*3 22.7 C 0 km/h
227 14-08-2010 21:20:02 22.5 C 8.59 g/m*3 22.5 C 0 km/h
228 14-08-2010 21:32:02 22.1 C 8.78 g/m*3 22.1 C 0 km/h
229 14-08-2010 21:44:02 21.8 C 8.83 g/m*3 21.8 C 0 km/h
230 14-08-2010 21:56:02 21.6 C 8.91 g/m*3 21.6 C 0 km/h
231 14-08-2010 22:08:02 21.6 C 9.1 g/m*3 21.6 C 0 km/h
232 14-08-2010 22:20:01 21.5 C 9.05 g/m*3 21.5 C 0 km/h
233 14-08-2010 22:32:02 21.2 C 9.27 g/m*3 21.2 C 0 km/h
234 14-08-2010 22:44:02 21.1 C 9.21 g/m*3 21.1 C 0 km/h
235 14-08-2010 22:56:02 20.8 C 9.05 g/m*3 20.8 C 0 km/h
236 14-08-2010 23:08:02 20.7 C 9.36 g/m*3 20.7 C 0 km/h
237 14-08-2010 23:21:03 20.6 C 9.31 g/m*3 20.6 C 0 km/h
238 14-08-2010 23:33:03 20.3 C 9.15 g/m*3 20.3 C 0 km/h
239 14-08-2010 23:45:03 20.2 C 8.92 g/m*3 20.2 C 0 km/h
240 14-08-2010 23:57:03 20 C 8.99 g/m*3 20 C 0 km/h
241 15-08-2010 00:09:03 20 C 8.81 g/m*3 20 C 0 km/h
242 15-08-2010 00:21:03 19.8 C 8.88 g/m*3 19.8 C 0 km/h
243 15-08-2010 00:33:03 19.8 C 8.88 g/m*3 19.8 C 0 km/h
244 15-08-2010 00:45:03 19.6 C 8.78 g/m*3 19.6 C 0 km/h
245 15-08-2010 00:57:03 19.5 C 8.73 g/m*3 19.5 C 0 km/h
246 15-08-2010 01:09:03 19.5 C 8.89 g/m*3 19.5 C 0 km/h
247 15-08-2010 01:21:03 19.5 C 8.56 g/m*3 19.5 C 0 km/h
248 15-08-2010 01:33:03 19.4 C 8.84 g/m*3 19.4 C 0 km/h
249 15-08-2010 01:45:03 19.3 C 8.63 g/m*3 19.3 C 0 km/h
250 15-08-2010 01:57:03 19.2 C 8.74 g/m*3 19.2 C 0 km/h
Sensor: Nr:Datum:Temp:Abs-Feuchte:Windchill:Wind:
Aussen-T/F 251 15-08-2010 02:09:03 19.1 C 8.69 g/m*3 19.1 C 0 km/h
252 15-08-2010 02:21:03 19.1 C 9.02 g/m*3 19.1 C 0 km/h
253 15-08-2010 02:33:03 19 C 8.96 g/m*3 19 C 0 km/h
254 15-08-2010 02:45:03 18.9 C 9.07 g/m*3 18.9 C 0 km/h
255 15-08-2010 02:57:03 18.8 C 9.18 g/m*3 18.8 C 0 km/h
256 15-08-2010 03:09:03 18.8 C 9.34 g/m*3 18.8 C 0 km/h
257 15-08-2010 03:21:03 18.7 C 9.29 g/m*3 18.7 C 0 km/h
258 15-08-2010 03:33:04 18.6 C 9.23 g/m*3 18.6 C 0 km/h
259 15-08-2010 03:45:04 18.5 C 9.33 g/m*3 18.5 C 0 km/h
260 15-08-2010 03:57:04 18.4 C 9.28 g/m*3 18.4 C 0 km/h
261 15-08-2010 04:09:04 18.2 C 9.17 g/m*3 18.2 C 0 km/h
262 15-08-2010 04:21:04 18.2 C 9.33 g/m*3 18.2 C 0 km/h
263 15-08-2010 04:33:04 18.1 C 9.12 g/m*3 18.1 C 0 km/h
264 15-08-2010 04:45:04 18.1 C 9.12 g/m*3 18.1 C 0 km/h
265 15-08-2010 04:57:04 18.1 C 8.96 g/m*3 18.1 C 0 km/h
266 15-08-2010 05:09:04 18.1 C 8.81 g/m*3 18.1 C 0 km/h
267 15-08-2010 05:21:04 18.1 C 8.96 g/m*3 18.1 C 0 km/h
268 15-08-2010 05:33:04 18.1 C 8.81 g/m*3 18.1 C 0 km/h
269 15-08-2010 05:45:04 18 C 8.91 g/m*3 18 C 0 km/h
270 15-08-2010 05:57:04 18 C 8.91 g/m*3 18 C 0 km/h
271 15-08-2010 06:09:04 17.8 C 9.11 g/m*3 17.8 C 0 km/h
272 15-08-2010 06:21:04 17.9 C 9.01 g/m*3 17.9 C 0 km/h
273 15-08-2010 06:33:04 18 C 9.06 g/m*3 18 C 0 km/h
274 15-08-2010 06:45:04 17.9 C 9.01 g/m*3 17.9 C 0 km/h
275 15-08-2010 06:57:04 17.9 C 9.01 g/m*3 17.9 C 0 km/h
Sensor: Nr:Datum:Temp:Abs-Feuchte:Windchill:Wind:
Aussen-T/F 276 15-08-2010 07:09:04 18 C 8.91 g/m*3 18 C 0 km/h
277 15-08-2010 07:21:04 17.9 C 9.16 g/m*3 17.9 C 0 km/h
278 15-08-2010 07:33:04 17.2 C 9.52 g/m*3 17.2 C 0 km/h
279 15-08-2010 07:45:05 16.4 C 10.05 g/m*3 16.4 C 0 km/h
280 15-08-2010 07:57:05 16 C 10.63 g/m*3 16 C 0 km/h
281 15-08-2010 08:09:05 15.4 C 11.04 g/m*3 15.4 C 0 km/h
282 15-08-2010 08:21:05 15.1 C 11.22 g/m*3 15.1 C 0 km/h
283 15-08-2010 08:33:03 15.1 C 11.48 g/m*3 15.1 C 0 km/h
284 15-08-2010 08:45:02 15.4 C 11.82 g/m*3 15.4 C 0 km/h
285 15-08-2010 08:57:02 15.2 C 11.81 g/m*3 15.2 C 0 km/h
286 15-08-2010 09:09:03 15.1 C 11.74 g/m*3 15.1 C 0 km/h
287 15-08-2010 09:21:02 15.1 C 11.87 g/m*3 15.1 C 0 km/h
288 15-08-2010 09:33:02 15.2 C 12.07 g/m*3 15.2 C 0 km/h
289 15-08-2010 09:45:01 15.3 C 12.14 g/m*3 15.3 C 0 km/h
290 15-08-2010 09:57:01 15.3 C 12.14 g/m*3 15.3 C 0 km/h
291 15-08-2010 10:09:02 15.5 C 12.43 g/m*3 15.5 C 0 km/h
292 15-08-2010 10:21:01 15.4 C 12.35 g/m*3 15.4 C 0 km/h
293 15-08-2010 10:33:01 15.4 C 12.35 g/m*3 15.4 C 0 km/h
294 15-08-2010 10:45:01 15.5 C 12.43 g/m*3 15.5 C 0 km/h
295 15-08-2010 10:57:01 15.6 C 12.63 g/m*3 15.6 C 0 km/h
296 15-08-2010 11:09:01 15.7 C 12.71 g/m*3 15.7 C 0 km/h
297 15-08-2010 11:21:02 15.8 C 12.79 g/m*3 15.8 C 0 km/h
298 15-08-2010 11:33:01 15.8 C 12.79 g/m*3 15.8 C 0 km/h
299 15-08-2010 11:45:03 15.9 C 12.87 g/m*3 15.9 C 0 km/h
300 15-08-2010 11:57:03 15.9 C 12.87 g/m*3 15.9 C 0 km/h
Sensor: Nr:Datum:Temp:Abs-Feuchte:Windchill:Wind:
Aussen-T/F 301 15-08-2010 12:09:02 15.8 C 12.79 g/m*3 15.8 C 0 km/h
302 15-08-2010 12:21:02 16 C 12.94 g/m*3 16 C 0 km/h
303 15-08-2010 12:33:02 16.2 C 13.1 g/m*3 16.2 C 0 km/h
304 15-08-2010 12:45:02 16.1 C 13.02 g/m*3 16.1 C 0 km/h
305 15-08-2010 12:57:02 16.1 C 13.02 g/m*3 16.1 C 0 km/h
306 15-08-2010 13:09:02 16.1 C 13.02 g/m*3 16.1 C 0 km/h
307 15-08-2010 13:21:02 16.1 C 13.02 g/m*3 16.1 C 0 km/h
308 15-08-2010 13:33:02 16.2 C 13.1 g/m*3 16.2 C 0 km/h
309 15-08-2010 13:45:01 16.2 C 13.1 g/m*3 16.2 C 0 km/h
310 15-08-2010 13:57:01 16.1 C 13.02 g/m*3 16.1 C 0 km/h
311 15-08-2010 14:09:02 16.2 C 13.1 g/m*3 16.2 C 0 km/h
312 15-08-2010 14:21:02 16.3 C 13.18 g/m*3 16.3 C 0 km/h
313 15-08-2010 14:33:02 16.6 C 13.42 g/m*3 16.6 C 0 km/h
314 15-08-2010 14:45:02 16.6 C 13.42 g/m*3 16.6 C 0 km/h
315 15-08-2010 14:57:02 16.5 C 13.34 g/m*3 16.5 C 0 km/h
316 15-08-2010 15:09:02 16.4 C 13.26 g/m*3 16.4 C 0 km/h
317 15-08-2010 15:21:02 16.4 C 13.26 g/m*3 16.4 C 0 km/h
318 15-08-2010 15:33:01 16.4 C 13.26 g/m*3 16.4 C 0 km/h
319 15-08-2010 15:45:02 16.4 C 13.26 g/m*3 16.4 C 0 km/h
320 15-08-2010 15:57:02 16.4 C 13.26 g/m*3 16.4 C 0 km/h
321 15-08-2010 16:09:04 16.5 C 13.34 g/m*3 16.5 C 0 km/h
322 15-08-2010 16:21:02 16.5 C 13.34 g/m*3 16.5 C 0 km/h
323 15-08-2010 16:33:02 16.5 C 13.34 g/m*3 16.5 C 0 km/h
324 15-08-2010 16:45:03 16.4 C 13.26 g/m*3 16.4 C 0 km/h
325 15-08-2010 16:57:03 16.5 C 13.34 g/m*3 16.5 C 0 km/h
Sensor: Nr:Datum:Temp:Abs-Feuchte:Windchill:Wind:
Aussen-T/F 326 15-08-2010 17:09:03 16.6 C 13.42 g/m*3 16.6 C 0 km/h
327 15-08-2010 17:21:02 16.7 C 13.5 g/m*3 16.7 C 0 km/h
328 15-08-2010 17:33:02 16.7 C 13.5 g/m*3 16.7 C 0 km/h
329 15-08-2010 17:45:02 16.7 C 13.5 g/m*3 16.7 C 0 km/h
330 15-08-2010 17:57:02 16.7 C 13.5 g/m*3 16.7 C 0 km/h
331 15-08-2010 18:09:02 16.6 C 13.42 g/m*3 16.6 C 0 km/h
332 15-08-2010 18:21:02 16.6 C 13.42 g/m*3 16.6 C 0 km/h
333 15-08-2010 18:33:02 16.6 C 13.42 g/m*3 16.6 C 0 km/h
334 15-08-2010 18:45:02 16.6 C 13.42 g/m*3 16.6 C 0 km/h
335 15-08-2010 18:57:03 16.6 C 13.42 g/m*3 16.6 C 0 km/h
336 15-08-2010 19:09:01 16.6 C 13.42 g/m*3 16.6 C 0 km/h
337 15-08-2010 19:21:01 16.6 C 13.42 g/m*3 16.6 C 0 km/h
338 15-08-2010 19:33:02 16.6 C 13.42 g/m*3 16.6 C 0 km/h
339 15-08-2010 19:45:02 16.6 C 13.42 g/m*3 16.6 C 0 km/h
340 15-08-2010 19:57:02 16.6 C 13.42 g/m*3 16.6 C 0 km/h
341 15-08-2010 20:09:02 16.5 C 13.34 g/m*3 16.5 C 0 km/h
342 15-08-2010 20:21:02 16.4 C 13.26 g/m*3 16.4 C 0 km/h
343 15-08-2010 20:33:02 16.4 C 13.26 g/m*3 16.4 C 0 km/h
344 15-08-2010 20:45:02 16.3 C 13.18 g/m*3 16.3 C 0 km/h
345 15-08-2010 20:57:02 16.3 C 13.18 g/m*3 16.3 C 0 km/h
346 15-08-2010 21:09:02 16.3 C 13.18 g/m*3 16.3 C 0 km/h
347 15-08-2010 21:21:02 16.3 C 13.18 g/m*3 16.3 C 0 km/h
348 15-08-2010 21:33:02 16.2 C 13.1 g/m*3 16.2 C 0 km/h
349 15-08-2010 21:45:02 16.2 C 13.1 g/m*3 16.2 C 0 km/h
350 15-08-2010 21:57:02 16.2 C 13.1 g/m*3 16.2 C 0 km/h
Sensor: Nr:Datum:Temp:Abs-Feuchte:Windchill:Wind:
Aussen-T/F 351 15-08-2010 22:09:02 16.1 C 13.02 g/m*3 16.1 C 0 km/h
352 15-08-2010 22:21:02 16.1 C 13.02 g/m*3 16.1 C 0 km/h
353 15-08-2010 22:33:02 16.2 C 13.1 g/m*3 16.2 C 0 km/h
354 15-08-2010 22:45:02 16.2 C 13.1 g/m*3 16.2 C 0 km/h
355 15-08-2010 22:57:02 16.1 C 13.02 g/m*3 16.1 C 0 km/h
356 15-08-2010 23:09:02 16 C 12.94 g/m*3 16 C 0 km/h
357 15-08-2010 23:21:02 15.9 C 12.87 g/m*3 15.9 C 0 km/h
358 15-08-2010 23:33:02 15.4 C 12.48 g/m*3 15.4 C 0 km/h
359 15-08-2010 23:45:02 15.2 C 12.33 g/m*3 15.2 C 0 km/h
360 15-08-2010 23:57:02 15 C 12.18 g/m*3 15 C 0 km/h
361 16-08-2010 00:09:02 15 C 12.18 g/m*3 15 C 0 km/h
362 16-08-2010 00:21:01 15 C 12.18 g/m*3 15 C 0 km/h
363 16-08-2010 00:33:02 14.9 C 12.11 g/m*3 14.9 C 0 km/h
364 16-08-2010 00:45:02 14.8 C 12.03 g/m*3 14.8 C 0 km/h
365 16-08-2010 00:57:02 14.8 C 12.03 g/m*3 14.8 C 0 km/h
366 16-08-2010 01:09:02 14.8 C 12.03 g/m*3 14.8 C 0 km/h
367 16-08-2010 01:21:02 14.7 C 11.96 g/m*3 14.7 C 0 km/h
368 16-08-2010 01:33:02 14.7 C 11.83 g/m*3 14.7 C 0 km/h
369 16-08-2010 01:45:02 14.7 C 11.83 g/m*3 14.7 C 0 km/h
370 16-08-2010 01:57:02 14.7 C 11.71 g/m*3 14.7 C 0 km/h
371 16-08-2010 02:09:02 14.6 C 11.64 g/m*3 14.6 C 0 km/h
372 16-08-2010 02:21:02 14.6 C 11.64 g/m*3 14.6 C 0 km/h
373 16-08-2010 02:33:02 14.6 C 11.64 g/m*3 14.6 C 0 km/h
374 16-08-2010 02:46:03 14.6 C 11.51 g/m*3 14.6 C 0 km/h
375 16-08-2010 02:58:03 14.6 C 11.64 g/m*3 14.6 C 0 km/h
Sensor: Nr:Datum:Temp:Abs-Feuchte:Windchill:Wind:
Aussen-T/F 376 16-08-2010 03:10:04 14.6 C 11.64 g/m*3 14.6 C 0 km/h
377 16-08-2010 03:22:04 14.6 C 11.64 g/m*3 14.6 C 0 km/h
378 16-08-2010 03:34:02 14.6 C 11.64 g/m*3 14.6 C 0 km/h
379 16-08-2010 03:46:02 14.6 C 11.64 g/m*3 14.6 C 0 km/h
380 16-08-2010 03:58:02 14.6 C 11.64 g/m*3 14.6 C 0 km/h
381 16-08-2010 04:10:02 14.5 C 11.44 g/m*3 14.5 C 0 km/h
382 16-08-2010 04:22:02 14.5 C 11.32 g/m*3 14.5 C 0 km/h
383 16-08-2010 04:34:02 14.5 C 11.32 g/m*3 14.5 C 0 km/h
384 16-08-2010 04:46:02 14.5 C 11.32 g/m*3 14.5 C 0 km/h
385 16-08-2010 04:58:02 14.5 C 11.32 g/m*3 14.5 C 0 km/h
386 16-08-2010 05:10:02 14.5 C 11.32 g/m*3 14.5 C 0 km/h
387 16-08-2010 05:22:02 14.5 C 11.32 g/m*3 14.5 C 0 km/h
388 16-08-2010 05:34:02 14.5 C 11.44 g/m*3 14.5 C 0 km/h
389 16-08-2010 05:46:01 14.5 C 11.44 g/m*3 14.5 C 0 km/h
390 16-08-2010 05:58:01 14.5 C 11.44 g/m*3 14.5 C 0 km/h
391 16-08-2010 06:10:02 14.5 C 11.44 g/m*3 14.5 C 0 km/h
392 16-08-2010 06:22:02 14.5 C 11.32 g/m*3 14.5 C 0 km/h
393 16-08-2010 06:34:02 14.5 C 11.32 g/m*3 14.5 C 0 km/h
394 16-08-2010 06:46:02 14.6 C 11.39 g/m*3 14.6 C 0 km/h
395 16-08-2010 06:58:02 14.6 C 11.39 g/m*3 14.6 C 0 km/h
396 16-08-2010 07:10:02 14.6 C 11.39 g/m*3 14.6 C 0 km/h
397 16-08-2010 07:22:56 14.8 C 11.53 g/m*3 14.8 C 0 km/h
398 16-08-2010 07:34:02 14.8 C 11.53 g/m*3 14.8 C 0 km/h
399 16-08-2010 07:46:02 14.8 C 11.4 g/m*3 14.8 C 0 km/h
400 16-08-2010 07:58:02 15.2 C 11.42 g/m*3 15.2 C 0 km/h
Sensor: Nr:Datum:Temp:Abs-Feuchte:Windchill:Wind:
Aussen-T/F 401 16-08-2010 08:10:02 15.6 C 11.57 g/m*3 15.6 C 0 km/h
402 16-08-2010 08:22:01 15.8 C 11.58 g/m*3 15.8 C 0 km/h
403 16-08-2010 08:34:02 15.9 C 11.38 g/m*3 15.9 C 0 km/h
404 16-08-2010 08:46:01 16 C 11.31 g/m*3 16 C 0 km/h
405 16-08-2010 08:58:01 16.3 C 11.38 g/m*3 16.3 C 0 km/h
406 16-08-2010 09:10:02 17.1 C 11.5 g/m*3 17.1 C 0 km/h
407 16-08-2010 09:22:02 17.4 C 11.12 g/m*3 17.4 C 0 km/h
408 16-08-2010 09:34:01 17.4 C 10.82 g/m*3 17.4 C 0 km/h
409 16-08-2010 09:46:01 17.7 C 11.01 g/m*3 17.7 C 0 km/h
410 16-08-2010 09:58:01 17.4 C 10.97 g/m*3 17.4 C 0 km/h
411 16-08-2010 10:10:01 17.4 C 10.97 g/m*3 17.4 C 0 km/h
412 16-08-2010 10:22:02 17.3 C 10.9 g/m*3 17.3 C 0 km/h
413 16-08-2010 10:34:01 17.1 C 10.63 g/m*3 17.1 C 0 km/h
414 16-08-2010 10:46:02 17.2 C 10.84 g/m*3 17.2 C 0 km/h
415 16-08-2010 10:58:02 17 C 10.85 g/m*3 17 C 0 km/h
416 16-08-2010 11:10:01 17.3 C 11.05 g/m*3 17.3 C 0 km/h
417 16-08-2010 11:22:01 17.7 C 11.47 g/m*3 17.7 C 0 km/h
418 16-08-2010 11:42:02 18.1 C 10.97 g/m*3 18.1 C 0 km/h
419 16-08-2010 11:54:02 17.7 C 10.86 g/m*3 17.7 C 0 km/h
420 16-08-2010 12:06:03 17.5 C 11.33 g/m*3 17.5 C 0 km/h
421 16-08-2010 12:18:02 17.8 C 11.84 g/m*3 17.8 C 0 km/h
422 16-08-2010 12:30:02 17.6 C 11.4 g/m*3 17.6 C 0 km/h
423 16-08-2010 12:42:02 17.8 C 11.54 g/m*3 17.8 C 0 km/h
424 16-08-2010 12:54:02 18.1 C 11.12 g/m*3 18.1 C 0 km/h
425 16-08-2010 13:06:02 18.1 C 10.97 g/m*3 18.1 C 0 km/h
Sensor: Nr:Datum:Temp:Abs-Feuchte:Windchill:Wind:
Aussen-T/F 426 16-08-2010 13:18:02 18.2 C 10.72 g/m*3 18.2 C 0 km/h
427 16-08-2010 13:30:02 18.3 C 10.63 g/m*3 18.3 C 0 km/h
428 16-08-2010 13:42:02 18.5 C 10.28 g/m*3 18.5 C 0 km/h
429 16-08-2010 13:54:02 18.8 C 10.31 g/m*3 18.8 C 0 km/h
430 16-08-2010 14:06:01 19.5 C 10.41 g/m*3 19.5 C 0 km/h
431 16-08-2010 14:18:02 19.6 C 9.96 g/m*3 19.6 C 0 km/h
432 16-08-2010 14:30:03 20 C 9.51 g/m*3 20 C 0 km/h
433 16-08-2010 14:42:01 20.5 C 9.96 g/m*3 20.5 C 0 km/h
434 16-08-2010 14:54:02 19.8 C 9.57 g/m*3 19.8 C 0 km/h
435 16-08-2010 15:06:02 19.7 C 9.34 g/m*3 19.7 C 0 km/h
436 16-08-2010 15:18:02 19.7 C 9.51 g/m*3 19.7 C 0 km/h
437 16-08-2010 15:30:02 19.7 C 9.34 g/m*3 19.7 C 0 km/h
438 16-08-2010 15:42:03 19.8 C 9.57 g/m*3 19.8 C 0 km/h
439 16-08-2010 15:54:02 19.7 C 9.34 g/m*3 19.7 C 0 km/h
440 16-08-2010 16:06:02 20 C 9.68 g/m*3 20 C 0 km/h
441 16-08-2010 16:18:02 19.7 C 9.68 g/m*3 19.7 C 0 km/h
442 16-08-2010 16:30:02 19.6 C 9.79 g/m*3 19.6 C 0 km/h
443 16-08-2010 16:42:02 19.5 C 9.73 g/m*3 19.5 C 0 km/h
444 16-08-2010 16:54:02 20 C 9.85 g/m*3 20 C 0 km/h
445 16-08-2010 17:07:03 20 C 9.85 g/m*3 20 C 0 km/h
446 16-08-2010 17:19:02 19.9 C 9.79 g/m*3 19.9 C 0 km/h
447 16-08-2010 17:31:02 19.8 C 9.74 g/m*3 19.8 C 0 km/h
448 16-08-2010 17:43:02 19.8 C 9.74 g/m*3 19.8 C 0 km/h
449 16-08-2010 17:55:01 20.3 C 9.85 g/m*3 20.3 C 0 km/h
450 16-08-2010 18:07:02 20.2 C 9.44 g/m*3 20.2 C 0 km/h
Sensor: Nr:Datum:Temp:Abs-Feuchte:Windchill:Wind:
Aussen-T/F 451 16-08-2010 18:19:01 20 C 9.51 g/m*3 20 C 0 km/h
452 16-08-2010 18:31:01 19.8 C 9.74 g/m*3 19.8 C 0 km/h
453 16-08-2010 18:43:01 19.5 C 9.73 g/m*3 19.5 C 0 km/h
454 16-08-2010 18:55:01 19.3 C 9.79 g/m*3 19.3 C 0 km/h
455 16-08-2010 19:07:02 18.9 C 9.88 g/m*3 18.9 C 0 km/h
456 16-08-2010 19:19:02 18.8 C 9.99 g/m*3 18.8 C 0 km/h
457 16-08-2010 19:31:01 18.7 C 10.09 g/m*3 18.7 C 0 km/h
458 16-08-2010 19:43:01 18.4 C 10.07 g/m*3 18.4 C 0 km/h
459 16-08-2010 19:55:02 18.2 C 10.26 g/m*3 18.2 C 0 km/h
460 16-08-2010 20:07:01 18.1 C 10.35 g/m*3 18.1 C 0 km/h
461 16-08-2010 20:19:02 18 C 10.44 g/m*3 18 C 0 km/h
462 16-08-2010 20:31:01 17.9 C 10.69 g/m*3 17.9 C 0 km/h
463 16-08-2010 20:43:01 17.8 C 10.78 g/m*3 17.8 C 0 km/h
464 16-08-2010 20:55:02 17.7 C 10.86 g/m*3 17.7 C 0 km/h
465 16-08-2010 21:07:01 17.6 C 11.1 g/m*3 17.6 C 0 km/h
466 16-08-2010 21:19:01 17.4 C 11.12 g/m*3 17.4 C 0 km/h
467 16-08-2010 21:31:02 17.3 C 11.34 g/m*3 17.3 C 0 km/h
468 16-08-2010 21:43:02 17.4 C 11.41 g/m*3 17.4 C 0 km/h
469 16-08-2010 21:55:02 17.5 C 11.63 g/m*3 17.5 C 0 km/h
470 16-08-2010 22:07:35 17.4 C 11.71 g/m*3 17.4 C 0 km/h
471 16-08-2010 22:20:03 17.5 C 11.78 g/m*3 17.5 C 0 km/h
472 16-08-2010 22:32:03 17.6 C 11.85 g/m*3 17.6 C 0 km/h
473 16-08-2010 22:44:03 17.7 C 11.92 g/m*3 17.7 C 0 km/h
474 16-08-2010 22:56:03 17.7 C 11.92 g/m*3 17.7 C 0 km/h
475 16-08-2010 23:08:03 17.8 C 12.14 g/m*3 17.8 C 0 km/h
Sensor: Nr:Datum:Temp:Abs-Feuchte:Windchill:Wind:
Aussen-T/F 476 16-08-2010 23:20:03 17.7 C 12.07 g/m*3 17.7 C 0 km/h
477 16-08-2010 23:32:03 17.7 C 12.07 g/m*3 17.7 C 0 km/h
478 16-08-2010 23:44:03 17.8 C 11.99 g/m*3 17.8 C 0 km/h
479 16-08-2010 23:56:03 17.8 C 11.99 g/m*3 17.8 C 0 km/h
480 17-08-2010 00:08:03 17.8 C 11.99 g/m*3 17.8 C 0 km/h
481 17-08-2010 00:20:03 17.8 C 11.99 g/m*3 17.8 C 0 km/h
482 17-08-2010 00:32:03 17.7 C 11.92 g/m*3 17.7 C 0 km/h
483 17-08-2010 00:44:03 17.5 C 11.78 g/m*3 17.5 C 0 km/h
484 17-08-2010 00:56:03 17.3 C 12.08 g/m*3 17.3 C 0 km/h
485 17-08-2010 01:08:03 17.1 C 12.08 g/m*3 17.1 C 0 km/h
486 17-08-2010 01:20:03 16.8 C 12.3 g/m*3 16.8 C 0 km/h
487 17-08-2010 01:32:03 16.6 C 12.29 g/m*3 16.6 C 0 km/h
488 17-08-2010 01:44:03 16.5 C 12.36 g/m*3 16.5 C 0 km/h
489 17-08-2010 01:56:03 16.4 C 12.42 g/m*3 16.4 C 0 km/h
490 17-08-2010 02:08:03 16.3 C 12.35 g/m*3 16.3 C 0 km/h
491 17-08-2010 02:20:03 16.5 C 12.5 g/m*3 16.5 C 0 km/h
492 17-08-2010 02:32:04 16.5 C 12.5 g/m*3 16.5 C 0 km/h
493 17-08-2010 02:44:04 16.6 C 12.43 g/m*3 16.6 C 0 km/h
494 17-08-2010 02:56:04 16.5 C 12.08 g/m*3 16.5 C 0 km/h
495 17-08-2010 03:08:04 16.4 C 11.86 g/m*3 16.4 C 0 km/h
496 17-08-2010 03:20:04 16.4 C 11.86 g/m*3 16.4 C 0 km/h
497 17-08-2010 03:32:04 16.4 C 11.86 g/m*3 16.4 C 0 km/h
498 17-08-2010 03:44:04 16.4 C 11.72 g/m*3 16.4 C 0 km/h
499 17-08-2010 03:56:04 16.5 C 11.65 g/m*3 16.5 C 0 km/h
500 17-08-2010 04:08:04 16.5 C 11.37 g/m*3 16.5 C 0 km/h
Sensor: Nr:Datum:Temp:Abs-Feuchte:Windchill:Wind:
Aussen-T/F 501 17-08-2010 04:20:04 16.4 C 11.31 g/m*3 16.4 C 0 km/h
502 17-08-2010 04:32:04 16.4 C 11.17 g/m*3 16.4 C 0 km/h
503 17-08-2010 04:44:04 16.4 C 11.03 g/m*3 16.4 C 0 km/h
504 17-08-2010 04:56:04 16.4 C 11.03 g/m*3 16.4 C 0 km/h
505 17-08-2010 05:08:04 16 C 11.04 g/m*3 16 C 0 km/h
506 17-08-2010 05:20:04 15.5 C 11.24 g/m*3 15.5 C 0 km/h
507 17-08-2010 05:32:05 15.4 C 11.43 g/m*3 15.4 C 0 km/h
508 17-08-2010 05:44:05 15.6 C 11.57 g/m*3 15.6 C 0 km/h
509 17-08-2010 05:56:05 15.6 C 11.44 g/m*3 15.6 C 0 km/h
510 17-08-2010 06:08:05 15.7 C 11.37 g/m*3 15.7 C 0 km/h
511 17-08-2010 06:20:05 15.8 C 11.31 g/m*3 15.8 C 0 km/h
512 17-08-2010 06:32:05 15.8 C 11.31 g/m*3 15.8 C 0 km/h
513 17-08-2010 06:44:05 15.9 C 11.24 g/m*3 15.9 C 0 km/h
514 17-08-2010 06:56:02 16 C 10.9 g/m*3 16 C 0 km/h
515 17-08-2010 07:08:02 16.2 C 10.89 g/m*3 16.2 C 0 km/h
516 17-08-2010 07:20:24 16.2 C 10.76 g/m*3 16.2 C 0 km/h
517 17-08-2010 07:32:02 16.3 C 10.96 g/m*3 16.3 C 0 km/h
518 17-08-2010 07:44:02 16.4 C 10.89 g/m*3 16.4 C 0 km/h
519 17-08-2010 07:56:01 16.7 C 10.66 g/m*3 16.7 C 0 km/h
520 17-08-2010 08:08:03 16.7 C 10.66 g/m*3 16.7 C 0 km/h
521 17-08-2010 08:20:01 16.8 C 10.58 g/m*3 16.8 C 0 km/h
522 17-08-2010 08:32:02 16.7 C 10.23 g/m*3 16.7 C 0 km/h
523 17-08-2010 08:44:02 16.7 C 10.09 g/m*3 16.7 C 0 km/h
524 17-08-2010 08:56:02 16.7 C 10.09 g/m*3 16.7 C 0 km/h
525 17-08-2010 09:08:02 16.8 C 10.01 g/m*3 16.8 C 0 km/h
Sensor: Nr:Datum:Temp:Abs-Feuchte:Windchill:Wind:
Aussen-T/F 526 17-08-2010 09:20:02 16.9 C 9.78 g/m*3 16.9 C 0 km/h
527 17-08-2010 09:32:02 16.9 C 9.64 g/m*3 16.9 C 0 km/h
528 17-08-2010 09:44:02 17.1 C 9.46 g/m*3 17.1 C 0 km/h
529 17-08-2010 09:56:02 17.2 C 9.37 g/m*3 17.2 C 0 km/h
530 17-08-2010 10:08:02 17 C 9.26 g/m*3 17 C 0 km/h
531 17-08-2010 10:20:01 17 C 9.26 g/m*3 17 C 0 km/h
532 17-08-2010 10:32:02 17 C 9.41 g/m*3 17 C 0 km/h
533 17-08-2010 10:44:02 17 C 9.41 g/m*3 17 C 0 km/h
534 17-08-2010 10:56:02 17.3 C 9.43 g/m*3 17.3 C 0 km/h
535 17-08-2010 11:08:02 17.6 C 9.45 g/m*3 17.6 C 0 km/h
536 17-08-2010 11:20:02 17.3 C 9.58 g/m*3 17.3 C 0 km/h
537 17-08-2010 11:32:02 17.6 C 9.3 g/m*3 17.6 C 0 km/h
538 17-08-2010 11:44:02 17.7 C 8.75 g/m*3 17.7 C 0 km/h
539 17-08-2010 11:56:02 17.7 C 8.9 g/m*3 17.7 C 0 km/h
540 17-08-2010 12:08:02 17.6 C 8.85 g/m*3 17.6 C 0 km/h
541 17-08-2010 12:20:02 16.8 C 9.58 g/m*3 16.8 C 0 km/h
542 17-08-2010 12:32:02 16 C 10.08 g/m*3 16 C 0 km/h
543 17-08-2010 12:44:02 16.4 C 11.03 g/m*3 16.4 C 0 km/h
544 17-08-2010 12:56:02 16.3 C 10.96 g/m*3 16.3 C 0 km/h
545 17-08-2010 13:08:02 16.5 C 11.23 g/m*3 16.5 C 0 km/h
546 17-08-2010 13:20:02 16.8 C 11.58 g/m*3 16.8 C 0 km/h
547 17-08-2010 13:32:02 17.7 C 11.92 g/m*3 17.7 C 0 km/h
548 17-08-2010 13:44:02 17.9 C 11.76 g/m*3 17.9 C 0 km/h
549 17-08-2010 13:56:02 17.6 C 12.15 g/m*3 17.6 C 0 km/h
550 17-08-2010 14:08:01 17.7 C 10.41 g/m*3 17.7 C 0 km/h
Sensor: Nr:Datum:Temp:Abs-Feuchte:Windchill:Wind:
Aussen-T/F 551 17-08-2010 14:20:02 17.3 C 9.28 g/m*3 17.3 C 0 km/h
552 17-08-2010 14:32:02 17.4 C 9.19 g/m*3 17.4 C 0 km/h
553 17-08-2010 14:44:02 18.1 C 8.65 g/m*3 18.1 C 0 km/h
554 17-08-2010 14:56:02 18.2 C 8.24 g/m*3 18.2 C 0 km/h
555 17-08-2010 15:08:01 17.9 C 7.94 g/m*3 17.9 C 0 km/h
556 17-08-2010 15:20:01 18.3 C 7.97 g/m*3 18.3 C 0 km/h
557 17-08-2010 15:32:02 18 C 7.99 g/m*3 18 C 0 km/h
558 17-08-2010 15:44:02 16 C 9.4 g/m*3 16 C 0 km/h
559 17-08-2010 15:56:02 15.2 C 9.99 g/m*3 15.2 C 0 km/h
560 17-08-2010 16:08:02 14.9 C 10.2 g/m*3 14.9 C 0 km/h
561 17-08-2010 16:20:01 14.6 C 10.01 g/m*3 14.6 C 0 km/h
562 17-08-2010 16:32:02 14.4 C 9.64 g/m*3 14.4 C 0 km/h
563 17-08-2010 16:44:02 14.8 C 9.37 g/m*3 14.8 C 0 km/h
564 17-08-2010 16:56:02 14.8 C 9.5 g/m*3 14.8 C 0 km/h
565 17-08-2010 17:08:02 14.5 C 9.45 g/m*3 14.5 C 0 km/h
566 17-08-2010 17:20:01 14.4 C 9.64 g/m*3 14.4 C 0 km/h
567 17-08-2010 17:32:02 14.2 C 9.77 g/m*3 14.2 C 0 km/h
568 17-08-2010 17:44:02 14.3 C 10.32 g/m*3 14.3 C 0 km/h
569 17-08-2010 17:56:02 14.7 C 10.7 g/m*3 14.7 C 0 km/h
570 17-08-2010 18:08:02 14.3 C 10.57 g/m*3 14.3 C 0 km/h
571 17-08-2010 18:20:02 14.4 C 10.75 g/m*3 14.4 C 0 km/h
572 17-08-2010 18:32:02 14.8 C 11.15 g/m*3 14.8 C 0 km/h
573 17-08-2010 18:44:02 15.2 C 11.29 g/m*3 15.2 C 0 km/h
574 17-08-2010 18:56:02 15.3 C 11.23 g/m*3 15.3 C 0 km/h
575 17-08-2010 19:08:02 15.2 C 11.16 g/m*3 15.2 C 0 km/h
Sensor: Nr:Datum:Temp:Abs-Feuchte:Windchill:Wind:
Aussen-T/F 576 17-08-2010 19:20:02 15 C 11.03 g/m*3 15 C 0 km/h
577 17-08-2010 19:32:02 14.8 C 11.02 g/m*3 14.8 C 0 km/h
578 17-08-2010 19:44:02 14.7 C 11.08 g/m*3 14.7 C 0 km/h
579 17-08-2010 19:56:02 14.5 C 10.94 g/m*3 14.5 C 0 km/h
580 17-08-2010 20:08:01 14.4 C 11 g/m*3 14.4 C 0 km/h
581 17-08-2010 20:20:02 14.4 C 11 g/m*3 14.4 C 0 km/h
582 17-08-2010 20:32:02 14.2 C 10.99 g/m*3 14.2 C 0 km/h
583 17-08-2010 20:44:02 14.3 C 11.06 g/m*3 14.3 C 0 km/h
584 17-08-2010 20:56:02 14.3 C 11.06 g/m*3 14.3 C 0 km/h
585 17-08-2010 21:08:03 14.3 C 11.18 g/m*3 14.3 C 0 km/h
586 17-08-2010 21:20:02 14.3 C 11.18 g/m*3 14.3 C 0 km/h
587 17-08-2010 21:32:02 14.3 C 11.3 g/m*3 14.3 C 0 km/h
588 17-08-2010 21:44:02 14.4 C 11.37 g/m*3 14.4 C 0 km/h
589 17-08-2010 21:57:04 14.6 C 11.51 g/m*3 14.6 C 0 km/h
590 17-08-2010 22:09:05 14.6 C 11.51 g/m*3 14.6 C 0 km/h
591 17-08-2010 22:21:05 14.4 C 11 g/m*3 14.4 C 0 km/h
592 17-08-2010 22:33:05 14.6 C 10.64 g/m*3 14.6 C 0 km/h
593 17-08-2010 22:45:05 14.7 C 10.45 g/m*3 14.7 C 0 km/h
594 17-08-2010 22:57:05 14.8 C 10.13 g/m*3 14.8 C 0 km/h
595 17-08-2010 23:09:05 14.9 C 10.2 g/m*3 14.9 C 0 km/h
596 17-08-2010 23:21:05 14.9 C 10.2 g/m*3 14.9 C 0 km/h
597 17-08-2010 23:33:05 15 C 10 g/m*3 15 C 0 km/h
598 17-08-2010 23:45:05 15 C 9.87 g/m*3 15 C 0 km/h
599 17-08-2010 23:57:05 15.2 C 9.99 g/m*3 15.2 C 0 km/h
600 18-08-2010 00:09:05 15.3 C 9.79 g/m*3 15.3 C 0 km/h
Sensor: Nr:Datum:Temp:Abs-Feuchte:Windchill:Wind:
Aussen-T/F 601 18-08-2010 00:21:05 15.4 C 9.72 g/m*3 15.4 C 0 km/h
602 18-08-2010 00:33:05 15.5 C 9.65 g/m*3 15.5 C 0 km/h
603 18-08-2010 00:45:05 15.7 C 9.63 g/m*3 15.7 C 0 km/h
604 18-08-2010 00:57:05 15.7 C 9.5 g/m*3 15.7 C 0 km/h
605 18-08-2010 01:09:05 15.7 C 9.5 g/m*3 15.7 C 0 km/h
606 18-08-2010 01:21:05 15.8 C 9.42 g/m*3 15.8 C 0 km/h
607 18-08-2010 01:33:05 15.8 C 9.42 g/m*3 15.8 C 0 km/h
608 18-08-2010 01:45:05 15.8 C 9.42 g/m*3 15.8 C 0 km/h
609 18-08-2010 01:57:05 15.7 C 9.37 g/m*3 15.7 C 0 km/h
610 18-08-2010 02:09:05 15.5 C 9.39 g/m*3 15.5 C 0 km/h
611 18-08-2010 02:21:05 15.6 C 9.44 g/m*3 15.6 C 0 km/h
612 18-08-2010 02:33:05 15.5 C 9.39 g/m*3 15.5 C 0 km/h
613 18-08-2010 02:45:06 15.6 C 9.44 g/m*3 15.6 C 0 km/h
614 18-08-2010 02:57:06 15.5 C 9.52 g/m*3 15.5 C 0 km/h
615 18-08-2010 03:09:06 15.5 C 9.52 g/m*3 15.5 C 0 km/h
616 18-08-2010 03:21:06 15.4 C 9.46 g/m*3 15.4 C 0 km/h
617 18-08-2010 03:33:06 15.5 C 9.52 g/m*3 15.5 C 0 km/h
618 18-08-2010 03:45:06 15.4 C 9.46 g/m*3 15.4 C 0 km/h
619 18-08-2010 03:57:06 15.5 C 9.52 g/m*3 15.5 C 0 km/h
620 18-08-2010 04:09:06 15.4 C 9.33 g/m*3 15.4 C 0 km/h
621 18-08-2010 04:21:06 15.4 C 9.46 g/m*3 15.4 C 0 km/h
622 18-08-2010 04:33:06 15.2 C 9.48 g/m*3 15.2 C 0 km/h
623 18-08-2010 04:45:06 15 C 9.62 g/m*3 15 C 0 km/h
624 18-08-2010 04:57:06 15 C 9.87 g/m*3 15 C 0 km/h
625 18-08-2010 05:09:06 15 C 9.87 g/m*3 15 C 0 km/h
Sensor: Nr:Datum:Temp:Abs-Feuchte:Windchill:Wind:
Aussen-T/F 626 18-08-2010 05:21:06 15 C 9.75 g/m*3 15 C 0 km/h
627 18-08-2010 05:33:06 14.9 C 9.81 g/m*3 14.9 C 0 km/h
628 18-08-2010 05:45:06 14.9 C 9.81 g/m*3 14.9 C 0 km/h
629 18-08-2010 05:57:06 15 C 9.75 g/m*3 15 C 0 km/h
630 18-08-2010 06:09:06 15 C 9.62 g/m*3 15 C 0 km/h
631 18-08-2010 06:21:04 15 C 9.62 g/m*3 15 C 0 km/h
632 18-08-2010 06:33:04 15 C 9.49 g/m*3 15 C 0 km/h
633 18-08-2010 06:45:02 15.2 C 9.61 g/m*3 15.2 C 0 km/h
634 18-08-2010 06:57:02 15.2 C 9.48 g/m*3 15.2 C 0 km/h
635 18-08-2010 07:09:01 15.2 C 9.48 g/m*3 15.2 C 0 km/h
636 18-08-2010 07:21:01 15.3 C 9.66 g/m*3 15.3 C 0 km/h
637 18-08-2010 07:33:02 15.4 C 9.72 g/m*3 15.4 C 0 km/h
638 18-08-2010 07:45:02 15.5 C 9.78 g/m*3 15.5 C 0 km/h
639 18-08-2010 07:57:02 15.8 C 9.83 g/m*3 15.8 C 0 km/h
640 18-08-2010 08:09:02 15.9 C 9.89 g/m*3 15.9 C 0 km/h
641 18-08-2010 08:21:01 16 C 9.81 g/m*3 16 C 0 km/h
642 18-08-2010 08:33:02 16.1 C 9.87 g/m*3 16.1 C 0 km/h
643 18-08-2010 08:45:02 16.3 C 9.85 g/m*3 16.3 C 0 km/h
644 18-08-2010 08:57:02 16.5 C 9.97 g/m*3 16.5 C 0 km/h
645 18-08-2010 09:09:02 16.7 C 10.23 g/m*3 16.7 C 0 km/h
646 18-08-2010 09:21:02 17 C 10.13 g/m*3 17 C 0 km/h
647 18-08-2010 09:33:02 17 C 10.13 g/m*3 17 C 0 km/h
648 18-08-2010 09:45:02 17.5 C 10.14 g/m*3 17.5 C 0 km/h
649 18-08-2010 09:57:02 17.3 C 10.16 g/m*3 17.3 C 0 km/h
650 18-08-2010 10:09:02 17.4 C 10.08 g/m*3 17.4 C 0 km/h
Sensor: Nr:Datum:Temp:Abs-Feuchte:Windchill:Wind:
Aussen-T/F 651 18-08-2010 10:21:02 17.8 C 10.32 g/m*3 17.8 C 0 km/h
652 18-08-2010 10:33:01 18 C 10.14 g/m*3 18 C 0 km/h
653 18-08-2010 10:45:02 18.5 C 10.28 g/m*3 18.5 C 0 km/h
654 18-08-2010 10:57:02 19.1 C 10.16 g/m*3 19.1 C 0 km/h
655 18-08-2010 11:09:01 18.8 C 9.99 g/m*3 18.8 C 0 km/h
656 18-08-2010 11:21:02 18.9 C 10.21 g/m*3 18.9 C 0 km/h
657 18-08-2010 11:33:02 18.5 C 10.13 g/m*3 18.5 C 0 km/h
658 18-08-2010 11:45:02 18.5 C 10.28 g/m*3 18.5 C 0 km/h
659 18-08-2010 11:57:02 18.8 C 10.31 g/m*3 18.8 C 0 km/h
660 18-08-2010 12:09:02 19.1 C 10.16 g/m*3 19.1 C 0 km/h
661 18-08-2010 12:21:02 18.9 C 10.69 g/m*3 18.9 C 0 km/h
662 18-08-2010 12:33:02 18.8 C 10.63 g/m*3 18.8 C 0 km/h
663 18-08-2010 12:45:02 18.3 C 10.94 g/m*3 18.3 C 0 km/h
664 18-08-2010 12:57:02 19 C 10.92 g/m*3 19 C 0 km/h
665 18-08-2010 13:09:02 20 C 10.54 g/m*3 20 C 0 km/h
666 18-08-2010 13:21:02 19.8 C 10.76 g/m*3 19.8 C 0 km/h
667 18-08-2010 13:33:02 20.4 C 10.26 g/m*3 20.4 C 0 km/h
668 18-08-2010 13:45:02 21.5 C 9.99 g/m*3 21.5 C 0 km/h
669 18-08-2010 13:57:02 22.3 C 9.48 g/m*3 22.3 C 0 km/h
670 18-08-2010 14:09:02 22.2 C 9.03 g/m*3 22.2 C 0 km/h
671 18-08-2010 14:21:02 22.7 C 9.29 g/m*3 22.7 C 0 km/h
672 18-08-2010 14:33:02 22.7 C 9.29 g/m*3 22.7 C 0 km/h
673 18-08-2010 14:45:02 23.2 C 8.73 g/m*3 23.2 C 0 km/h
674 18-08-2010 14:57:02 23.4 C 8.83 g/m*3 23.4 C 0 km/h
675 18-08-2010 15:09:02 22.5 C 8.99 g/m*3 22.5 C 0 km/h
Sensor: Nr:Datum:Temp:Abs-Feuchte:Windchill:Wind:
Aussen-T/F 676 18-08-2010 15:21:02 21.3 C 9.51 g/m*3 21.3 C 0 km/h
677 18-08-2010 15:33:02 22 C 9.12 g/m*3 22 C 0 km/h
678 18-08-2010 15:45:02 22.4 C 8.74 g/m*3 22.4 C 0 km/h
679 18-08-2010 15:57:02 23 C 8.63 g/m*3 23 C 0 km/h
680 18-08-2010 16:09:02 22.7 C 9.09 g/m*3 22.7 C 0 km/h
681 18-08-2010 16:21:02 22.8 C 9.35 g/m*3 22.8 C 0 km/h
682 18-08-2010 16:33:02 23.6 C 9.15 g/m*3 23.6 C 0 km/h
683 18-08-2010 16:45:01 24.5 C 8.73 g/m*3 24.5 C 0 km/h
684 18-08-2010 16:57:01 24.8 C 8.65 g/m*3 24.8 C 0 km/h
685 18-08-2010 17:09:01 24 C 8.7 g/m*3 24 C 0 km/h
686 18-08-2010 17:21:01 23.2 C 8.94 g/m*3 23.2 C 0 km/h
687 18-08-2010 17:33:02 23.5 C 8.88 g/m*3 23.5 C 0 km/h
688 18-08-2010 17:45:02 24.5 C 8.95 g/m*3 24.5 C 0 km/h
689 18-08-2010 17:57:02 24.2 C 8.8 g/m*3 24.2 C 0 km/h
690 18-08-2010 18:09:02 22.8 C 9.35 g/m*3 22.8 C 0 km/h
691 18-08-2010 18:21:01 22.9 C 9.4 g/m*3 22.9 C 0 km/h
692 18-08-2010 18:33:02 22.2 C 9.03 g/m*3 22.2 C 0 km/h
693 18-08-2010 18:45:02 22 C 9.12 g/m*3 22 C 0 km/h
694 18-08-2010 18:57:02 21.9 C 8.88 g/m*3 21.9 C 0 km/h
695 18-08-2010 19:09:02 21.3 C 8.95 g/m*3 21.3 C 0 km/h
696 18-08-2010 19:21:01 21.1 C 9.03 g/m*3 21.1 C 0 km/h
697 18-08-2010 19:33:02 20.8 C 9.23 g/m*3 20.8 C 0 km/h
698 18-08-2010 19:45:01 20.4 C 9.38 g/m*3 20.4 C 0 km/h
699 18-08-2010 19:57:01 19.8 C 10.08 g/m*3 19.8 C 0 km/h
700 18-08-2010 20:09:02 19.2 C 10.22 g/m*3 19.2 C 0 km/h
Sensor: Nr:Datum:Temp:Abs-Feuchte:Windchill:Wind:
Aussen-T/F 701 18-08-2010 20:21:02 19.5 C 10.07 g/m*3 19.5 C 0 km/h
702 18-08-2010 20:33:02 19.5 C 9.9 g/m*3 19.5 C 0 km/h
703 18-08-2010 20:45:02 19.5 C 9.9 g/m*3 19.5 C 0 km/h
704 18-08-2010 20:57:02 19.5 C 9.9 g/m*3 19.5 C 0 km/h
705 18-08-2010 21:09:01 19.3 C 9.95 g/m*3 19.3 C 0 km/h
706 18-08-2010 21:21:02 19.1 C 10 g/m*3 19.1 C 0 km/h
707 18-08-2010 21:33:01 18.7 C 10.25 g/m*3 18.7 C 0 km/h
708 18-08-2010 21:45:02 18.7 C 10.41 g/m*3 18.7 C 0 km/h
709 18-08-2010 21:57:02 18.3 C 10.32 g/m*3 18.3 C 0 km/h
710 18-08-2010 22:09:01 18.1 C 10.51 g/m*3 18.1 C 0 km/h
711 18-08-2010 22:22:04 17.7 C 10.56 g/m*3 17.7 C 0 km/h
712 18-08-2010 22:34:04 17.5 C 10.59 g/m*3 17.5 C 0 km/h
713 18-08-2010 22:46:04 17.3 C 10.61 g/m*3 17.3 C 0 km/h
714 18-08-2010 22:58:04 17.4 C 10.67 g/m*3 17.4 C 0 km/h
715 18-08-2010 23:10:04 17.6 C 10.8 g/m*3 17.6 C 0 km/h
716 18-08-2010 23:22:04 17.7 C 10.56 g/m*3 17.7 C 0 km/h
717 18-08-2010 23:34:04 17.6 C 10.2 g/m*3 17.6 C 0 km/h
718 18-08-2010 23:46:04 17.5 C 9.69 g/m*3 17.5 C 0 km/h
719 18-08-2010 23:58:04 17.5 C 9.69 g/m*3 17.5 C 0 km/h
720 19-08-2010 00:10:04 17.4 C 9.19 g/m*3 17.4 C 0 km/h
721 19-08-2010 00:22:04 17.4 C 9.34 g/m*3 17.4 C 0 km/h
722 19-08-2010 00:34:04 17.4 C 9.04 g/m*3 17.4 C 0 km/h
723 19-08-2010 00:46:04 17.3 C 9.13 g/m*3 17.3 C 0 km/h
724 19-08-2010 00:58:04 17.3 C 8.99 g/m*3 17.3 C 0 km/h
725 19-08-2010 01:10:04 17.1 C 9.03 g/m*3 17.1 C 0 km/h
Sensor: Nr:Datum:Temp:Abs-Feuchte:Windchill:Wind:
Aussen-T/F 726 19-08-2010 01:22:05 17.1 C 9.17 g/m*3 17.1 C 0 km/h
727 19-08-2010 01:34:05 16.8 C 9.29 g/m*3 16.8 C 0 km/h
728 19-08-2010 01:46:05 16.7 C 9.24 g/m*3 16.7 C 0 km/h
729 19-08-2010 01:58:05 16.6 C 9.18 g/m*3 16.6 C 0 km/h
730 19-08-2010 02:10:05 16.5 C 8.85 g/m*3 16.5 C 0 km/h
731 19-08-2010 02:22:05 16.4 C 8.93 g/m*3 16.4 C 0 km/h
732 19-08-2010 02:34:05 16.3 C 8.6 g/m*3 16.3 C 0 km/h
733 19-08-2010 02:46:05 16.2 C 8.69 g/m*3 16.2 C 0 km/h
734 19-08-2010 02:58:05 16.2 C 8.96 g/m*3 16.2 C 0 km/h
735 19-08-2010 03:10:05 16.1 C 9.18 g/m*3 16.1 C 0 km/h
736 19-08-2010 03:22:05 16 C 9.26 g/m*3 16 C 0 km/h
737 19-08-2010 03:34:05 15.9 C 9.34 g/m*3 15.9 C 0 km/h
738 19-08-2010 03:46:05 15.8 C 9.15 g/m*3 15.8 C 0 km/h
739 19-08-2010 03:58:05 15.7 C 9.1 g/m*3 15.7 C 0 km/h
740 19-08-2010 04:10:05 15.7 C 9.23 g/m*3 15.7 C 0 km/h
741 19-08-2010 04:22:05 15.6 C 9.18 g/m*3 15.6 C 0 km/h
742 19-08-2010 04:34:05 15.5 C 9.39 g/m*3 15.5 C 0 km/h
743 19-08-2010 04:46:05 15.4 C 9.46 g/m*3 15.4 C 0 km/h
744 19-08-2010 04:58:05 15.5 C 9.65 g/m*3 15.5 C 0 km/h
745 19-08-2010 05:10:05 15.3 C 9.53 g/m*3 15.3 C 0 km/h
746 19-08-2010 05:22:05 15.2 C 9.48 g/m*3 15.2 C 0 km/h
747 19-08-2010 05:34:05 15 C 9.23 g/m*3 15 C 0 km/h
748 19-08-2010 05:46:05 15 C 9.36 g/m*3 15 C 0 km/h
749 19-08-2010 05:58:06 15 C 8.98 g/m*3 15 C 0 km/h
750 19-08-2010 06:10:06 14.8 C 8.99 g/m*3 14.8 C 0 km/h
Sensor: Nr:Datum:Temp:Abs-Feuchte:Windchill:Wind:
Aussen-T/F 751 19-08-2010 06:22:06 14.4 C 8.9 g/m*3 14.4 C 0 km/h
752 19-08-2010 06:34:06 14.2 C 8.91 g/m*3 14.2 C 0 km/h
753 19-08-2010 06:46:06 13.7 C 8.76 g/m*3 13.7 C 0 km/h
754 19-08-2010 06:58:06 13.8 C 8.94 g/m*3 13.8 C 0 km/h
755 19-08-2010 07:10:06 13.7 C 8.76 g/m*3 13.7 C 0 km/h
756 19-08-2010 07:22:06 13.9 C 8.15 g/m*3 13.9 C 0 km/h
757 19-08-2010 07:34:06 13.9 C 8.15 g/m*3 13.9 C 0 km/h
758 19-08-2010 07:46:01 14 C 8.08 g/m*3 14 C 0 km/h
759 19-08-2010 07:58:01 14.1 C 7.89 g/m*3 14.1 C 0 km/h
760 19-08-2010 08:10:02 14.4 C 7.91 g/m*3 14.4 C 0 km/h
761 19-08-2010 08:22:01 14.6 C 8.01 g/m*3 14.6 C 0 km/h
762 19-08-2010 08:34:01 14.8 C 8.11 g/m*3 14.8 C 0 km/h
763 19-08-2010 08:46:01 14.9 C 8.16 g/m*3 14.9 C 0 km/h
764 19-08-2010 08:58:01 15.2 C 8.05 g/m*3 15.2 C 0 km/h
765 19-08-2010 09:10:02 15.3 C 8.23 g/m*3 15.3 C 0 km/h
766 19-08-2010 09:22:01 15.4 C 8.15 g/m*3 15.4 C 0 km/h
767 19-08-2010 09:34:01 15.7 C 8.03 g/m*3 15.7 C 0 km/h
768 19-08-2010 09:46:01 16 C 8.04 g/m*3 16 C 0 km/h
769 19-08-2010 09:58:01 16.2 C 7.86 g/m*3 16.2 C 0 km/h
770 19-08-2010 10:10:02 16.6 C 7.91 g/m*3 16.6 C 0 km/h
771 19-08-2010 10:22:02 17.1 C 7.71 g/m*3 17.1 C 0 km/h
772 19-08-2010 10:34:02 17.7 C 7.69 g/m*3 17.7 C 0 km/h
773 19-08-2010 10:46:02 18.8 C 7.73 g/m*3 18.8 C 0 km/h
774 19-08-2010 10:58:02 19.3 C 7.3 g/m*3 19.3 C 0 km/h
775 19-08-2010 11:10:02 19.2 C 7.26 g/m*3 19.2 C 0 km/h
Sensor: Nr:Datum:Temp:Abs-Feuchte:Windchill:Wind:
Aussen-T/F 776 19-08-2010 11:22:02 19.5 C 7.38 g/m*3 19.5 C 0 km/h
777 19-08-2010 11:34:03 20.2 C 6.99 g/m*3 20.2 C 0 km/h
778 19-08-2010 11:46:02 20.4 C 7.43 g/m*3 20.4 C 0 km/h
779 19-08-2010 11:58:02 20.7 C 7.2 g/m*3 20.7 C 0 km/h
780 19-08-2010 12:10:01 20.3 C 7.03 g/m*3 20.3 C 0 km/h
781 19-08-2010 12:22:02 20.8 C 6.88 g/m*3 20.8 C 0 km/h
782 19-08-2010 12:34:02 22.1 C 6.64 g/m*3 22.1 C 0 km/h
783 19-08-2010 12:46:02 22 C 6.4 g/m*3 22 C 0 km/h
784 19-08-2010 12:58:02 22 C 6.21 g/m*3 22 C 0 km/h
785 19-08-2010 13:10:03 22.1 C 6.25 g/m*3 22.1 C 0 km/h
786 19-08-2010 13:22:02 22.1 C 6.05 g/m*3 22.1 C 0 km/h
787 19-08-2010 13:34:02 22.6 C 6.23 g/m*3 22.6 C 0 km/h
788 19-08-2010 13:46:01 22.7 C 6.06 g/m*3 22.7 C 0 km/h
789 19-08-2010 13:58:01 23.7 C 6.2 g/m*3 23.7 C 0 km/h
790 19-08-2010 14:10:02 23.3 C 6.27 g/m*3 23.3 C 0 km/h
791 19-08-2010 14:22:01 22.8 C 6.1 g/m*3 22.8 C 0 km/h
792 19-08-2010 14:34:01 23.7 C 5.78 g/m*3 23.7 C 0 km/h
793 19-08-2010 14:46:01 23 C 5.55 g/m*3 23 C 0 km/h
794 19-08-2010 14:58:01 22.4 C 6.36 g/m*3 22.4 C 0 km/h
795 19-08-2010 15:10:02 22.4 C 6.95 g/m*3 22.4 C 0 km/h
796 19-08-2010 15:22:01 23.2 C 6.44 g/m*3 23.2 C 0 km/h
797 19-08-2010 15:34:01 24.3 C 5.97 g/m*3 24.3 C 0 km/h
798 19-08-2010 15:46:01 24.6 C 5.63 g/m*3 24.6 C 0 km/h
799 19-08-2010 15:58:01 24.2 C 5.94 g/m*3 24.2 C 0 km/h
800 19-08-2010 16:10:01 23.4 C 7.36 g/m*3 23.4 C 0 km/h
Sensor: Nr:Datum:Temp:Abs-Feuchte:Windchill:Wind:
Aussen-T/F 801 19-08-2010 16:22:02 23.5 C 7.4 g/m*3 23.5 C 0 km/h
802 19-08-2010 16:34:01 23.5 C 7.82 g/m*3 23.5 C 0 km/h
803 19-08-2010 16:46:03 23.1 C 7.65 g/m*3 23.1 C 0 km/h
804 19-08-2010 16:58:03 22.9 C 7.97 g/m*3 22.9 C 0 km/h
805 19-08-2010 17:10:02 22.4 C 8.14 g/m*3 22.4 C 0 km/h
806 19-08-2010 17:22:02 22.9 C 8.17 g/m*3 22.9 C 0 km/h
807 19-08-2010 17:34:02 24.1 C 8.1 g/m*3 24.1 C 0 km/h
808 19-08-2010 17:46:02 24.5 C 7.39 g/m*3 24.5 C 0 km/h
809 19-08-2010 17:58:02 25.6 C 5.48 g/m*3 25.6 C 0 km/h
810 19-08-2010 18:10:01 25.1 C 5.32 g/m*3 25.1 C 0 km/h
811 19-08-2010 18:22:02 25 C 5.75 g/m*3 25 C 0 km/h
812 19-08-2010 18:34:02 25.3 C 5.85 g/m*3 25.3 C 0 km/h
813 19-08-2010 18:46:02 25.7 C 5.99 g/m*3 25.7 C 0 km/h
814 19-08-2010 18:58:02 26 C 5.84 g/m*3 26 C 0 km/h
815 19-08-2010 19:10:03 25.8 C 6.98 g/m*3 25.8 C 0 km/h
816 19-08-2010 19:22:02 25.8 C 6.26 g/m*3 25.8 C 0 km/h
817 19-08-2010 19:34:02 25.6 C 6.67 g/m*3 25.6 C 0 km/h
818 19-08-2010 19:46:01 24.9 C 6.87 g/m*3 24.9 C 0 km/h
819 19-08-2010 19:58:01 24.1 C 6.35 g/m*3 24.1 C 0 km/h
820 19-08-2010 20:10:02 22.8 C 6.71 g/m*3 22.8 C 0 km/h
821 19-08-2010 20:22:01 21.3 C 7.08 g/m*3 21.3 C 0 km/h
822 19-08-2010 20:34:02 20.1 C 7.13 g/m*3 20.1 C 0 km/h
823 19-08-2010 20:46:01 19.4 C 7.17 g/m*3 19.4 C 0 km/h
824 19-08-2010 20:58:01 18.9 C 7.45 g/m*3 18.9 C 0 km/h
825 19-08-2010 21:10:02 18.5 C 7.44 g/m*3 18.5 C 0 km/h
Sensor: Nr:Datum:Temp:Abs-Feuchte:Windchill:Wind:
Aussen-T/F 826 19-08-2010 21:22:01 18.3 C 7.82 g/m*3 18.3 C 0 km/h
827 19-08-2010 21:34:02 18.2 C 7.77 g/m*3 18.2 C 0 km/h
828 19-08-2010 21:46:01 17.9 C 8.09 g/m*3 17.9 C 0 km/h
829 19-08-2010 21:58:01 17.5 C 7.75 g/m*3 17.5 C 0 km/h
830 19-08-2010 22:10:02 17.3 C 7.96 g/m*3 17.3 C 0 km/h
831 19-08-2010 22:22:02 17.1 C 8.01 g/m*3 17.1 C 0 km/h
832 19-08-2010 22:34:02 17 C 7.96 g/m*3 17 C 0 km/h
833 19-08-2010 22:47:36 16.6 C 8.05 g/m*3 16.6 C 0 km/h
834 19-08-2010 22:59:36 16.3 C 8.05 g/m*3 16.3 C 0 km/h
835 19-08-2010 23:11:36 16 C 8.17 g/m*3 16 C 0 km/h
836 19-08-2010 23:23:36 15.8 C 8.48 g/m*3 15.8 C 0 km/h
837 19-08-2010 23:35:36 15.6 C 8.38 g/m*3 15.6 C 0 km/h
838 19-08-2010 23:47:36 15.5 C 8.46 g/m*3 15.5 C 0 km/h
839 19-08-2010 23:59:36 15.2 C 8.31 g/m*3 15.2 C 0 km/h
840 20-08-2010 00:11:36 15.1 C 8.51 g/m*3 15.1 C 0 km/h
841 20-08-2010 00:23:36 14.9 C 8.54 g/m*3 14.9 C 0 km/h
842 20-08-2010 00:35:36 14.7 C 8.56 g/m*3 14.7 C 0 km/h
843 20-08-2010 00:47:36 14.5 C 8.58 g/m*3 14.5 C 0 km/h
844 20-08-2010 00:59:36 14.4 C 8.53 g/m*3 14.4 C 0 km/h
845 20-08-2010 01:11:36 14.3 C 8.6 g/m*3 14.3 C 0 km/h
846 20-08-2010 01:23:36 14.2 C 8.67 g/m*3 14.2 C 0 km/h
847 20-08-2010 01:35:36 13.9 C 8.63 g/m*3 13.9 C 0 km/h
848 20-08-2010 01:47:37 14 C 8.56 g/m*3 14 C 0 km/h
849 20-08-2010 01:59:37 13.8 C 8.58 g/m*3 13.8 C 0 km/h
850 20-08-2010 02:11:37 13.6 C 8.59 g/m*3 13.6 C 0 km/h
Sensor: Nr:Datum:Temp:Abs-Feuchte:Windchill:Wind:
Aussen-T/F 851 20-08-2010 02:23:37 13.5 C 8.54 g/m*3 13.5 C 0 km/h
852 20-08-2010 02:35:37 13.3 C 8.66 g/m*3 13.3 C 0 km/h
853 20-08-2010 02:47:37 13.2 C 8.61 g/m*3 13.2 C 0 km/h
854 20-08-2010 02:59:37 13.1 C 8.56 g/m*3 13.1 C 0 km/h
855 20-08-2010 03:11:37 13 C 8.62 g/m*3 13 C 0 km/h
856 20-08-2010 03:23:03 12.9 C 8.68 g/m*3 12.9 C 0 km/h
857 20-08-2010 03:35:03 12.8 C 8.62 g/m*3 12.8 C 0 km/h
858 20-08-2010 03:47:03 12.7 C 8.57 g/m*3 12.7 C 0 km/h
859 20-08-2010 03:59:03 12.6 C 8.63 g/m*3 12.6 C 0 km/h
860 20-08-2010 04:11:03 12.4 C 8.63 g/m*3 12.4 C 0 km/h
861 20-08-2010 04:23:03 12.4 C 8.63 g/m*3 12.4 C 0 km/h
862 20-08-2010 04:35:03 12.3 C 8.58 g/m*3 12.3 C 0 km/h
863 20-08-2010 04:47:03 12.1 C 8.47 g/m*3 12.1 C 0 km/h
864 20-08-2010 04:59:03 12.1 C 8.58 g/m*3 12.1 C 0 km/h
865 20-08-2010 05:11:03 12 C 8.53 g/m*3 12 C 0 km/h
866 20-08-2010 05:23:03 12 C 8.63 g/m*3 12 C 0 km/h
867 20-08-2010 05:35:03 12 C 8.53 g/m*3 12 C 0 km/h
868 20-08-2010 05:47:03 11.8 C 8.53 g/m*3 11.8 C 0 km/h
869 20-08-2010 05:59:03 11.7 C 8.58 g/m*3 11.7 C 0 km/h
870 20-08-2010 06:11:03 11.6 C 8.52 g/m*3 11.6 C 0 km/h
871 20-08-2010 06:23:04 11.5 C 8.57 g/m*3 11.5 C 0 km/h
872 20-08-2010 06:35:04 11.4 C 8.52 g/m*3 11.4 C 0 km/h
873 20-08-2010 06:47:04 11.4 C 8.52 g/m*3 11.4 C 0 km/h
874 20-08-2010 06:59:04 11.5 C 8.57 g/m*3 11.5 C 0 km/h
875 20-08-2010 07:11:04 11.6 C 8.63 g/m*3 11.6 C 0 km/h
Sensor: Nr:Datum:Temp:Abs-Feuchte:Windchill:Wind:
Aussen-T/F 876 20-08-2010 07:23:04 11.6 C 8.73 g/m*3 11.6 C 0 km/h
877 20-08-2010 07:35:03 11.7 C 8.79 g/m*3 11.7 C 0 km/h
878 20-08-2010 07:47:03 11.8 C 8.84 g/m*3 11.8 C 0 km/h
879 20-08-2010 07:59:03 12.1 C 8.9 g/m*3 12.1 C 0 km/h
880 20-08-2010 08:11:02 12.1 C 9.01 g/m*3 12.1 C 0 km/h
881 20-08-2010 08:23:02 12.3 C 9.12 g/m*3 12.3 C 0 km/h
882 20-08-2010 08:35:02 12.5 C 9.24 g/m*3 12.5 C 0 km/h
883 20-08-2010 08:47:02 12.8 C 9.3 g/m*3 12.8 C 0 km/h
884 20-08-2010 08:59:02 13 C 9.3 g/m*3 13 C 0 km/h
885 20-08-2010 09:11:02 13.3 C 9.47 g/m*3 13.3 C 0 km/h
886 20-08-2010 09:23:02 13.8 C 9.77 g/m*3 13.8 C 0 km/h
887 20-08-2010 09:35:02 14.4 C 9.89 g/m*3 14.4 C 0 km/h
888 20-08-2010 09:47:02 15 C 10 g/m*3 15 C 0 km/h
889 20-08-2010 09:59:02 16 C 10.08 g/m*3 16 C 0 km/h
890 20-08-2010 10:11:01 16.8 C 10.29 g/m*3 16.8 C 0 km/h
891 20-08-2010 10:23:01 17.4 C 10.23 g/m*3 17.4 C 0 km/h
892 20-08-2010 10:35:02 18.1 C 10.2 g/m*3 18.1 C 0 km/h
893 20-08-2010 10:47:02 18.6 C 10.35 g/m*3 18.6 C 0 km/h
894 20-08-2010 10:59:02 19.2 C 10.39 g/m*3 19.2 C 0 km/h
895 20-08-2010 11:11:02 19.8 C 10.76 g/m*3 19.8 C 0 km/h
896 20-08-2010 11:23:02 20.5 C 10.68 g/m*3 20.5 C 0 km/h
897 20-08-2010 11:35:02 20.9 C 10.75 g/m*3 20.9 C 0 km/h
898 20-08-2010 11:47:02 21.7 C 11.06 g/m*3 21.7 C 0 km/h
899 20-08-2010 11:59:02 22 C 11.06 g/m*3 22 C 0 km/h
900 20-08-2010 12:11:02 22.8 C 10.97 g/m*3 22.8 C 0 km/h
Sensor: Nr:Datum:Temp:Abs-Feuchte:Windchill:Wind:
Aussen-T/F 901 20-08-2010 12:23:02 23.2 C 10.6 g/m*3 23.2 C 0 km/h
902 20-08-2010 12:35:02 23.7 C 11.12 g/m*3 23.7 C 0 km/h
903 20-08-2010 12:47:01 24.1 C 10.72 g/m*3 24.1 C 0 km/h
904 20-08-2010 12:59:01 25 C 10.82 g/m*3 25 C 0 km/h
905 20-08-2010 13:11:01 25.6 C 9.52 g/m*3 25.6 C 0 km/h
906 20-08-2010 13:23:01 26.4 C 9.71 g/m*3 26.4 C 0 km/h
907 20-08-2010 13:35:01 27 C 9.01 g/m*3 27 C 0 km/h
908 20-08-2010 13:47:02 27.5 C 9 g/m*3 27.5 C 0 km/h
909 20-08-2010 13:59:02 27.3 C 7.85 g/m*3 27.3 C 0 km/h
910 20-08-2010 14:11:02 27.8 C 8.07 g/m*3 27.8 C 0 km/h
911 20-08-2010 14:23:03 28.4 C 8.06 g/m*3 28.4 C 0 km/h
912 20-08-2010 14:35:02 28.1 C 7.11 g/m*3 28.1 C 0 km/h
913 20-08-2010 14:47:02 28.6 C 8.43 g/m*3 28.6 C 0 km/h
914 20-08-2010 14:59:02 28.9 C 7.43 g/m*3 28.9 C 0 km/h
915 20-08-2010 15:11:02 28.9 C 7.43 g/m*3 28.9 C 0 km/h
916 20-08-2010 15:23:02 29 C 7.18 g/m*3 29 C 0 km/h
917 20-08-2010 15:35:01 29.5 C 7.67 g/m*3 29.5 C 0 km/h
918 20-08-2010 15:47:02 30.1 C 7.32 g/m*3 30.1 C 0 km/h
919 20-08-2010 15:59:02 30.2 C 7.66 g/m*3 30.2 C 0 km/h
920 20-08-2010 16:11:01 30.4 C 7.75 g/m*3 30.4 C 0 km/h
921 20-08-2010 16:23:02 30.5 C 7.48 g/m*3 30.5 C 0 km/h
922 20-08-2010 16:35:02 30.9 C 7.96 g/m*3 30.9 C 0 km/h
923 20-08-2010 16:47:02 31 C 7.36 g/m*3 31 C 0 km/h
924 20-08-2010 16:59:02 30.8 C 7.28 g/m*3 30.8 C 0 km/h
925 20-08-2010 17:11:02 30.9 C 7.64 g/m*3 30.9 C 0 km/h
Sensor: Nr:Datum:Temp:Abs-Feuchte:Windchill:Wind:
Aussen-T/F 926 20-08-2010 17:23:02 31.2 C 7.12 g/m*3 31.2 C 0 km/h
927 20-08-2010 17:35:02 31.3 C 7.48 g/m*3 31.3 C 0 km/h
928 20-08-2010 17:47:02 31.4 C 7.19 g/m*3 31.4 C 0 km/h
929 20-08-2010 17:59:02 31 C 7.04 g/m*3 31 C 0 km/h
930 20-08-2010 18:11:02 31.3 C 7.48 g/m*3 31.3 C 0 km/h
931 20-08-2010 18:23:02 31.4 C 7.52 g/m*3 31.4 C 0 km/h
932 20-08-2010 18:35:02 31.5 C 7.56 g/m*3 31.5 C 0 km/h
933 20-08-2010 18:47:02 31 C 7.36 g/m*3 31 C 0 km/h
934 20-08-2010 18:59:02 30.9 C 8.28 g/m*3 30.9 C 0 km/h
935 20-08-2010 19:11:02 30.6 C 8.46 g/m*3 30.6 C 0 km/h
936 20-08-2010 19:23:03 30.3 C 8.63 g/m*3 30.3 C 0 km/h
937 20-08-2010 19:35:01 30 C 8.49 g/m*3 30 C 0 km/h
938 20-08-2010 19:47:02 29 C 8.04 g/m*3 29 C 0 km/h
939 20-08-2010 19:59:02 28 C 8.43 g/m*3 28 C 0 km/h
940 20-08-2010 20:11:02 26.6 C 8.81 g/m*3 26.6 C 0 km/h
941 20-08-2010 20:23:02 25.6 C 9.05 g/m*3 25.6 C 0 km/h
942 20-08-2010 20:35:01 25 C 9.21 g/m*3 25 C 0 km/h
943 20-08-2010 20:47:02 24.5 C 8.95 g/m*3 24.5 C 0 km/h
944 20-08-2010 20:59:03 23.8 C 9.25 g/m*3 23.8 C 0 km/h
945 20-08-2010 21:11:01 23.4 C 9.25 g/m*3 23.4 C 0 km/h
946 20-08-2010 21:23:01 23.3 C 9.41 g/m*3 23.3 C 0 km/h
947 20-08-2010 21:35:01 23.2 C 9.56 g/m*3 23.2 C 0 km/h
948 20-08-2010 21:47:02 22.9 C 9.81 g/m*3 22.9 C 0 km/h
949 20-08-2010 21:59:02 22.6 C 9.84 g/m*3 22.6 C 0 km/h
950 20-08-2010 22:11:02 22.5 C 9.99 g/m*3 22.5 C 0 km/h
Sensor: Nr:Datum:Temp:Abs-Feuchte:Windchill:Wind:
Aussen-T/F 951 20-08-2010 22:23:03 22.1 C 9.96 g/m*3 22.1 C 0 km/h
952 20-08-2010 22:35:02 21.9 C 10.42 g/m*3 21.9 C 0 km/h
953 20-08-2010 22:48:02 21.6 C 10.43 g/m*3 21.6 C 0 km/h
954 20-08-2010 23:00:02 21.4 C 10.5 g/m*3 21.4 C 0 km/h
955 20-08-2010 23:12:02 21.1 C 10.69 g/m*3 21.1 C 0 km/h
956 20-08-2010 23:24:02 20.9 C 10.75 g/m*3 20.9 C 0 km/h
957 20-08-2010 23:36:02 20.7 C 10.62 g/m*3 20.7 C 0 km/h
958 20-08-2010 23:48:02 20.4 C 10.61 g/m*3 20.4 C 0 km/h
959 21-08-2010 00:00:02 20.2 C 10.67 g/m*3 20.2 C 0 km/h
960 21-08-2010 00:12:02 20 C 10.71 g/m*3 20 C 0 km/h
961 21-08-2010 00:24:02 19.7 C 10.7 g/m*3 19.7 C 0 km/h
962 21-08-2010 00:36:02 19.6 C 10.8 g/m*3 19.6 C 0 km/h
963 21-08-2010 00:48:02 19.3 C 10.95 g/m*3 19.3 C 0 km/h
964 21-08-2010 01:00:02 19.1 C 10.98 g/m*3 19.1 C 0 km/h
965 21-08-2010 01:12:02 19 C 10.92 g/m*3 19 C 0 km/h
966 21-08-2010 01:24:02 18.8 C 11.11 g/m*3 18.8 C 0 km/h
967 21-08-2010 01:36:02 18.7 C 11.05 g/m*3 18.7 C 0 km/h
968 21-08-2010 01:48:02 18.6 C 10.98 g/m*3 18.6 C 0 km/h
969 21-08-2010 02:00:02 18.4 C 11.01 g/m*3 18.4 C 0 km/h
970 21-08-2010 02:12:02 18.2 C 11.04 g/m*3 18.2 C 0 km/h
971 21-08-2010 02:24:03 18.1 C 10.97 g/m*3 18.1 C 0 km/h
972 21-08-2010 02:36:03 18.1 C 11.12 g/m*3 18.1 C 0 km/h
973 21-08-2010 02:48:03 18 C 11.06 g/m*3 18 C 0 km/h
974 21-08-2010 03:00:03 17.9 C 11.15 g/m*3 17.9 C 0 km/h
975 21-08-2010 03:12:03 17.8 C 11.08 g/m*3 17.8 C 0 km/h
Sensor: Nr:Datum:Temp:Abs-Feuchte:Windchill:Wind:
Aussen-T/F 976 21-08-2010 03:24:03 17.7 C 11.16 g/m*3 17.7 C 0 km/h
977 21-08-2010 03:36:03 17.5 C 11.03 g/m*3 17.5 C 0 km/h
978 21-08-2010 03:48:03 17.4 C 11.12 g/m*3 17.4 C 0 km/h
979 21-08-2010 04:00:03 17.3 C 11.2 g/m*3 17.3 C 0 km/h
980 21-08-2010 04:12:03 17.2 C 11.13 g/m*3 17.2 C 0 km/h
981 21-08-2010 04:24:03 17.1 C 11.06 g/m*3 17.1 C 0 km/h
982 21-08-2010 04:36:03 16.9 C 11.08 g/m*3 16.9 C 0 km/h
983 21-08-2010 04:48:03 16.8 C 11.15 g/m*3 16.8 C 0 km/h
984 21-08-2010 05:00:03 16.7 C 11.08 g/m*3 16.7 C 0 km/h
985 21-08-2010 05:12:03 16.5 C 10.95 g/m*3 16.5 C 0 km/h
986 21-08-2010 05:24:03 16.5 C 10.95 g/m*3 16.5 C 0 km/h
987 21-08-2010 05:36:03 16.3 C 10.82 g/m*3 16.3 C 0 km/h
988 21-08-2010 05:48:03 16.3 C 10.96 g/m*3 16.3 C 0 km/h
989 21-08-2010 06:00:03 16.2 C 10.89 g/m*3 16.2 C 0 km/h
990 21-08-2010 06:12:03 16.1 C 10.83 g/m*3 16.1 C 0 km/h
991 21-08-2010 06:24:04 16 C 10.9 g/m*3 16 C 0 km/h
992 21-08-2010 06:36:04 16 C 10.9 g/m*3 16 C 0 km/h
993 21-08-2010 06:48:04 15.9 C 10.97 g/m*3 15.9 C 0 km/h
994 21-08-2010 07:00:04 15.8 C 10.9 g/m*3 15.8 C 0 km/h
995 21-08-2010 07:12:04 15.9 C 11.1 g/m*3 15.9 C 0 km/h
996 21-08-2010 07:24:04 16 C 11.04 g/m*3 16 C 0 km/h
997 21-08-2010 07:36:04 16.1 C 11.1 g/m*3 16.1 C 0 km/h
998 21-08-2010 07:48:04 16.2 C 11.17 g/m*3 16.2 C 0 km/h
999 21-08-2010 08:00:04 16.4 C 11.31 g/m*3 16.4 C 0 km/h
1000 21-08-2010 08:12:02 16.6 C 11.58 g/m*3 16.6 C 0 km/h
Sensor: Nr:Datum:Temp:Abs-Feuchte:Windchill:Wind:
Aussen-T/F 1001 21-08-2010 08:24:02 16.7 C 11.51 g/m*3 16.7 C 0 km/h
1002 21-08-2010 08:36:02 17 C 11.58 g/m*3 17 C 0 km/h
1003 21-08-2010 08:48:01 17.2 C 11.72 g/m*3 17.2 C 0 km/h
1004 21-08-2010 09:00:01 17.5 C 11.78 g/m*3 17.5 C 0 km/h
1005 21-08-2010 09:12:02 17.9 C 12.06 g/m*3 17.9 C 0 km/h
1006 21-08-2010 09:24:02 18.4 C 12.27 g/m*3 18.4 C 0 km/h
1007 21-08-2010 09:36:01 18.9 C 12.47 g/m*3 18.9 C 0 km/h
1008 21-08-2010 09:48:02 19.4 C 12.51 g/m*3 19.4 C 0 km/h
1009 21-08-2010 10:00:02 20.2 C 12.76 g/m*3 20.2 C 0 km/h
1010 21-08-2010 10:12:02 20.8 C 12.86 g/m*3 20.8 C 0 km/h
1011 21-08-2010 10:24:02 21.3 C 12.86 g/m*3 21.3 C 0 km/h
1012 21-08-2010 10:36:01 22 C 12.81 g/m*3 22 C 0 km/h
1013 21-08-2010 10:48:02 22.7 C 12.93 g/m*3 22.7 C 0 km/h
1014 21-08-2010 11:00:02 23.3 C 12.96 g/m*3 23.3 C 0 km/h
1015 21-08-2010 11:12:01 24 C 12.84 g/m*3 24 C 0 km/h
1016 21-08-2010 11:24:02 24.7 C 12.68 g/m*3 24.7 C 0 km/h
1017 21-08-2010 11:36:02 25.5 C 11.6 g/m*3 25.5 C 0 km/h
1018 21-08-2010 11:48:01 26.3 C 10.4 g/m*3 26.3 C 0 km/h
1019 21-08-2010 12:00:01 26.8 C 9.93 g/m*3 26.8 C 0 km/h
1020 21-08-2010 12:12:01 27.2 C 9.89 g/m*3 27.2 C 0 km/h
1021 21-08-2010 12:24:01 27.7 C 9.9 g/m*3 27.7 C 0 km/h
1022 21-08-2010 12:36:01 27.9 C 10.01 g/m*3 27.9 C 0 km/h
1023 21-08-2010 12:48:02 28.1 C 9.3 g/m*3 28.1 C 0 km/h
1024 21-08-2010 13:00:02 28.4 C 9.73 g/m*3 28.4 C 0 km/h
1025 21-08-2010 13:12:02 28.8 C 9.38 g/m*3 28.8 C 0 km/h
Sensor: Nr:Datum:Temp:Abs-Feuchte:Windchill:Wind:
Aussen-T/F 1026 21-08-2010 13:24:01 29.2 C 9 g/m*3 29.2 C 0 km/h
1027 21-08-2010 13:36:02 29.5 C 8.85 g/m*3 29.5 C 0 km/h
1028 21-08-2010 13:48:01 29.7 C 8.95 g/m*3 29.7 C 0 km/h
1029 21-08-2010 14:00:01 29.9 C 9.05 g/m*3 29.9 C 0 km/h
1030 21-08-2010 14:12:02 30.3 C 8.94 g/m*3 30.3 C 0 km/h
1031 21-08-2010 14:24:01 30.3 C 8.63 g/m*3 30.3 C 0 km/h
1032 21-08-2010 14:36:02 30.6 C 8.46 g/m*3 30.6 C 0 km/h
1033 21-08-2010 14:48:01 31 C 8.32 g/m*3 31 C 0 km/h
1034 21-08-2010 15:00:01 30.8 C 8.55 g/m*3 30.8 C 0 km/h
1035 21-08-2010 15:12:02 31.4 C 8.83 g/m*3 31.4 C 0 km/h
1036 21-08-2010 15:24:02 31.4 C 8.17 g/m*3 31.4 C 0 km/h
1037 21-08-2010 15:36:02 31.2 C 9.06 g/m*3 31.2 C 0 km/h
1038 21-08-2010 15:48:02 31.6 C 7.93 g/m*3 31.6 C 0 km/h
1039 21-08-2010 16:00:02 32.1 C 7.81 g/m*3 32.1 C 0 km/h
1040 21-08-2010 16:12:02 32.2 C 7.51 g/m*3 32.2 C 0 km/h
1041 21-08-2010 16:24:02 32.5 C 7.28 g/m*3 32.5 C 0 km/h
1042 21-08-2010 16:36:01 32.1 C 7.81 g/m*3 32.1 C 0 km/h
1043 21-08-2010 16:48:02 31.8 C 9.02 g/m*3 31.8 C 0 km/h
1044 21-08-2010 17:00:02 32.1 C 8.15 g/m*3 32.1 C 0 km/h
1045 21-08-2010 17:12:01 32.4 C 7.59 g/m*3 32.4 C 0 km/h
1046 21-08-2010 17:24:02 32.3 C 7.55 g/m*3 32.3 C 0 km/h
1047 21-08-2010 17:36:02 32.8 C 7.4 g/m*3 32.8 C 0 km/h
1048 21-08-2010 17:48:02 32.3 C 7.2 g/m*3 32.3 C 0 km/h
1049 21-08-2010 18:00:02 32.6 C 7.32 g/m*3 32.6 C 0 km/h
1050 21-08-2010 18:12:02 32.5 C 7.63 g/m*3 32.5 C 0 km/h
Sensor: Nr:Datum:Temp:Abs-Feuchte:Windchill:Wind:
Aussen-T/F 1051 21-08-2010 18:24:02 32.7 C 7.36 g/m*3 32.7 C 0 km/h
1052 21-08-2010 18:36:02 32.3 C 7.55 g/m*3 32.3 C 0 km/h
1053 21-08-2010 18:48:02 32 C 7.09 g/m*3 32 C 0 km/h
1054 21-08-2010 19:00:02 31.9 C 7.05 g/m*3 31.9 C 0 km/h
1055 21-08-2010 19:12:02 32 C 7.76 g/m*3 32 C 0 km/h
1056 21-08-2010 19:24:01 31.7 C 7.64 g/m*3 31.7 C 0 km/h
1057 21-08-2010 19:36:02 31.5 C 8.22 g/m*3 31.5 C 0 km/h
1058 21-08-2010 19:48:02 31.2 C 9.06 g/m*3 31.2 C 0 km/h
1059 21-08-2010 20:00:02 30.6 C 8.46 g/m*3 30.6 C 0 km/h
1060 21-08-2010 20:12:02 30 C 9.4 g/m*3 30 C 0 km/h
1061 21-08-2010 20:24:01 28.5 C 9.22 g/m*3 28.5 C 0 km/h
1062 21-08-2010 20:36:02 28.1 C 9.57 g/m*3 28.1 C 0 km/h
1063 21-08-2010 20:48:02 26.9 C 9.73 g/m*3 26.9 C 0 km/h
1064 21-08-2010 21:00:02 26.5 C 10.01 g/m*3 26.5 C 0 km/h
1065 21-08-2010 21:12:02 26.2 C 10.09 g/m*3 26.2 C 0 km/h
1066 21-08-2010 21:24:02 25.8 C 10.35 g/m*3 25.8 C 0 km/h
1067 21-08-2010 21:36:02 25.3 C 10.3 g/m*3 25.3 C 0 km/h
1068 21-08-2010 21:48:02 24.8 C 10.47 g/m*3 24.8 C 0 km/h
1069 21-08-2010 22:00:02 24.8 C 10.7 g/m*3 24.8 C 0 km/h
1070 21-08-2010 22:12:02 24.5 C 10.74 g/m*3 24.5 C 0 km/h
1071 21-08-2010 22:24:02 24.4 C 10.9 g/m*3 24.4 C 0 km/h
1072 21-08-2010 22:36:02 24.1 C 10.94 g/m*3 24.1 C 0 km/h
1073 21-08-2010 22:48:01 23.9 C 11.03 g/m*3 23.9 C 0 km/h
1074 21-08-2010 23:00:01 23.6 C 10.85 g/m*3 23.6 C 0 km/h
1075 21-08-2010 23:12:02 23.4 C 11.35 g/m*3 23.4 C 0 km/h
Sensor: Nr:Datum:Temp:Abs-Feuchte:Windchill:Wind:
Aussen-T/F 1076 21-08-2010 23:24:01 23.3 C 11.08 g/m*3 23.3 C 0 km/h
1077 21-08-2010 23:36:02 22.9 C 11.44 g/m*3 22.9 C 0 km/h
1078 21-08-2010 23:48:01 22.6 C 11.45 g/m*3 22.6 C 0 km/h
1079 22-08-2010 00:00:01 22.3 C 11.26 g/m*3 22.3 C 0 km/h
1080 22-08-2010 00:13:04 22.3 C 11.45 g/m*3 22.3 C 0 km/h
1081 22-08-2010 00:25:04 22 C 11.45 g/m*3 22 C 0 km/h
1082 22-08-2010 00:37:04 21.8 C 11.51 g/m*3 21.8 C 0 km/h
1083 22-08-2010 00:49:04 21.6 C 11.57 g/m*3 21.6 C 0 km/h
1084 22-08-2010 01:01:04 21.5 C 11.69 g/m*3 21.5 C 0 km/h
1085 22-08-2010 01:13:04 21.2 C 11.49 g/m*3 21.2 C 0 km/h
1086 22-08-2010 01:25:04 21 C 11.54 g/m*3 21 C 0 km/h
1087 22-08-2010 01:37:04 20.9 C 11.84 g/m*3 20.9 C 0 km/h
1088 22-08-2010 01:49:04 20.6 C 11.81 g/m*3 20.6 C 0 km/h
1089 22-08-2010 02:01:05 20.5 C 11.74 g/m*3 20.5 C 0 km/h
1090 22-08-2010 02:13:05 20.4 C 11.85 g/m*3 20.4 C 0 km/h
1091 22-08-2010 02:25:05 20.1 C 11.82 g/m*3 20.1 C 0 km/h
1092 22-08-2010 02:37:05 19.9 C 12.03 g/m*3 19.9 C 0 km/h
1093 22-08-2010 02:49:05 19.8 C 11.96 g/m*3 19.8 C 0 km/h
1094 22-08-2010 03:01:05 19.7 C 12.06 g/m*3 19.7 C 0 km/h
1095 22-08-2010 03:13:05 19.7 C 12.23 g/m*3 19.7 C 0 km/h
1096 22-08-2010 03:25:05 19.5 C 12.08 g/m*3 19.5 C 0 km/h
1097 22-08-2010 03:37:05 19.3 C 11.94 g/m*3 19.3 C 0 km/h
1098 22-08-2010 03:49:05 19.4 C 12.18 g/m*3 19.4 C 0 km/h
1099 22-08-2010 04:01:05 19.3 C 12.11 g/m*3 19.3 C 0 km/h
1100 22-08-2010 04:13:05 19.3 C 12.27 g/m*3 19.3 C 0 km/h
Sensor: Nr:Datum:Temp:Abs-Feuchte:Windchill:Wind:
Aussen-T/F 1101 22-08-2010 04:25:05 19.2 C 12.04 g/m*3 19.2 C 0 km/h
1102 22-08-2010 04:37:05 19.1 C 11.97 g/m*3 19.1 C 0 km/h
1103 22-08-2010 04:49:05 18.9 C 12.15 g/m*3 18.9 C 0 km/h
1104 22-08-2010 05:01:05 18.8 C 12.08 g/m*3 18.8 C 0 km/h
1105 22-08-2010 05:13:05 18.6 C 11.94 g/m*3 18.6 C 0 km/h
1106 22-08-2010 05:25:05 18.5 C 12.18 g/m*3 18.5 C 0 km/h
1107 22-08-2010 05:37:05 18.5 C 12.18 g/m*3 18.5 C 0 km/h
1108 22-08-2010 05:49:05 18.3 C 12.04 g/m*3 18.3 C 0 km/h
1109 22-08-2010 06:01:06 18.1 C 12.05 g/m*3 18.1 C 0 km/h
1110 22-08-2010 06:13:06 18 C 11.98 g/m*3 18 C 0 km/h
1111 22-08-2010 06:25:06 18 C 11.98 g/m*3 18 C 0 km/h
1112 22-08-2010 06:37:06 17.9 C 12.06 g/m*3 17.9 C 0 km/h
1113 22-08-2010 06:49:06 18 C 11.98 g/m*3 18 C 0 km/h
1114 22-08-2010 07:01:06 18 C 11.98 g/m*3 18 C 0 km/h
1115 22-08-2010 07:13:06 18.1 C 12.05 g/m*3 18.1 C 0 km/h
1116 22-08-2010 07:25:06 18.1 C 12.05 g/m*3 18.1 C 0 km/h
1117 22-08-2010 07:37:06 18.5 C 12.34 g/m*3 18.5 C 0 km/h
1118 22-08-2010 07:49:06 18.8 C 12.56 g/m*3 18.8 C 0 km/h
1119 22-08-2010 08:01:06 18.9 C 12.47 g/m*3 18.9 C 0 km/h
1120 22-08-2010 08:13:06 18.7 C 12.49 g/m*3 18.7 C 0 km/h
1121 22-08-2010 08:25:06 18.8 C 12.72 g/m*3 18.8 C 0 km/h
1122 22-08-2010 08:37:06 19.1 C 12.79 g/m*3 19.1 C 0 km/h
1123 22-08-2010 08:49:01 19.3 C 12.61 g/m*3 19.3 C 0 km/h
1124 22-08-2010 09:01:01 19.4 C 12.51 g/m*3 19.4 C 0 km/h
1125 22-08-2010 09:13:01 20 C 12.62 g/m*3 20 C 0 km/h
Sensor: Nr:Datum:Temp:Abs-Feuchte:Windchill:Wind:
Aussen-T/F 1126 22-08-2010 09:25:02 20.3 C 12.66 g/m*3 20.3 C 0 km/h
1127 22-08-2010 09:37:01 20.6 C 12.71 g/m*3 20.6 C 0 km/h
1128 22-08-2010 09:49:01 21.3 C 12.68 g/m*3 21.3 C 0 km/h
1129 22-08-2010 10:01:01 21.6 C 12.71 g/m*3 21.6 C 0 km/h
1130 22-08-2010 10:13:01 22.2 C 12.37 g/m*3 22.2 C 0 km/h
1131 22-08-2010 10:25:02 23.7 C 13.05 g/m*3 23.7 C 0 km/h
1132 22-08-2010 10:37:01 24.2 C 12.32 g/m*3 24.2 C 0 km/h
1133 22-08-2010 10:49:03 23.8 C 12.91 g/m*3 23.8 C 0 km/h
1134 22-08-2010 11:01:02 23.8 C 12.91 g/m*3 23.8 C 0 km/h
1135 22-08-2010 11:13:02 24.1 C 12.91 g/m*3 24.1 C 0 km/h
1136 22-08-2010 11:25:02 25 C 12.2 g/m*3 25 C 0 km/h
1137 22-08-2010 11:37:02 25.5 C 13.26 g/m*3 25.5 C 0 km/h
1138 22-08-2010 11:49:02 26 C 12.17 g/m*3 26 C 0 km/h
1139 22-08-2010 12:01:01 26.7 C 12.15 g/m*3 26.7 C 0 km/h
1140 22-08-2010 12:13:01 27.3 C 12.04 g/m*3 27.3 C 0 km/h
1141 22-08-2010 12:25:02 27.9 C 11.63 g/m*3 27.9 C 0 km/h
1142 22-08-2010 12:37:02 27.6 C 11.17 g/m*3 27.6 C 0 km/h
1143 22-08-2010 12:49:02 27.8 C 11.3 g/m*3 27.8 C 0 km/h
1144 22-08-2010 13:01:03 27.7 C 11.23 g/m*3 27.7 C 0 km/h
1145 22-08-2010 13:13:03 28 C 11.15 g/m*3 28 C 0 km/h
1146 22-08-2010 13:25:02 28.7 C 10.17 g/m*3 28.7 C 0 km/h
1147 22-08-2010 13:37:02 28.9 C 10.28 g/m*3 28.9 C 0 km/h
1148 22-08-2010 13:49:02 28.9 C 9.71 g/m*3 28.9 C 0 km/h
1149 22-08-2010 14:01:02 29.6 C 10.68 g/m*3 29.6 C 0 km/h
1150 22-08-2010 14:13:02 29.7 C 10.14 g/m*3 29.7 C 0 km/h
Sensor: Nr:Datum:Temp:Abs-Feuchte:Windchill:Wind:
Aussen-T/F 1151 22-08-2010 14:25:01 29.6 C 10.39 g/m*3 29.6 C 0 km/h
1152 22-08-2010 14:37:02 27.7 C 10.43 g/m*3 27.7 C 0 km/h
1153 22-08-2010 14:49:02 27.1 C 10.61 g/m*3 27.1 C 0 km/h
1154 22-08-2010 15:01:02 26 C 11.2 g/m*3 26 C 0 km/h
1155 22-08-2010 15:13:03 25.9 C 11.62 g/m*3 25.9 C 0 km/h
1156 22-08-2010 15:25:01 25.4 C 12.24 g/m*3 25.4 C 0 km/h
1157 22-08-2010 15:37:02 25.1 C 13.2 g/m*3 25.1 C 0 km/h
1158 22-08-2010 15:49:01 26.4 C 12.7 g/m*3 26.4 C 0 km/h
1159 22-08-2010 16:01:02 27.7 C 11.77 g/m*3 27.7 C 0 km/h
1160 22-08-2010 16:13:02 27.9 C 11.63 g/m*3 27.9 C 0 km/h
1161 22-08-2010 16:25:02 27.9 C 12.17 g/m*3 27.9 C 0 km/h
1162 22-08-2010 16:37:02 28 C 11.97 g/m*3 28 C 0 km/h
1163 22-08-2010 16:49:01 27.5 C 11.91 g/m*3 27.5 C 0 km/h
1164 22-08-2010 17:01:02 27 C 12.1 g/m*3 27 C 0 km/h
1165 22-08-2010 17:13:02 26.8 C 12.22 g/m*3 26.8 C 0 km/h
1166 22-08-2010 17:25:02 26.7 C 12.66 g/m*3 26.7 C 0 km/h
1167 22-08-2010 17:37:02 26.4 C 11.45 g/m*3 26.4 C 0 km/h
1168 22-08-2010 17:49:02 26.5 C 11.01 g/m*3 26.5 C 0 km/h
1169 22-08-2010 18:01:01 26.4 C 10.7 g/m*3 26.4 C 0 km/h
1170 22-08-2010 18:13:01 26.6 C 11.08 g/m*3 26.6 C 0 km/h
1171 22-08-2010 18:25:02 26.5 C 12.02 g/m*3 26.5 C 0 km/h
1172 22-08-2010 18:37:01 26 C 12.17 g/m*3 26 C 0 km/h
1173 22-08-2010 18:49:02 25.9 C 12.59 g/m*3 25.9 C 0 km/h
1174 22-08-2010 19:01:01 25.9 C 12.59 g/m*3 25.9 C 0 km/h
1175 22-08-2010 19:13:01 26.2 C 12.31 g/m*3 26.2 C 0 km/h
Sensor: Nr:Datum:Temp:Abs-Feuchte:Windchill:Wind:
Aussen-T/F 1176 22-08-2010 19:25:01 25.6 C 11.67 g/m*3 25.6 C 0 km/h
1177 22-08-2010 19:37:02 25.3 C 10.53 g/m*3 25.3 C 0 km/h
1178 22-08-2010 19:49:02 24.6 C 10.8 g/m*3 24.6 C 0 km/h
1179 22-08-2010 20:01:02 24.6 C 10.8 g/m*3 24.6 C 0 km/h
1180 22-08-2010 20:13:02 24.6 C 10.58 g/m*3 24.6 C 0 km/h
1181 22-08-2010 20:25:02 24.5 C 10.52 g/m*3 24.5 C 0 km/h
1182 22-08-2010 20:37:02 24.3 C 10.62 g/m*3 24.3 C 0 km/h
1183 22-08-2010 20:49:02 24.1 C 10.72 g/m*3 24.1 C 0 km/h
1184 22-08-2010 21:01:01 23.8 C 11.19 g/m*3 23.8 C 0 km/h
1185 22-08-2010 21:13:01 23.2 C 11.23 g/m*3 23.2 C 0 km/h
1186 22-08-2010 21:25:01 22.9 C 11.44 g/m*3 22.9 C 0 km/h
1187 22-08-2010 21:37:02 22.9 C 11.85 g/m*3 22.9 C 0 km/h
1188 22-08-2010 21:49:02 23 C 11.72 g/m*3 23 C 0 km/h
1189 22-08-2010 22:01:02 23.2 C 11.64 g/m*3 23.2 C 0 km/h
1190 22-08-2010 22:13:02 22.9 C 11.44 g/m*3 22.9 C 0 km/h
1191 22-08-2010 22:25:02 22.6 C 11.65 g/m*3 22.6 C 0 km/h
1192 22-08-2010 22:38:03 22.5 C 11.98 g/m*3 22.5 C 0 km/h
1193 22-08-2010 22:50:03 22.1 C 11.71 g/m*3 22.1 C 0 km/h
1194 22-08-2010 23:02:03 21.8 C 11.9 g/m*3 21.8 C 0 km/h
1195 22-08-2010 23:14:03 21.6 C 11.95 g/m*3 21.6 C 0 km/h
1196 22-08-2010 23:26:03 21.6 C 11.95 g/m*3 21.6 C 0 km/h
1197 22-08-2010 23:38:03 21.4 C 11.81 g/m*3 21.4 C 0 km/h
1198 22-08-2010 23:50:03 21.2 C 11.86 g/m*3 21.2 C 0 km/h
1199 23-08-2010 00:02:03 21.1 C 11.98 g/m*3 21.1 C 0 km/h
1200 23-08-2010 00:14:03 20.9 C 12.02 g/m*3 20.9 C 0 km/h
Sensor: Nr:Datum:Temp:Abs-Feuchte:Windchill:Wind:
Aussen-T/F 1201 23-08-2010 00:26:03 20.9 C 12.02 g/m*3 20.9 C 0 km/h
1202 23-08-2010 00:38:03 20.8 C 11.95 g/m*3 20.8 C 0 km/h
1203 23-08-2010 00:50:03 20.7 C 12.06 g/m*3 20.7 C 0 km/h
1204 23-08-2010 01:02:03 20.4 C 12.03 g/m*3 20.4 C 0 km/h
1205 23-08-2010 01:14:03 20.3 C 12.31 g/m*3 20.3 C 0 km/h
1206 23-08-2010 01:26:03 20.3 C 12.14 g/m*3 20.3 C 0 km/h
1207 23-08-2010 01:38:03 20.4 C 12.21 g/m*3 20.4 C 0 km/h
1208 23-08-2010 01:50:03 20.5 C 12.1 g/m*3 20.5 C 0 km/h
1209 23-08-2010 02:02:03 20.4 C 12.21 g/m*3 20.4 C 0 km/h
1210 23-08-2010 02:14:03 20.2 C 12.24 g/m*3 20.2 C 0 km/h
1211 23-08-2010 02:26:03 19.8 C 12.3 g/m*3 19.8 C 0 km/h
1212 23-08-2010 02:38:03 19.8 C 12.47 g/m*3 19.8 C 0 km/h
1213 23-08-2010 02:50:04 19.9 C 12.37 g/m*3 19.9 C 0 km/h
1214 23-08-2010 03:02:04 19.9 C 12.2 g/m*3 19.9 C 0 km/h
1215 23-08-2010 03:14:04 19.9 C 12.37 g/m*3 19.9 C 0 km/h
1216 23-08-2010 03:26:04 19.9 C 12.37 g/m*3 19.9 C 0 km/h
1217 23-08-2010 03:38:04 19.7 C 12.23 g/m*3 19.7 C 0 km/h
1218 23-08-2010 03:50:04 19.7 C 12.4 g/m*3 19.7 C 0 km/h
1219 23-08-2010 04:02:04 19.6 C 12.32 g/m*3 19.6 C 0 km/h
1220 23-08-2010 04:14:04 19.5 C 12.25 g/m*3 19.5 C 0 km/h
1221 23-08-2010 04:26:04 19.5 C 12.42 g/m*3 19.5 C 0 km/h
1222 23-08-2010 04:38:04 19.5 C 12.42 g/m*3 19.5 C 0 km/h
1223 23-08-2010 04:50:04 19.5 C 12.25 g/m*3 19.5 C 0 km/h
1224 23-08-2010 05:02:04 19.5 C 12.25 g/m*3 19.5 C 0 km/h
1225 23-08-2010 05:14:04 19.4 C 12.18 g/m*3 19.4 C 0 km/h
Sensor: Nr:Datum:Temp:Abs-Feuchte:Windchill:Wind:
Aussen-T/F 1226 23-08-2010 05:26:04 19.5 C 12.25 g/m*3 19.5 C 0 km/h
1227 23-08-2010 05:38:04 19.4 C 12.18 g/m*3 19.4 C 0 km/h
1228 23-08-2010 05:50:04 19.4 C 12.18 g/m*3 19.4 C 0 km/h
1229 23-08-2010 06:02:04 19.5 C 12.42 g/m*3 19.5 C 0 km/h
1230 23-08-2010 06:14:04 19.5 C 12.42 g/m*3 19.5 C 0 km/h
1231 23-08-2010 06:26:04 19.4 C 12.35 g/m*3 19.4 C 0 km/h
1232 23-08-2010 06:38:03 19.5 C 12.25 g/m*3 19.5 C 0 km/h
1233 23-08-2010 06:50:02 19.5 C 12.25 g/m*3 19.5 C 0 km/h
1234 23-08-2010 07:02:02 19.3 C 12.27 g/m*3 19.3 C 0 km/h
1235 23-08-2010 07:14:03 19.5 C 12.59 g/m*3 19.5 C 0 km/h
1236 23-08-2010 07:26:02 19.9 C 12.71 g/m*3 19.9 C 0 km/h
1237 23-08-2010 07:38:02 20.4 C 12.38 g/m*3 20.4 C 0 km/h
1238 23-08-2010 07:50:02 20.5 C 12.46 g/m*3 20.5 C 0 km/h
1239 23-08-2010 08:02:02 20.6 C 12.71 g/m*3 20.6 C 0 km/h
1240 23-08-2010 08:14:02 20.4 C 12.74 g/m*3 20.4 C 0 km/h
1241 23-08-2010 08:26:01 19.5 C 13.26 g/m*3 19.5 C 0 km/h
1242 23-08-2010 08:38:02 19.1 C 13.77 g/m*3 19.1 C 0 km/h
1243 23-08-2010 08:50:02 19.1 C 13.93 g/m*3 19.1 C 0 km/h
1244 23-08-2010 09:02:01 19.3 C 14.26 g/m*3 19.3 C 0 km/h
1245 23-08-2010 09:14:01 19.4 C 14.52 g/m*3 19.4 C 0 km/h
1246 23-08-2010 09:26:02 19.4 C 14.52 g/m*3 19.4 C 0 km/h
1247 23-08-2010 09:38:01 19.4 C 14.52 g/m*3 19.4 C 0 km/h
1248 23-08-2010 09:50:02 19.7 C 14.77 g/m*3 19.7 C 0 km/h
1249 23-08-2010 10:02:01 20 C 14.86 g/m*3 20 C 0 km/h
1250 23-08-2010 10:14:01 20.4 C 15.21 g/m*3 20.4 C 0 km/h
Sensor: Nr:Datum:Temp:Abs-Feuchte:Windchill:Wind:
Aussen-T/F 1251 23-08-2010 10:26:01 20.7 C 15.12 g/m*3 20.7 C 0 km/h
1252 23-08-2010 10:38:02 20.9 C 15.12 g/m*3 20.9 C 0 km/h
1253 23-08-2010 10:50:02 21.2 C 15.01 g/m*3 21.2 C 0 km/h
1254 23-08-2010 11:02:02 21.4 C 15 g/m*3 21.4 C 0 km/h
1255 23-08-2010 11:14:02 21.7 C 14.69 g/m*3 21.7 C 0 km/h
1256 23-08-2010 11:26:02 22.5 C 14.58 g/m*3 22.5 C 0 km/h
1257 23-08-2010 11:38:02 22.8 C 14.63 g/m*3 22.8 C 0 km/h
1258 23-08-2010 11:50:02 22.9 C 14.92 g/m*3 22.9 C 0 km/h
1259 23-08-2010 12:02:02 22.5 C 14.78 g/m*3 22.5 C 0 km/h
1260 23-08-2010 12:14:02 22.7 C 15.36 g/m*3 22.7 C 0 km/h
1261 23-08-2010 12:26:02 23.3 C 16.1 g/m*3 23.3 C 0 km/h
1262 23-08-2010 12:38:02 23.4 C 15.98 g/m*3 23.4 C 0 km/h
1263 23-08-2010 12:50:01 23.5 C 15.86 g/m*3 23.5 C 0 km/h
1264 23-08-2010 13:02:02 24.2 C 15.18 g/m*3 24.2 C 0 km/h
1265 23-08-2010 13:14:02 24.9 C 14.42 g/m*3 24.9 C 0 km/h
1266 23-08-2010 13:26:01 24 C 13.49 g/m*3 24 C 0 km/h
1267 23-08-2010 13:38:01 23.1 C 13.85 g/m*3 23.1 C 0 km/h
1268 23-08-2010 13:50:01 22.2 C 14.72 g/m*3 22.2 C 0 km/h
1269 23-08-2010 14:02:01 21.9 C 14.86 g/m*3 21.9 C 0 km/h
1270 23-08-2010 14:14:01 23.3 C 14.84 g/m*3 23.3 C 0 km/h
1271 23-08-2010 14:26:01 24.8 C 14.11 g/m*3 24.8 C 0 km/h
1272 23-08-2010 14:38:01 25.8 C 13.72 g/m*3 25.8 C 0 km/h
1273 23-08-2010 14:50:01 25.9 C 13.32 g/m*3 25.9 C 0 km/h
1274 23-08-2010 15:02:01 25.9 C 13.07 g/m*3 25.9 C 0 km/h
1275 23-08-2010 15:14:01 25.9 C 12.59 g/m*3 25.9 C 0 km/h
Sensor: Nr:Datum:Temp:Abs-Feuchte:Windchill:Wind:
Aussen-T/F 1276 23-08-2010 15:26:02 26.3 C 12.13 g/m*3 26.3 C 0 km/h
1277 23-08-2010 15:38:01 25.9 C 11.86 g/m*3 25.9 C 0 km/h
1278 23-08-2010 15:50:03 25.3 C 11.94 g/m*3 25.3 C 0 km/h
1279 23-08-2010 16:02:02 25.9 C 11.38 g/m*3 25.9 C 0 km/h
1280 23-08-2010 16:14:02 26.7 C 11.14 g/m*3 26.7 C 0 km/h
1281 23-08-2010 16:26:02 26.6 C 11.33 g/m*3 26.6 C 0 km/h
1282 23-08-2010 16:38:02 25.5 C 11.6 g/m*3 25.5 C 0 km/h
1283 23-08-2010 16:50:02 25 C 11.51 g/m*3 25 C 0 km/h
1284 23-08-2010 17:02:01 25.2 C 10.94 g/m*3 25.2 C 0 km/h
1285 23-08-2010 17:14:01 24.6 C 11.25 g/m*3 24.6 C 0 km/h
1286 23-08-2010 17:26:02 23.3 C 11.92 g/m*3 23.3 C 0 km/h
1287 23-08-2010 17:38:02 22.7 C 12.53 g/m*3 22.7 C 0 km/h
1288 23-08-2010 17:50:02 22.1 C 12.88 g/m*3 22.1 C 0 km/h
1289 23-08-2010 18:02:01 21.9 C 13.31 g/m*3 21.9 C 0 km/h
1290 23-08-2010 18:14:01 21.6 C 13.47 g/m*3 21.6 C 0 km/h
1291 23-08-2010 18:26:01 21 C 13.74 g/m*3 21 C 0 km/h
1292 23-08-2010 18:38:02 20.7 C 14.22 g/m*3 20.7 C 0 km/h
1293 23-08-2010 18:50:02 20.4 C 13.98 g/m*3 20.4 C 0 km/h
1294 23-08-2010 19:02:02 20.8 C 14.3 g/m*3 20.8 C 0 km/h
1295 23-08-2010 19:14:02 20.9 C 13.84 g/m*3 20.9 C 0 km/h
1296 23-08-2010 19:26:02 20.8 C 13.76 g/m*3 20.8 C 0 km/h
1297 23-08-2010 19:38:02 20.7 C 13.5 g/m*3 20.7 C 0 km/h
1298 23-08-2010 19:50:02 20.6 C 13.42 g/m*3 20.6 C 0 km/h
1299 23-08-2010 20:02:02 20.5 C 13.17 g/m*3 20.5 C 0 km/h
1300 23-08-2010 20:14:02 20.4 C 13.09 g/m*3 20.4 C 0 km/h
Sensor: Nr:Datum:Temp:Abs-Feuchte:Windchill:Wind:
Aussen-T/F 1301 23-08-2010 20:26:02 20.4 C 12.91 g/m*3 20.4 C 0 km/h
1302 23-08-2010 20:38:02 20.3 C 12.84 g/m*3 20.3 C 0 km/h
1303 23-08-2010 20:50:02 20.1 C 12.69 g/m*3 20.1 C 0 km/h
1304 23-08-2010 21:02:02 20 C 12.62 g/m*3 20 C 0 km/h
1305 23-08-2010 21:14:02 19.8 C 12.64 g/m*3 19.8 C 0 km/h
1306 23-08-2010 21:26:02 19.7 C 12.74 g/m*3 19.7 C 0 km/h
1307 23-08-2010 21:38:02 19.7 C 12.57 g/m*3 19.7 C 0 km/h
1308 23-08-2010 21:50:02 19.8 C 12.47 g/m*3 19.8 C 0 km/h
1309 23-08-2010 22:03:03 19.7 C 12.4 g/m*3 19.7 C 0 km/h
1310 23-08-2010 22:15:03 19.6 C 12.32 g/m*3 19.6 C 0 km/h
1311 23-08-2010 22:27:03 19.6 C 12.15 g/m*3 19.6 C 0 km/h
1312 23-08-2010 22:39:03 19.5 C 12.25 g/m*3 19.5 C 0 km/h
1313 23-08-2010 22:51:03 19.5 C 12.08 g/m*3 19.5 C 0 km/h
1314 23-08-2010 23:03:03 19.4 C 12.01 g/m*3 19.4 C 0 km/h
1315 23-08-2010 23:15:03 19.3 C 11.94 g/m*3 19.3 C 0 km/h
1316 23-08-2010 23:27:03 19.3 C 11.94 g/m*3 19.3 C 0 km/h
1317 23-08-2010 23:39:03 19.2 C 11.87 g/m*3 19.2 C 0 km/h
1318 23-08-2010 23:51:03 19.3 C 11.94 g/m*3 19.3 C 0 km/h
1319 24-08-2010 00:03:03 19.2 C 12.04 g/m*3 19.2 C 0 km/h
1320 24-08-2010 00:15:03 19.2 C 12.04 g/m*3 19.2 C 0 km/h
1321 24-08-2010 00:27:03 19.1 C 11.97 g/m*3 19.1 C 0 km/h
1322 24-08-2010 00:39:04 19.2 C 12.2 g/m*3 19.2 C 0 km/h
1323 24-08-2010 00:51:04 19.2 C 12.2 g/m*3 19.2 C 0 km/h
1324 24-08-2010 01:03:04 19.3 C 12.27 g/m*3 19.3 C 0 km/h
1325 24-08-2010 01:15:04 19.2 C 12.37 g/m*3 19.2 C 0 km/h
Sensor: Nr:Datum:Temp:Abs-Feuchte:Windchill:Wind:
Aussen-T/F 1326 24-08-2010 01:27:04 19.1 C 12.46 g/m*3 19.1 C 0 km/h
1327 24-08-2010 01:39:04 19.2 C 12.53 g/m*3 19.2 C 0 km/h
1328 24-08-2010 01:51:04 19.2 C 12.53 g/m*3 19.2 C 0 km/h
1329 24-08-2010 02:03:04 19.3 C 12.44 g/m*3 19.3 C 0 km/h
1330 24-08-2010 02:15:04 19.6 C 12.32 g/m*3 19.6 C 0 km/h
1331 24-08-2010 02:27:04 19.9 C 12.37 g/m*3 19.9 C 0 km/h
1332 24-08-2010 02:39:04 20 C 11.92 g/m*3 20 C 0 km/h
1333 24-08-2010 02:51:04 19.6 C 12.32 g/m*3 19.6 C 0 km/h
1334 24-08-2010 03:03:04 19 C 12.22 g/m*3 19 C 0 km/h
1335 24-08-2010 03:15:04 18.7 C 12.33 g/m*3 18.7 C 0 km/h
1336 24-08-2010 03:27:04 18.4 C 11.64 g/m*3 18.4 C 0 km/h
1337 24-08-2010 03:39:04 17.9 C 11.76 g/m*3 17.9 C 0 km/h
1338 24-08-2010 03:51:04 17.7 C 11.32 g/m*3 17.7 C 0 km/h
1339 24-08-2010 04:03:04 18.1 C 9.73 g/m*3 18.1 C 0 km/h
1340 24-08-2010 04:15:04 18.2 C 9.64 g/m*3 18.2 C 0 km/h
1341 24-08-2010 04:27:04 18.1 C 9.43 g/m*3 18.1 C 0 km/h
1342 24-08-2010 04:39:04 18 C 9.37 g/m*3 18 C 0 km/h
1343 24-08-2010 04:51:05 17.9 C 9.47 g/m*3 17.9 C 0 km/h
1344 24-08-2010 05:03:05 17.4 C 9.48 g/m*3 17.4 C 0 km/h
1345 24-08-2010 05:15:05 17.3 C 9.58 g/m*3 17.3 C 0 km/h
1346 24-08-2010 05:27:05 17.3 C 9.58 g/m*3 17.3 C 0 km/h
1347 24-08-2010 05:39:05 17.2 C 9.37 g/m*3 17.2 C 0 km/h
1348 24-08-2010 05:51:05 17 C 9.55 g/m*3 17 C 0 km/h
1349 24-08-2010 06:03:05 17.1 C 9.46 g/m*3 17.1 C 0 km/h
1350 24-08-2010 06:15:05 17.1 C 9.32 g/m*3 17.1 C 0 km/h
Sensor: Nr:Datum:Temp:Abs-Feuchte:Windchill:Wind:
Aussen-T/F 1351 24-08-2010 06:27:05 17 C 9.55 g/m*3 17 C 0 km/h
1352 24-08-2010 06:39:05 17.4 C 9.63 g/m*3 17.4 C 0 km/h
1353 24-08-2010 06:51:05 16.8 C 9.44 g/m*3 16.8 C 0 km/h
1354 24-08-2010 07:03:05 16.8 C 9.58 g/m*3 16.8 C 0 km/h
1355 24-08-2010 07:15:02 16.7 C 9.38 g/m*3 16.7 C 0 km/h
1356 24-08-2010 07:27:02 16.4 C 9.21 g/m*3 16.4 C 0 km/h
1357 24-08-2010 07:39:03 16.2 C 8.96 g/m*3 16.2 C 0 km/h
1358 24-08-2010 07:51:02 16.1 C 9.05 g/m*3 16.1 C 0 km/h
1359 24-08-2010 08:03:02 16 C 8.99 g/m*3 16 C 0 km/h
1360 24-08-2010 08:15:02 16.1 C 8.64 g/m*3 16.1 C 0 km/h
1361 24-08-2010 08:27:02 16.2 C 8.41 g/m*3 16.2 C 0 km/h
1362 24-08-2010 08:39:02 16.2 C 8.27 g/m*3 16.2 C 0 km/h
1363 24-08-2010 08:51:02 16.3 C 7.91 g/m*3 16.3 C 0 km/h
1364 24-08-2010 09:03:02 16.4 C 7.82 g/m*3 16.4 C 0 km/h
1365 24-08-2010 09:15:02 16.5 C 7.44 g/m*3 16.5 C 0 km/h
1366 24-08-2010 09:27:02 16.7 C 7.11 g/m*3 16.7 C 0 km/h
1367 24-08-2010 09:39:01 17 C 6.95 g/m*3 17 C 0 km/h
1368 24-08-2010 09:51:02 17.2 C 7.18 g/m*3 17.2 C 0 km/h
1369 24-08-2010 10:03:01 17.4 C 7.11 g/m*3 17.4 C 0 km/h
1370 24-08-2010 10:15:02 17.7 C 7.39 g/m*3 17.7 C 0 km/h
1371 24-08-2010 10:27:02 17.8 C 7.29 g/m*3 17.8 C 0 km/h
1372 24-08-2010 10:39:02 18 C 7.07 g/m*3 18 C 0 km/h
1373 24-08-2010 10:51:02 18.5 C 7.28 g/m*3 18.5 C 0 km/h
1374 24-08-2010 11:03:03 18.7 C 7.36 g/m*3 18.7 C 0 km/h
1375 24-08-2010 11:15:02 18.9 C 6.97 g/m*3 18.9 C 0 km/h
Sensor: Nr:Datum:Temp:Abs-Feuchte:Windchill:Wind:
Aussen-T/F 1376 24-08-2010 11:27:02 19.1 C 6.72 g/m*3 19.1 C 0 km/h
1377 24-08-2010 11:39:02 19.4 C 6.51 g/m*3 19.4 C 0 km/h
1378 24-08-2010 11:51:01 19.3 C 6.8 g/m*3 19.3 C 0 km/h
1379 24-08-2010 12:03:02 19.1 C 6.56 g/m*3 19.1 C 0 km/h
1380 24-08-2010 12:15:01 19.8 C 6.66 g/m*3 19.8 C 0 km/h
1381 24-08-2010 12:27:01 20.1 C 6.26 g/m*3 20.1 C 0 km/h
1382 24-08-2010 12:39:02 20 C 6.05 g/m*3 20 C 0 km/h
1383 24-08-2010 12:51:01 21.2 C 6.12 g/m*3 21.2 C 0 km/h
1384 24-08-2010 13:03:02 20.3 C 6.16 g/m*3 20.3 C 0 km/h
1385 24-08-2010 13:15:01 20.5 C 6.23 g/m*3 20.5 C 0 km/h
1386 24-08-2010 13:27:01 21.5 C 5.85 g/m*3 21.5 C 0 km/h
1387 24-08-2010 13:39:02 21.7 C 5.72 g/m*3 21.7 C 0 km/h
1388 24-08-2010 13:51:01 21 C 5.68 g/m*3 21 C 0 km/h
1389 24-08-2010 14:03:02 20.8 C 5.79 g/m*3 20.8 C 0 km/h
1390 24-08-2010 14:15:02 20.9 C 5.83 g/m*3 20.9 C 0 km/h
1391 24-08-2010 14:27:02 21.7 C 5.34 g/m*3 21.7 C 0 km/h
1392 24-08-2010 14:39:02 22.2 C 5.3 g/m*3 22.2 C 0 km/h
1393 24-08-2010 14:51:02 21.7 C 5.15 g/m*3 21.7 C 0 km/h
1394 24-08-2010 15:03:02 21.2 C 5.74 g/m*3 21.2 C 0 km/h
1395 24-08-2010 15:15:02 21.2 C 5.19 g/m*3 21.2 C 0 km/h
1396 24-08-2010 15:27:02 21.6 C 4.93 g/m*3 21.6 C 0 km/h
1397 24-08-2010 15:39:01 22.1 C 5.08 g/m*3 22.1 C 0 km/h
1398 24-08-2010 15:51:02 23 C 4.52 g/m*3 23 C 0 km/h
1399 24-08-2010 16:03:01 23.2 C 4.57 g/m*3 23.2 C 0 km/h
1400 24-08-2010 16:15:02 23.2 C 4.37 g/m*3 23.2 C 0 km/h
Sensor: Nr:Datum:Temp:Abs-Feuchte:Windchill:Wind:
Aussen-T/F 1401 24-08-2010 16:27:03 23 C 4.73 g/m*3 23 C 0 km/h
1402 24-08-2010 16:39:01 23.8 C 4.73 g/m*3 23.8 C 0 km/h
1403 24-08-2010 16:51:02 22 C 4.66 g/m*3 22 C 0 km/h
1404 24-08-2010 17:03:02 23 C 4.52 g/m*3 23 C 0 km/h
1405 24-08-2010 17:15:02 23.4 C 4.21 g/m*3 23.4 C 0 km/h
1406 24-08-2010 17:27:02 23.6 C 4.68 g/m*3 23.6 C 0 km/h
1407 24-08-2010 17:39:03 22.9 C 4.9 g/m*3 22.9 C 0 km/h
1408 24-08-2010 17:51:02 23.2 C 5.2 g/m*3 23.2 C 0 km/h
1409 24-08-2010 18:03:02 23.8 C 4.95 g/m*3 23.8 C 0 km/h
1410 24-08-2010 18:15:02 22.8 C 5.08 g/m*3 22.8 C 0 km/h
1411 24-08-2010 18:27:02 22.9 C 5.11 g/m*3 22.9 C 0 km/h
1412 24-08-2010 18:39:02 22.8 C 5.28 g/m*3 22.8 C 0 km/h
1413 24-08-2010 18:51:02 22.3 C 5.13 g/m*3 22.3 C 0 km/h
1414 24-08-2010 19:03:03 22.5 C 5.19 g/m*3 22.5 C 0 km/h
1415 24-08-2010 19:15:02 21.7 C 5.15 g/m*3 21.7 C 0 km/h
1416 24-08-2010 19:27:02 22.1 C 5.08 g/m*3 22.1 C 0 km/h
1417 24-08-2010 19:39:02 21.3 C 5.03 g/m*3 21.3 C 0 km/h
1418 24-08-2010 19:51:01 20.8 C 5.43 g/m*3 20.8 C 0 km/h
1419 24-08-2010 20:03:02 20.4 C 5.48 g/m*3 20.4 C 0 km/h
1420 24-08-2010 20:15:01 20.3 C 5.8 g/m*3 20.3 C 0 km/h
1421 24-08-2010 20:27:01 19.7 C 5.94 g/m*3 19.7 C 0 km/h
1422 24-08-2010 20:39:02 19.4 C 5.84 g/m*3 19.4 C 0 km/h
1423 24-08-2010 20:51:01 19 C 5.87 g/m*3 19 C 0 km/h
1424 24-08-2010 21:03:02 18.7 C 5.92 g/m*3 18.7 C 0 km/h
1425 24-08-2010 21:15:02 18.4 C 6.13 g/m*3 18.4 C 0 km/h
Sensor: Nr:Datum:Temp:Abs-Feuchte:Windchill:Wind:
Aussen-T/F 1426 24-08-2010 21:27:02 18.2 C 6.22 g/m*3 18.2 C 0 km/h
1427 24-08-2010 21:39:02 18.1 C 6.18 g/m*3 18.1 C 0 km/h
1428 24-08-2010 21:51:01 18 C 6.14 g/m*3 18 C 0 km/h
1429 24-08-2010 22:04:03 17.7 C 6.19 g/m*3 17.7 C 0 km/h
1430 24-08-2010 22:16:03 17.6 C 6.15 g/m*3 17.6 C 0 km/h
1431 24-08-2010 22:28:03 17.5 C 6.26 g/m*3 17.5 C 0 km/h
1432 24-08-2010 22:40:03 17.1 C 6.4 g/m*3 17.1 C 0 km/h
1433 24-08-2010 22:52:03 17.1 C 6.4 g/m*3 17.1 C 0 km/h
1434 24-08-2010 23:04:03 17 C 6.22 g/m*3 17 C 0 km/h
1435 24-08-2010 23:16:03 16.8 C 6.43 g/m*3 16.8 C 0 km/h
1436 24-08-2010 23:28:03 16.8 C 6.43 g/m*3 16.8 C 0 km/h
1437 24-08-2010 23:40:03 16.7 C 6.54 g/m*3 16.7 C 0 km/h
1438 24-08-2010 23:52:03 16.6 C 6.5 g/m*3 16.6 C 0 km/h
1439 25-08-2010 00:04:03 16.4 C 6.42 g/m*3 16.4 C 0 km/h
1440 25-08-2010 00:16:03 16.4 C 6.56 g/m*3 16.4 C 0 km/h
1441 25-08-2010 00:28:03 16.2 C 6.48 g/m*3 16.2 C 0 km/h
1442 25-08-2010 00:40:04 16 C 6.54 g/m*3 16 C 0 km/h
1443 25-08-2010 00:52:04 15.8 C 6.73 g/m*3 15.8 C 0 km/h
1444 25-08-2010 01:04:04 15.8 C 6.73 g/m*3 15.8 C 0 km/h
1445 25-08-2010 01:16:04 15.6 C 6.78 g/m*3 15.6 C 0 km/h
1446 25-08-2010 01:28:04 15.5 C 6.87 g/m*3 15.5 C 0 km/h
1447 25-08-2010 01:40:04 15.4 C 6.83 g/m*3 15.4 C 0 km/h
1448 25-08-2010 01:52:04 15.3 C 6.79 g/m*3 15.3 C 0 km/h
1449 25-08-2010 02:04:04 15.1 C 6.97 g/m*3 15.1 C 0 km/h
1450 25-08-2010 02:16:04 14.8 C 7.09 g/m*3 14.8 C 0 km/h
Sensor: Nr:Datum:Temp:Abs-Feuchte:Windchill:Wind:
Aussen-T/F 1451 25-08-2010 02:28:04 14.6 C 7.13 g/m*3 14.6 C 0 km/h
1452 25-08-2010 02:40:04 14.5 C 7.21 g/m*3 14.5 C 0 km/h
1453 25-08-2010 02:52:04 14.3 C 7.13 g/m*3 14.3 C 0 km/h
1454 25-08-2010 03:04:04 14.2 C 7.2 g/m*3 14.2 C 0 km/h
1455 25-08-2010 03:16:04 13.9 C 7.55 g/m*3 13.9 C 0 km/h
1456 25-08-2010 03:28:04 13.7 C 7.58 g/m*3 13.7 C 0 km/h
1457 25-08-2010 03:40:04 13.6 C 7.77 g/m*3 13.6 C 0 km/h
1458 25-08-2010 03:52:04 13.4 C 7.67 g/m*3 13.4 C 0 km/h
1459 25-08-2010 04:04:04 13.4 C 7.79 g/m*3 13.4 C 0 km/h
1460 25-08-2010 04:16:04 13.4 C 7.79 g/m*3 13.4 C 0 km/h
1461 25-08-2010 04:28:04 13.4 C 7.67 g/m*3 13.4 C 0 km/h
1462 25-08-2010 04:40:04 13.4 C 7.67 g/m*3 13.4 C 0 km/h
1463 25-08-2010 04:52:05 13.4 C 7.56 g/m*3 13.4 C 0 km/h
1464 25-08-2010 05:04:05 13.6 C 7.53 g/m*3 13.6 C 0 km/h
1465 25-08-2010 05:16:05 13.6 C 7.41 g/m*3 13.6 C 0 km/h
1466 25-08-2010 05:28:05 13.4 C 7.44 g/m*3 13.4 C 0 km/h
1467 25-08-2010 05:40:05 13.2 C 7.58 g/m*3 13.2 C 0 km/h
1468 25-08-2010 05:52:05 13.1 C 7.65 g/m*3 13.1 C 0 km/h
1469 25-08-2010 06:04:05 13 C 7.6 g/m*3 13 C 0 km/h
1470 25-08-2010 06:16:05 13.1 C 7.65 g/m*3 13.1 C 0 km/h
1471 25-08-2010 06:28:05 12.9 C 7.78 g/m*3 12.9 C 0 km/h
1472 25-08-2010 06:40:05 12.9 C 7.78 g/m*3 12.9 C 0 km/h
1473 25-08-2010 06:52:05 12.8 C 7.73 g/m*3 12.8 C 0 km/h
1474 25-08-2010 07:04:02 12.7 C 7.79 g/m*3 12.7 C 0 km/h
1475 25-08-2010 07:16:03 12.8 C 7.84 g/m*3 12.8 C 0 km/h
Sensor: Nr:Datum:Temp:Abs-Feuchte:Windchill:Wind:
Aussen-T/F 1476 25-08-2010 07:28:03 12.8 C 7.84 g/m*3 12.8 C 0 km/h
1477 25-08-2010 07:40:02 12.7 C 7.79 g/m*3 12.7 C 0 km/h
1478 25-08-2010 07:52:02 12.8 C 7.95 g/m*3 12.8 C 0 km/h
1479 25-08-2010 08:04:01 13.1 C 7.87 g/m*3 13.1 C 0 km/h
1480 25-08-2010 08:16:01 13.4 C 7.9 g/m*3 13.4 C 0 km/h
1481 25-08-2010 08:28:01 13.5 C 7.84 g/m*3 13.5 C 0 km/h
1482 25-08-2010 08:40:01 13.8 C 7.86 g/m*3 13.8 C 0 km/h
1483 25-08-2010 08:52:03 13.9 C 7.79 g/m*3 13.9 C 0 km/h
1484 25-08-2010 09:04:02 14.2 C 7.82 g/m*3 14.2 C 0 km/h
1485 25-08-2010 09:16:02 14.7 C 8.06 g/m*3 14.7 C 0 km/h
1486 25-08-2010 09:28:03 14.9 C 7.9 g/m*3 14.9 C 0 km/h
1487 25-08-2010 09:40:02 15.2 C 7.79 g/m*3 15.2 C 0 km/h
1488 25-08-2010 09:52:02 15.6 C 7.98 g/m*3 15.6 C 0 km/h
1489 25-08-2010 10:04:01 16.1 C 7.81 g/m*3 16.1 C 0 km/h
1490 25-08-2010 10:16:02 16.3 C 7.77 g/m*3 16.3 C 0 km/h
1491 25-08-2010 10:28:02 16.3 C 7.77 g/m*3 16.3 C 0 km/h
1492 25-08-2010 10:40:02 16.3 C 7.77 g/m*3 16.3 C 0 km/h
1493 25-08-2010 10:52:02 16.5 C 7.86 g/m*3 16.5 C 0 km/h
1494 25-08-2010 11:04:02 17.1 C 7.71 g/m*3 17.1 C 0 km/h
1495 25-08-2010 11:16:01 17.4 C 7.85 g/m*3 17.4 C 0 km/h
1496 25-08-2010 11:28:01 17.7 C 7.85 g/m*3 17.7 C 0 km/h
1497 25-08-2010 11:40:02 18.1 C 7.88 g/m*3 18.1 C 0 km/h
1498 25-08-2010 11:52:02 19.2 C 7.75 g/m*3 19.2 C 0 km/h
1499 25-08-2010 12:04:02 19.7 C 7.47 g/m*3 19.7 C 0 km/h
1500 25-08-2010 12:16:01 19.9 C 7.39 g/m*3 19.9 C 0 km/h
Sensor: Nr:Datum:Temp:Abs-Feuchte:Windchill:Wind:
Aussen-T/F 1501 25-08-2010 12:28:01 20.4 C 7.43 g/m*3 20.4 C 0 km/h
1502 25-08-2010 12:40:02 20 C 6.91 g/m*3 20 C 0 km/h
1503 25-08-2010 12:52:02 20 C 6.74 g/m*3 20 C 0 km/h
1504 25-08-2010 13:04:02 20.4 C 6.9 g/m*3 20.4 C 0 km/h
1505 25-08-2010 13:16:02 20.7 C 6.84 g/m*3 20.7 C 0 km/h
1506 25-08-2010 13:28:02 20.9 C 6.56 g/m*3 20.9 C 0 km/h
1507 25-08-2010 13:40:02 20.8 C 6.52 g/m*3 20.8 C 0 km/h
1508 25-08-2010 13:52:01 21.3 C 6.52 g/m*3 21.3 C 0 km/h
1509 25-08-2010 14:04:02 21.2 C 6.49 g/m*3 21.2 C 0 km/h
1510 25-08-2010 14:16:01 21.2 C 6.3 g/m*3 21.2 C 0 km/h
1511 25-08-2010 14:28:01 21.7 C 6.49 g/m*3 21.7 C 0 km/h
1512 25-08-2010 14:40:01 21.3 C 6.52 g/m*3 21.3 C 0 km/h
1513 25-08-2010 14:52:01 21.9 C 6.37 g/m*3 21.9 C 0 km/h
1514 25-08-2010 15:04:02 22.5 C 6.39 g/m*3 22.5 C 0 km/h
1515 25-08-2010 15:16:01 23.1 C 6.2 g/m*3 23.1 C 0 km/h
1516 25-08-2010 15:28:01 23.9 C 6.06 g/m*3 23.9 C 0 km/h
1517 25-08-2010 15:40:01 24.1 C 5.69 g/m*3 24.1 C 0 km/h
1518 25-08-2010 15:52:01 24.1 C 6.13 g/m*3 24.1 C 0 km/h
1519 25-08-2010 16:04:01 24.3 C 5.53 g/m*3 24.3 C 0 km/h
1520 25-08-2010 16:16:02 24.3 C 5.53 g/m*3 24.3 C 0 km/h
1521 25-08-2010 16:28:02 25.3 C 5.62 g/m*3 25.3 C 0 km/h
1522 25-08-2010 16:40:01 24.7 C 5.66 g/m*3 24.7 C 0 km/h
1523 25-08-2010 16:52:01 23.7 C 5.99 g/m*3 23.7 C 0 km/h
1524 25-08-2010 17:04:02 23.4 C 6.73 g/m*3 23.4 C 0 km/h
1525 25-08-2010 17:16:01 23.3 C 6.48 g/m*3 23.3 C 0 km/h
Sensor: Nr:Datum:Temp:Abs-Feuchte:Windchill:Wind:
Aussen-T/F 1526 25-08-2010 17:28:01 23.1 C 6.41 g/m*3 23.1 C 0 km/h
1527 25-08-2010 17:40:01 23.2 C 6.86 g/m*3 23.2 C 0 km/h
1528 25-08-2010 17:52:01 23 C 6.78 g/m*3 23 C 0 km/h
1529 25-08-2010 18:04:02 22.2 C 6.87 g/m*3 22.2 C 0 km/h
1530 25-08-2010 18:16:02 22 C 6.79 g/m*3 22 C 0 km/h
1531 25-08-2010 18:28:02 22 C 6.79 g/m*3 22 C 0 km/h
1532 25-08-2010 18:40:01 21.8 C 7.48 g/m*3 21.8 C 0 km/h
1533 25-08-2010 18:52:01 21.5 C 7.54 g/m*3 21.5 C 0 km/h
1534 25-08-2010 19:04:01 20.8 C 7.97 g/m*3 20.8 C 0 km/h
1535 25-08-2010 19:16:02 20.1 C 8 g/m*3 20.1 C 0 km/h
1536 25-08-2010 19:28:02 20.2 C 7.87 g/m*3 20.2 C 0 km/h
1537 25-08-2010 19:40:01 20 C 7.95 g/m*3 20 C 0 km/h
1538 25-08-2010 19:52:02 20 C 7.78 g/m*3 20 C 0 km/h
1539 25-08-2010 20:04:01 19.7 C 8.15 g/m*3 19.7 C 0 km/h
1540 25-08-2010 20:16:02 19.4 C 8.18 g/m*3 19.4 C 0 km/h
1541 25-08-2010 20:28:02 19 C 8.15 g/m*3 19 C 0 km/h
1542 25-08-2010 20:40:01 18.8 C 8.21 g/m*3 18.8 C 0 km/h
1543 25-08-2010 20:52:02 18.3 C 8.44 g/m*3 18.3 C 0 km/h
1544 25-08-2010 21:04:02 18.1 C 8.19 g/m*3 18.1 C 0 km/h
1545 25-08-2010 21:16:02 18.1 C 8.34 g/m*3 18.1 C 0 km/h
1546 25-08-2010 21:28:02 18.1 C 8.34 g/m*3 18.1 C 0 km/h
1547 25-08-2010 21:40:02 18.2 C 8.39 g/m*3 18.2 C 0 km/h
1548 25-08-2010 21:52:02 18.1 C 8.5 g/m*3 18.1 C 0 km/h
1549 25-08-2010 22:04:01 17.9 C 8.55 g/m*3 17.9 C 0 km/h
1550 25-08-2010 22:17:04 17.7 C 8.45 g/m*3 17.7 C 0 km/h
Sensor: Nr:Datum:Temp:Abs-Feuchte:Windchill:Wind:
Aussen-T/F 1551 25-08-2010 22:29:04 17.5 C 8.35 g/m*3 17.5 C 0 km/h
1552 25-08-2010 22:41:04 17.4 C 8.6 g/m*3 17.4 C 0 km/h
1553 25-08-2010 22:53:04 17.3 C 8.54 g/m*3 17.3 C 0 km/h
1554 25-08-2010 23:05:04 17.2 C 8.64 g/m*3 17.2 C 0 km/h
1555 25-08-2010 23:17:04 17.4 C 8.74 g/m*3 17.4 C 0 km/h
1556 25-08-2010 23:29:04 17.4 C 8.74 g/m*3 17.4 C 0 km/h
1557 25-08-2010 23:41:04 17.3 C 8.99 g/m*3 17.3 C 0 km/h
1558 25-08-2010 23:53:04 17.2 C 8.93 g/m*3 17.2 C 0 km/h
1559 26-08-2010 00:05:04 17.1 C 9.03 g/m*3 17.1 C 0 km/h
1560 26-08-2010 00:17:04 17.2 C 9.08 g/m*3 17.2 C 0 km/h
1561 26-08-2010 00:29:04 17.3 C 9.13 g/m*3 17.3 C 0 km/h
1562 26-08-2010 00:41:04 17.4 C 9.04 g/m*3 17.4 C 0 km/h
1563 26-08-2010 00:53:04 17.4 C 9.04 g/m*3 17.4 C 0 km/h
1564 26-08-2010 01:05:05 17.5 C 9.24 g/m*3 17.5 C 0 km/h
1565 26-08-2010 01:17:05 17.5 C 9.09 g/m*3 17.5 C 0 km/h
1566 26-08-2010 01:29:05 17.5 C 9.09 g/m*3 17.5 C 0 km/h
1567 26-08-2010 01:41:05 17.5 C 9.09 g/m*3 17.5 C 0 km/h
1568 26-08-2010 01:53:05 17.4 C 9.04 g/m*3 17.4 C 0 km/h
1569 26-08-2010 02:05:05 16.9 C 9.78 g/m*3 16.9 C 0 km/h
1570 26-08-2010 02:17:05 17.1 C 10.19 g/m*3 17.1 C 0 km/h
1571 26-08-2010 02:29:05 16.7 C 10.09 g/m*3 16.7 C 0 km/h
1572 26-08-2010 02:41:05 17 C 9.84 g/m*3 17 C 0 km/h
1573 26-08-2010 02:53:05 16.7 C 9.95 g/m*3 16.7 C 0 km/h
1574 26-08-2010 03:05:05 16.8 C 10.29 g/m*3 16.8 C 0 km/h
1575 26-08-2010 03:17:05 16.8 C 10.29 g/m*3 16.8 C 0 km/h
Sensor: Nr:Datum:Temp:Abs-Feuchte:Windchill:Wind:
Aussen-T/F 1576 26-08-2010 03:29:05 16.9 C 9.92 g/m*3 16.9 C 0 km/h
1577 26-08-2010 03:41:05 16.9 C 9.92 g/m*3 16.9 C 0 km/h
1578 26-08-2010 03:53:05 16.9 C 9.78 g/m*3 16.9 C 0 km/h
1579 26-08-2010 04:05:06 16.9 C 9.78 g/m*3 16.9 C 0 km/h
1580 26-08-2010 04:17:06 17 C 9.69 g/m*3 17 C 0 km/h
1581 26-08-2010 04:29:06 17 C 9.84 g/m*3 17 C 0 km/h
1582 26-08-2010 04:41:06 16.9 C 9.92 g/m*3 16.9 C 0 km/h
1583 26-08-2010 04:53:06 16.9 C 10.07 g/m*3 16.9 C 0 km/h
1584 26-08-2010 05:05:06 17.3 C 10.31 g/m*3 17.3 C 0 km/h
1585 26-08-2010 05:17:06 18.1 C 10.35 g/m*3 18.1 C 0 km/h
1586 26-08-2010 05:29:06 18.5 C 10.28 g/m*3 18.5 C 0 km/h
1587 26-08-2010 05:41:06 18.8 C 10.31 g/m*3 18.8 C 0 km/h
1588 26-08-2010 05:53:06 18.7 C 10.25 g/m*3 18.7 C 0 km/h
1589 26-08-2010 06:05:03 18.2 C 10.1 g/m*3 18.2 C 0 km/h
1590 26-08-2010 06:17:03 18.1 C 10.35 g/m*3 18.1 C 0 km/h
1591 26-08-2010 06:29:03 17.9 C 10.54 g/m*3 17.9 C 0 km/h
1592 26-08-2010 06:41:03 18.1 C 10.82 g/m*3 18.1 C 0 km/h
1593 26-08-2010 06:53:02 18.6 C 10.82 g/m*3 18.6 C 0 km/h
1594 26-08-2010 07:05:02 18.9 C 10.69 g/m*3 18.9 C 0 km/h
1595 26-08-2010 07:17:02 19 C 10.59 g/m*3 19 C 0 km/h
1596 26-08-2010 07:29:02 19.2 C 10.55 g/m*3 19.2 C 0 km/h
1597 26-08-2010 07:41:02 19.4 C 10.68 g/m*3 19.4 C 0 km/h
1598 26-08-2010 07:53:02 19.8 C 10.93 g/m*3 19.8 C 0 km/h
1599 26-08-2010 08:05:01 20 C 10.71 g/m*3 20 C 0 km/h
1600 26-08-2010 08:17:02 20.1 C 10.95 g/m*3 20.1 C 0 km/h
Sensor: Nr:Datum:Temp:Abs-Feuchte:Windchill:Wind:
Aussen-T/F 1601 26-08-2010 08:29:02 20.2 C 11.02 g/m*3 20.2 C 0 km/h
1602 26-08-2010 08:41:01 20.1 C 11.3 g/m*3 20.1 C 0 km/h
1603 26-08-2010 08:53:01 20.6 C 11.63 g/m*3 20.6 C 0 km/h
1604 26-08-2010 09:05:02 20.8 C 11.41 g/m*3 20.8 C 0 km/h
1605 26-08-2010 09:17:02 21.1 C 11.42 g/m*3 21.1 C 0 km/h
1606 26-08-2010 09:29:02 21.5 C 11.31 g/m*3 21.5 C 0 km/h
1607 26-08-2010 09:41:02 22 C 11.26 g/m*3 22 C 0 km/h
1608 26-08-2010 09:53:01 22.2 C 11.19 g/m*3 22.2 C 0 km/h
1609 26-08-2010 10:05:02 22.6 C 11.25 g/m*3 22.6 C 0 km/h
1610 26-08-2010 10:17:02 22.6 C 11.25 g/m*3 22.6 C 0 km/h
1611 26-08-2010 10:29:02 22.9 C 11.24 g/m*3 22.9 C 0 km/h
1612 26-08-2010 10:41:01 22.7 C 11.11 g/m*3 22.7 C 0 km/h
1613 26-08-2010 10:53:02 23 C 11.1 g/m*3 23 C 0 km/h
1614 26-08-2010 11:05:01 23.2 C 11.23 g/m*3 23.2 C 0 km/h
1615 26-08-2010 11:17:02 23.9 C 11.25 g/m*3 23.9 C 0 km/h
1616 26-08-2010 11:29:03 23.5 C 11.21 g/m*3 23.5 C 0 km/h
1617 26-08-2010 11:41:01 24.1 C 11.16 g/m*3 24.1 C 0 km/h
1618 26-08-2010 11:53:02 24.1 C 10.94 g/m*3 24.1 C 0 km/h
1619 26-08-2010 12:05:02 24.4 C 11.13 g/m*3 24.4 C 0 km/h
1620 26-08-2010 12:17:02 23.8 C 10.97 g/m*3 23.8 C 0 km/h
1621 26-08-2010 12:29:02 23.4 C 11.14 g/m*3 23.4 C 0 km/h
1622 26-08-2010 12:41:03 23.2 C 11.23 g/m*3 23.2 C 0 km/h
1623 26-08-2010 12:53:02 22.9 C 11.24 g/m*3 22.9 C 0 km/h
1624 26-08-2010 13:05:02 22.7 C 11.31 g/m*3 22.7 C 0 km/h
1625 26-08-2010 13:17:01 22.7 C 11.31 g/m*3 22.7 C 0 km/h
Sensor: Nr:Datum:Temp:Abs-Feuchte:Windchill:Wind:
Aussen-T/F 1626 26-08-2010 13:29:01 22.9 C 11.24 g/m*3 22.9 C 0 km/h
1627 26-08-2010 13:41:02 23.3 C 11.08 g/m*3 23.3 C 0 km/h
1628 26-08-2010 13:53:02 23.2 C 11.02 g/m*3 23.2 C 0 km/h
1629 26-08-2010 14:05:02 23.5 C 11.21 g/m*3 23.5 C 0 km/h
1630 26-08-2010 14:17:02 23.9 C 11.25 g/m*3 23.9 C 0 km/h
1631 26-08-2010 14:29:02 23.9 C 11.03 g/m*3 23.9 C 0 km/h
1632 26-08-2010 14:41:02 23.8 C 11.19 g/m*3 23.8 C 0 km/h
1633 26-08-2010 14:53:02 23.9 C 11.25 g/m*3 23.9 C 0 km/h
1634 26-08-2010 15:05:02 23.9 C 11.47 g/m*3 23.9 C 0 km/h
1635 26-08-2010 15:17:02 23.8 C 11.19 g/m*3 23.8 C 0 km/h
1636 26-08-2010 15:29:02 23.7 C 11.34 g/m*3 23.7 C 0 km/h
1637 26-08-2010 15:41:02 23.5 C 11.42 g/m*3 23.5 C 0 km/h
1638 26-08-2010 15:53:02 23.5 C 11.21 g/m*3 23.5 C 0 km/h
1639 26-08-2010 16:05:02 23.9 C 11.47 g/m*3 23.9 C 0 km/h
1640 26-08-2010 16:17:02 23.8 C 11.4 g/m*3 23.8 C 0 km/h
1641 26-08-2010 16:29:02 23.7 C 11.34 g/m*3 23.7 C 0 km/h
1642 26-08-2010 16:41:02 24.2 C 11.22 g/m*3 24.2 C 0 km/h
1643 26-08-2010 16:53:02 24.1 C 10.94 g/m*3 24.1 C 0 km/h
1644 26-08-2010 17:05:02 23.9 C 11.25 g/m*3 23.9 C 0 km/h
1645 26-08-2010 17:17:02 23.7 C 11.34 g/m*3 23.7 C 0 km/h
1646 26-08-2010 17:29:02 23.6 C 11.27 g/m*3 23.6 C 0 km/h
1647 26-08-2010 17:41:02 23.5 C 11.21 g/m*3 23.5 C 0 km/h
1648 26-08-2010 17:53:02 23.4 C 11.35 g/m*3 23.4 C 0 km/h
1649 26-08-2010 18:05:02 23.4 C 11.35 g/m*3 23.4 C 0 km/h
1650 26-08-2010 18:17:02 23.3 C 11.5 g/m*3 23.3 C 0 km/h
Sensor: Nr:Datum:Temp:Abs-Feuchte:Windchill:Wind:
Aussen-T/F 1651 26-08-2010 18:29:03 23.2 C 11.85 g/m*3 23.2 C 0 km/h
1652 26-08-2010 18:41:01 23 C 11.72 g/m*3 23 C 0 km/h
1653 26-08-2010 18:53:02 23 C 11.92 g/m*3 23 C 0 km/h
1654 26-08-2010 19:05:01 22.6 C 12.25 g/m*3 22.6 C 0 km/h
1655 26-08-2010 19:17:02 22.6 C 12.25 g/m*3 22.6 C 0 km/h
1656 26-08-2010 19:29:02 21.6 C 13.28 g/m*3 21.6 C 0 km/h
1657 26-08-2010 19:41:02 20.7 C 14.04 g/m*3 20.7 C 0 km/h
1658 26-08-2010 19:53:02 20.8 C 14.67 g/m*3 20.8 C 0 km/h
1659 26-08-2010 20:05:02 21 C 14.65 g/m*3 21 C 0 km/h
1660 26-08-2010 20:17:02 20.9 C 14.57 g/m*3 20.9 C 0 km/h
1661 26-08-2010 20:29:02 21 C 14.47 g/m*3 21 C 0 km/h
1662 26-08-2010 20:41:02 20.9 C 14.39 g/m*3 20.9 C 0 km/h
1663 26-08-2010 20:53:01 20.9 C 14.39 g/m*3 20.9 C 0 km/h
1664 26-08-2010 21:05:02 20.7 C 14.04 g/m*3 20.7 C 0 km/h
1665 26-08-2010 21:17:01 20.7 C 14.04 g/m*3 20.7 C 0 km/h
1666 26-08-2010 21:29:01 20.4 C 13.98 g/m*3 20.4 C 0 km/h
1667 26-08-2010 21:41:02 20.2 C 13.99 g/m*3 20.2 C 0 km/h
1668 26-08-2010 21:53:02 20.1 C 14.08 g/m*3 20.1 C 0 km/h
1669 26-08-2010 22:06:04 20 C 14.34 g/m*3 20 C 0 km/h
1670 26-08-2010 22:18:04 19.8 C 14.52 g/m*3 19.8 C 0 km/h
1671 26-08-2010 22:30:04 19.7 C 14.6 g/m*3 19.7 C 0 km/h
1672 26-08-2010 22:42:04 19.7 C 14.77 g/m*3 19.7 C 0 km/h
1673 26-08-2010 22:54:04 19.6 C 14.86 g/m*3 19.6 C 0 km/h
1674 26-08-2010 23:06:04 19.5 C 14.77 g/m*3 19.5 C 0 km/h
1675 26-08-2010 23:18:04 19.5 C 14.94 g/m*3 19.5 C 0 km/h
Sensor: Nr:Datum:Temp:Abs-Feuchte:Windchill:Wind:
Aussen-T/F 1676 26-08-2010 23:30:04 19.5 C 14.94 g/m*3 19.5 C 0 km/h
1677 26-08-2010 23:42:05 19.4 C 15.02 g/m*3 19.4 C 0 km/h
1678 26-08-2010 23:54:05 19.3 C 15.09 g/m*3 19.3 C 0 km/h
1679 27-08-2010 00:06:05 19.2 C 15.01 g/m*3 19.2 C 0 km/h
1680 27-08-2010 00:18:05 19 C 14.83 g/m*3 19 C 0 km/h
1681 27-08-2010 00:30:05 19 C 14.83 g/m*3 19 C 0 km/h
1682 27-08-2010 00:42:05 18.9 C 14.9 g/m*3 18.9 C 0 km/h
1683 27-08-2010 00:54:05 18.8 C 14.98 g/m*3 18.8 C 0 km/h
1684 27-08-2010 01:06:05 18.7 C 14.89 g/m*3 18.7 C 0 km/h
1685 27-08-2010 01:18:05 18.7 C 14.89 g/m*3 18.7 C 0 km/h
1686 27-08-2010 01:30:05 18.8 C 14.98 g/m*3 18.8 C 0 km/h
1687 27-08-2010 01:42:05 18.8 C 14.98 g/m*3 18.8 C 0 km/h
1688 27-08-2010 01:54:05 18.8 C 15.14 g/m*3 18.8 C 0 km/h
1689 27-08-2010 02:06:05 18.8 C 15.14 g/m*3 18.8 C 0 km/h
1690 27-08-2010 02:18:05 18.7 C 15.05 g/m*3 18.7 C 0 km/h
1691 27-08-2010 02:30:05 18.5 C 14.87 g/m*3 18.5 C 0 km/h
1692 27-08-2010 02:42:05 18.6 C 14.96 g/m*3 18.6 C 0 km/h
1693 27-08-2010 02:54:05 18.5 C 14.87 g/m*3 18.5 C 0 km/h
1694 27-08-2010 03:06:05 18.4 C 14.78 g/m*3 18.4 C 0 km/h
1695 27-08-2010 03:18:05 18.4 C 14.78 g/m*3 18.4 C 0 km/h
1696 27-08-2010 03:30:05 18.4 C 14.78 g/m*3 18.4 C 0 km/h
1697 27-08-2010 03:42:05 18.4 C 14.78 g/m*3 18.4 C 0 km/h
1698 27-08-2010 03:54:05 18.3 C 14.7 g/m*3 18.3 C 0 km/h
1699 27-08-2010 04:06:05 18.3 C 14.7 g/m*3 18.3 C 0 km/h
1700 27-08-2010 04:18:06 18.3 C 14.7 g/m*3 18.3 C 0 km/h
Sensor: Nr:Datum:Temp:Abs-Feuchte:Windchill:Wind:
Aussen-T/F 1701 27-08-2010 04:30:06 18.4 C 14.78 g/m*3 18.4 C 0 km/h
1702 27-08-2010 04:42:06 18.4 C 14.78 g/m*3 18.4 C 0 km/h
1703 27-08-2010 04:54:06 18.3 C 14.7 g/m*3 18.3 C 0 km/h
1704 27-08-2010 05:06:06 18.3 C 14.85 g/m*3 18.3 C 0 km/h
1705 27-08-2010 05:18:06 18.3 C 14.7 g/m*3 18.3 C 0 km/h
1706 27-08-2010 05:30:06 18.4 C 14.78 g/m*3 18.4 C 0 km/h
1707 27-08-2010 05:42:06 18.4 C 14.94 g/m*3 18.4 C 0 km/h
1708 27-08-2010 05:54:06 18.6 C 15.12 g/m*3 18.6 C 0 km/h
1709 27-08-2010 06:06:06 18.7 C 15.21 g/m*3 18.7 C 0 km/h
1710 27-08-2010 06:18:06 18.8 C 15.3 g/m*3 18.8 C 0 km/h
1711 27-08-2010 06:30:06 18.9 C 15.39 g/m*3 18.9 C 0 km/h
1712 27-08-2010 06:42:06 18.9 C 15.39 g/m*3 18.9 C 0 km/h
1713 27-08-2010 06:54:06 18.8 C 15.3 g/m*3 18.8 C 0 km/h
1714 27-08-2010 07:06:06 18.8 C 15.14 g/m*3 18.8 C 0 km/h
1715 27-08-2010 07:18:07 18.7 C 15.05 g/m*3 18.7 C 0 km/h
1716 27-08-2010 07:30:07 18.7 C 15.05 g/m*3 18.7 C 0 km/h
1717 27-08-2010 07:42:07 18.6 C 14.96 g/m*3 18.6 C 0 km/h
1718 27-08-2010 07:54:01 18.6 C 14.96 g/m*3 18.6 C 0 km/h
1719 27-08-2010 08:06:02 18.6 C 14.96 g/m*3 18.6 C 0 km/h
1720 27-08-2010 08:18:01 18.6 C 14.96 g/m*3 18.6 C 0 km/h
1721 27-08-2010 08:30:01 18.6 C 14.96 g/m*3 18.6 C 0 km/h
1722 27-08-2010 08:42:01 18.5 C 14.87 g/m*3 18.5 C 0 km/h
1723 27-08-2010 08:54:02 18.6 C 14.96 g/m*3 18.6 C 0 km/h
1724 27-08-2010 09:06:01 18.6 C 14.96 g/m*3 18.6 C 0 km/h
1725 27-08-2010 09:18:02 18.8 C 15.14 g/m*3 18.8 C 0 km/h
Sensor: Nr:Datum:Temp:Abs-Feuchte:Windchill:Wind:
Aussen-T/F 1726 27-08-2010 09:30:02 19.5 C 15.27 g/m*3 19.5 C 0 km/h
1727 27-08-2010 09:42:01 19.7 C 15.11 g/m*3 19.7 C 0 km/h
1728 27-08-2010 09:54:02 19.7 C 14.77 g/m*3 19.7 C 0 km/h
1729 27-08-2010 10:06:02 19.7 C 14.6 g/m*3 19.7 C 0 km/h
1730 27-08-2010 10:18:02 19.8 C 14.52 g/m*3 19.8 C 0 km/h
1731 27-08-2010 10:30:02 19.4 C 14.18 g/m*3 19.4 C 0 km/h
1732 27-08-2010 10:42:03 19 C 14.18 g/m*3 19 C 0 km/h
1733 27-08-2010 10:54:02 18.7 C 14.25 g/m*3 18.7 C 0 km/h
1734 27-08-2010 11:06:02 18.5 C 14.4 g/m*3 18.5 C 0 km/h
1735 27-08-2010 11:18:01 18.3 C 13.92 g/m*3 18.3 C 0 km/h
1736 27-08-2010 11:30:01 18.1 C 13.44 g/m*3 18.1 C 0 km/h
1737 27-08-2010 11:42:02 17.9 C 13.13 g/m*3 17.9 C 0 km/h
1738 27-08-2010 11:54:02 18 C 13.06 g/m*3 18 C 0 km/h
1739 27-08-2010 12:06:02 18.7 C 13.77 g/m*3 18.7 C 0 km/h
1740 27-08-2010 12:18:02 19.5 C 13.93 g/m*3 19.5 C 0 km/h
1741 27-08-2010 12:30:02 20.4 C 13.62 g/m*3 20.4 C 0 km/h
1742 27-08-2010 12:42:02 20.5 C 12.99 g/m*3 20.5 C 0 km/h
1743 27-08-2010 12:54:02 21.4 C 13.12 g/m*3 21.4 C 0 km/h
1744 27-08-2010 13:06:02 21.9 C 12.93 g/m*3 21.9 C 0 km/h
1745 27-08-2010 13:18:02 22.4 C 13.11 g/m*3 22.4 C 0 km/h
1746 27-08-2010 13:30:02 22.8 C 12.6 g/m*3 22.8 C 0 km/h
1747 27-08-2010 13:42:02 23.4 C 12.41 g/m*3 23.4 C 0 km/h
1748 27-08-2010 13:54:02 24.1 C 11.82 g/m*3 24.1 C 0 km/h
1749 27-08-2010 14:06:02 24.2 C 11.88 g/m*3 24.2 C 0 km/h
1750 27-08-2010 14:18:03 23.6 C 11.7 g/m*3 23.6 C 0 km/h
Sensor: Nr:Datum:Temp:Abs-Feuchte:Windchill:Wind:
Aussen-T/F 1751 27-08-2010 14:30:03 22.5 C 12.78 g/m*3 22.5 C 0 km/h
1752 27-08-2010 14:42:02 17 C 11 g/m*3 17 C 0 km/h
1753 27-08-2010 14:54:03 16.5 C 11.94 g/m*3 16.5 C 0 km/h
1754 27-08-2010 15:06:02 16.7 C 12.65 g/m*3 16.7 C 0 km/h
1755 27-08-2010 15:18:02 18.3 C 13.76 g/m*3 18.3 C 0 km/h
1756 27-08-2010 15:30:02 19 C 13.85 g/m*3 19 C 0 km/h
1757 27-08-2010 15:42:02 19.8 C 13.66 g/m*3 19.8 C 0 km/h
1758 27-08-2010 15:54:02 20.8 C 13.4 g/m*3 20.8 C 0 km/h
1759 27-08-2010 16:06:01 21.8 C 12.47 g/m*3 21.8 C 0 km/h
1760 27-08-2010 16:18:02 21.7 C 12.59 g/m*3 21.7 C 0 km/h
1761 27-08-2010 16:30:02 21.3 C 12.68 g/m*3 21.3 C 0 km/h
1762 27-08-2010 16:42:02 21.7 C 13.35 g/m*3 21.7 C 0 km/h
1763 27-08-2010 16:54:02 23 C 13.36 g/m*3 23 C 0 km/h
1764 27-08-2010 17:06:01 22.8 C 11.99 g/m*3 22.8 C 0 km/h
1765 27-08-2010 17:18:01 22.9 C 12.47 g/m*3 22.9 C 0 km/h
1766 27-08-2010 17:30:01 21.5 C 11.5 g/m*3 21.5 C 0 km/h
1767 27-08-2010 17:42:02 20.2 C 11.37 g/m*3 20.2 C 0 km/h
1768 27-08-2010 17:54:02 19.1 C 11.15 g/m*3 19.1 C 0 km/h
1769 27-08-2010 18:06:02 17.3 C 12.08 g/m*3 17.3 C 0 km/h
1770 27-08-2010 18:18:02 16.6 C 12.15 g/m*3 16.6 C 0 km/h
1771 27-08-2010 18:30:02 16.4 C 12.14 g/m*3 16.4 C 0 km/h
1772 27-08-2010 18:42:02 17 C 12.3 g/m*3 17 C 0 km/h
1773 27-08-2010 18:54:02 16.7 C 11.37 g/m*3 16.7 C 0 km/h
1774 27-08-2010 19:06:02 16.3 C 11.38 g/m*3 16.3 C 0 km/h
1775 27-08-2010 19:18:02 16 C 11.31 g/m*3 16 C 0 km/h
Sensor: Nr:Datum:Temp:Abs-Feuchte:Windchill:Wind:
Aussen-T/F 1776 27-08-2010 19:30:02 15.5 C 10.84 g/m*3 15.5 C 0 km/h
1777 27-08-2010 19:42:02 15.3 C 10.71 g/m*3 15.3 C 0 km/h
1778 27-08-2010 19:54:02 15.1 C 10.45 g/m*3 15.1 C 0 km/h
1779 27-08-2010 20:06:02 15.1 C 10.58 g/m*3 15.1 C 0 km/h
1780 27-08-2010 20:18:02 15.3 C 10.71 g/m*3 15.3 C 0 km/h
1781 27-08-2010 20:30:02 15.3 C 10.45 g/m*3 15.3 C 0 km/h
1782 27-08-2010 20:42:02 15.2 C 10.25 g/m*3 15.2 C 0 km/h
1783 27-08-2010 20:54:02 14.7 C 10.2 g/m*3 14.7 C 0 km/h
1784 27-08-2010 21:06:02 14.5 C 10.32 g/m*3 14.5 C 0 km/h
1785 27-08-2010 21:18:03 14.5 C 10.2 g/m*3 14.5 C 0 km/h
1786 27-08-2010 21:30:03 14.6 C 10.14 g/m*3 14.6 C 0 km/h
1787 27-08-2010 21:42:02 14.6 C 10.14 g/m*3 14.6 C 0 km/h
1788 27-08-2010 21:54:03 14.7 C 10.07 g/m*3 14.7 C 0 km/h
1789 27-08-2010 22:06:02 14.8 C 10.01 g/m*3 14.8 C 0 km/h
1790 27-08-2010 22:18:02 14.8 C 10.01 g/m*3 14.8 C 0 km/h
1791 27-08-2010 22:30:02 14.8 C 10.01 g/m*3 14.8 C 0 km/h
1792 27-08-2010 22:43:28 14.8 C 10.01 g/m*3 14.8 C 0 km/h
1793 27-08-2010 22:55:28 14.5 C 10.07 g/m*3 14.5 C 0 km/h
1794 27-08-2010 23:07:28 13.8 C 9.65 g/m*3 13.8 C 0 km/h
1795 27-08-2010 23:19:28 13.9 C 9.59 g/m*3 13.9 C 0 km/h
1796 27-08-2010 23:31:28 13.8 C 9.29 g/m*3 13.8 C 0 km/h
1797 27-08-2010 23:43:28 14.1 C 9.1 g/m*3 14.1 C 0 km/h
1798 27-08-2010 23:55:28 14.2 C 9.04 g/m*3 14.2 C 0 km/h
1799 28-08-2010 00:07:28 14.1 C 9.1 g/m*3 14.1 C 0 km/h
1800 28-08-2010 00:19:28 13.9 C 9.11 g/m*3 13.9 C 0 km/h
Sensor: Nr:Datum:Temp:Abs-Feuchte:Windchill:Wind:
Aussen-T/F 1801 28-08-2010 00:31:28 14 C 9.05 g/m*3 14 C 0 km/h
1802 28-08-2010 00:43:28 13.7 C 9.35 g/m*3 13.7 C 0 km/h
1803 28-08-2010 00:55:29 13.2 C 9.42 g/m*3 13.2 C 0 km/h
1804 28-08-2010 01:07:29 13.2 C 9.64 g/m*3 13.2 C 0 km/h
1805 28-08-2010 01:19:29 13.1 C 9.81 g/m*3 13.1 C 0 km/h
1806 28-08-2010 01:31:29 13 C 9.87 g/m*3 13 C 0 km/h
1807 28-08-2010 01:43:29 13.1 C 10.04 g/m*3 13.1 C 0 km/h
1808 28-08-2010 01:55:29 13.1 C 10.04 g/m*3 13.1 C 0 km/h
1809 28-08-2010 02:07:29 13.2 C 9.99 g/m*3 13.2 C 0 km/h
1810 28-08-2010 02:19:29 13.2 C 9.99 g/m*3 13.2 C 0 km/h
1811 28-08-2010 02:31:29 13.1 C 9.81 g/m*3 13.1 C 0 km/h
1812 28-08-2010 02:43:29 13.1 C 9.7 g/m*3 13.1 C 0 km/h
1813 28-08-2010 02:55:29 13.1 C 9.59 g/m*3 13.1 C 0 km/h
1814 28-08-2010 03:07:29 13.1 C 9.59 g/m*3 13.1 C 0 km/h
1815 28-08-2010 03:19:29 13.1 C 9.59 g/m*3 13.1 C 0 km/h
1816 28-08-2010 03:31:29 13.1 C 9.47 g/m*3 13.1 C 0 km/h
1817 28-08-2010 03:43:29 13.1 C 9.59 g/m*3 13.1 C 0 km/h
1818 28-08-2010 03:55:29 13.1 C 9.59 g/m*3 13.1 C 0 km/h
1819 28-08-2010 04:07:29 12.9 C 9.47 g/m*3 12.9 C 0 km/h
1820 28-08-2010 04:19:30 12.9 C 9.47 g/m*3 12.9 C 0 km/h
1821 28-08-2010 04:31:30 12.5 C 9.24 g/m*3 12.5 C 0 km/h
1822 28-08-2010 04:43:30 12.3 C 9.23 g/m*3 12.3 C 0 km/h
1823 28-08-2010 04:55:30 12.1 C 9.12 g/m*3 12.1 C 0 km/h
1824 28-08-2010 05:07:30 12.2 C 9.28 g/m*3 12.2 C 0 km/h
1825 28-08-2010 05:19:30 12.3 C 9.34 g/m*3 12.3 C 0 km/h
Sensor: Nr:Datum:Temp:Abs-Feuchte:Windchill:Wind:
Aussen-T/F 1826 28-08-2010 05:31:30 12.1 C 9.01 g/m*3 12.1 C 0 km/h
1827 28-08-2010 05:43:30 11.9 C 9 g/m*3 11.9 C 0 km/h
1828 28-08-2010 05:55:30 12.1 C 9.12 g/m*3 12.1 C 0 km/h
1829 28-08-2010 06:07:30 11.7 C 8.89 g/m*3 11.7 C 0 km/h
1830 28-08-2010 06:19:30 11.6 C 8.83 g/m*3 11.6 C 0 km/h
1831 28-08-2010 06:31:30 11.7 C 8.79 g/m*3 11.7 C 0 km/h
1832 28-08-2010 06:43:30 11.5 C 8.68 g/m*3 11.5 C 0 km/h
1833 28-08-2010 06:55:02 11.4 C 8.62 g/m*3 11.4 C 0 km/h
1834 28-08-2010 07:07:02 11.3 C 8.67 g/m*3 11.3 C 0 km/h
1835 28-08-2010 07:19:02 11.3 C 8.77 g/m*3 11.3 C 0 km/h
1836 28-08-2010 07:31:01 11.6 C 8.94 g/m*3 11.6 C 0 km/h
1837 28-08-2010 07:43:01 12 C 8.95 g/m*3 12 C 0 km/h
1838 28-08-2010 07:55:02 12.4 C 9.07 g/m*3 12.4 C 0 km/h
1839 28-08-2010 08:07:01 12.6 C 9.07 g/m*3 12.6 C 0 km/h
1840 28-08-2010 08:19:02 12.8 C 8.96 g/m*3 12.8 C 0 km/h
1841 28-08-2010 08:31:01 13 C 8.85 g/m*3 13 C 0 km/h
1842 28-08-2010 08:43:01 13.4 C 8.95 g/m*3 13.4 C 0 km/h
1843 28-08-2010 08:55:02 13.6 C 8.83 g/m*3 13.6 C 0 km/h
1844 28-08-2010 09:07:02 14.3 C 8.97 g/m*3 14.3 C 0 km/h
1845 28-08-2010 09:19:01 14.2 C 8.55 g/m*3 14.2 C 0 km/h
1846 28-08-2010 09:31:02 14.1 C 8.62 g/m*3 14.1 C 0 km/h
1847 28-08-2010 09:43:02 14.1 C 8.37 g/m*3 14.1 C 0 km/h
1848 28-08-2010 09:55:02 14.4 C 8.41 g/m*3 14.4 C 0 km/h
1849 28-08-2010 10:07:02 14.6 C 8.38 g/m*3 14.6 C 0 km/h
1850 28-08-2010 10:19:02 14.6 C 8.38 g/m*3 14.6 C 0 km/h
Sensor: Nr:Datum:Temp:Abs-Feuchte:Windchill:Wind:
Aussen-T/F 1851 28-08-2010 10:31:02 15.1 C 8.39 g/m*3 15.1 C 0 km/h
1852 28-08-2010 10:43:02 15.6 C 8.51 g/m*3 15.6 C 0 km/h
1853 28-08-2010 10:55:02 15.8 C 8.08 g/m*3 15.8 C 0 km/h
1854 28-08-2010 11:07:03 15.8 C 8.21 g/m*3 15.8 C 0 km/h
1855 28-08-2010 11:19:02 16.4 C 7.96 g/m*3 16.4 C 0 km/h
1856 28-08-2010 11:31:03 16.9 C 7.77 g/m*3 16.9 C 0 km/h
1857 28-08-2010 11:43:03 16.7 C 7.25 g/m*3 16.7 C 0 km/h
1858 28-08-2010 11:55:02 16.4 C 7.82 g/m*3 16.4 C 0 km/h
1859 28-08-2010 12:07:02 17 C 7.67 g/m*3 17 C 0 km/h
1860 28-08-2010 12:19:02 18 C 7.22 g/m*3 18 C 0 km/h
1861 28-08-2010 12:31:02 13.7 C 8.05 g/m*3 13.7 C 0 km/h
1862 28-08-2010 12:43:02 13.7 C 9.35 g/m*3 13.7 C 0 km/h
1863 28-08-2010 12:55:02 14.7 C 10.58 g/m*3 14.7 C 0 km/h
1864 28-08-2010 13:07:02 15.7 C 10.84 g/m*3 15.7 C 0 km/h
1865 28-08-2010 13:19:03 15.8 C 10.23 g/m*3 15.8 C 0 km/h
1866 28-08-2010 13:31:02 15.5 C 10.31 g/m*3 15.5 C 0 km/h
1867 28-08-2010 13:43:02 17.2 C 11.57 g/m*3 17.2 C 0 km/h
1868 28-08-2010 13:55:03 17 C 10.13 g/m*3 17 C 0 km/h
1869 28-08-2010 14:07:02 15.8 C 8.88 g/m*3 15.8 C 0 km/h
1870 28-08-2010 14:19:03 16.8 C 8.01 g/m*3 16.8 C 0 km/h
1871 28-08-2010 14:31:02 15.9 C 6.91 g/m*3 15.9 C 0 km/h
1872 28-08-2010 14:43:02 14.9 C 7.01 g/m*3 14.9 C 0 km/h
1873 28-08-2010 14:55:02 14.6 C 7.63 g/m*3 14.6 C 0 km/h
1874 28-08-2010 15:07:02 14.7 C 7.68 g/m*3 14.7 C 0 km/h
1875 28-08-2010 15:19:02 15.8 C 7.94 g/m*3 15.8 C 0 km/h
Sensor: Nr:Datum:Temp:Abs-Feuchte:Windchill:Wind:
Aussen-T/F 1876 28-08-2010 15:31:03 17.6 C 7.65 g/m*3 17.6 C 0 km/h
1877 28-08-2010 15:43:03 17.9 C 6.72 g/m*3 17.9 C 0 km/h
1878 28-08-2010 15:55:02 17.6 C 7.05 g/m*3 17.6 C 0 km/h
1879 28-08-2010 16:07:01 17 C 6.8 g/m*3 17 C 0 km/h
1880 28-08-2010 16:19:02 14.9 C 7.65 g/m*3 14.9 C 0 km/h
1881 28-08-2010 16:31:02 13.9 C 8.27 g/m*3 13.9 C 0 km/h
1882 28-08-2010 16:43:02 14.5 C 8.95 g/m*3 14.5 C 0 km/h
1883 28-08-2010 16:55:01 15.2 C 8.44 g/m*3 15.2 C 0 km/h
1884 28-08-2010 17:07:02 15.9 C 9.21 g/m*3 15.9 C 0 km/h
1885 28-08-2010 17:19:01 16 C 8.72 g/m*3 16 C 0 km/h
1886 28-08-2010 17:31:02 15.7 C 8.3 g/m*3 15.7 C 0 km/h
1887 28-08-2010 17:43:02 15.2 C 8.05 g/m*3 15.2 C 0 km/h
1888 28-08-2010 17:55:01 15.2 C 9.09 g/m*3 15.2 C 0 km/h
1889 28-08-2010 18:07:02 16.2 C 8.27 g/m*3 16.2 C 0 km/h
1890 28-08-2010 18:19:01 17 C 6.95 g/m*3 17 C 0 km/h
1891 28-08-2010 18:31:02 18.1 C 7.26 g/m*3 18.1 C 0 km/h
1892 28-08-2010 18:43:02 18.3 C 7.04 g/m*3 18.3 C 0 km/h
1893 28-08-2010 18:55:01 18.2 C 7.46 g/m*3 18.2 C 0 km/h
1894 28-08-2010 19:07:02 16.8 C 7.86 g/m*3 16.8 C 0 km/h
1895 28-08-2010 19:19:02 16.1 C 7.95 g/m*3 16.1 C 0 km/h
1896 28-08-2010 19:31:02 15 C 8.59 g/m*3 15 C 0 km/h
1897 28-08-2010 19:43:02 14.2 C 8.79 g/m*3 14.2 C 0 km/h
1898 28-08-2010 19:55:01 14.2 C 8.3 g/m*3 14.2 C 0 km/h
1899 28-08-2010 20:07:02 13.4 C 8.6 g/m*3 13.4 C 0 km/h
1900 28-08-2010 20:19:02 13 C 8.85 g/m*3 13 C 0 km/h
Sensor: Nr:Datum:Temp:Abs-Feuchte:Windchill:Wind:
Aussen-T/F 1901 28-08-2010 20:31:01 13.1 C 9.13 g/m*3 13.1 C 0 km/h
1902 28-08-2010 20:43:01 13.1 C 9.24 g/m*3 13.1 C 0 km/h
1903 28-08-2010 20:55:02 12.9 C 9.35 g/m*3 12.9 C 0 km/h
1904 28-08-2010 21:07:01 12.8 C 9.3 g/m*3 12.8 C 0 km/h
1905 28-08-2010 21:19:02 12.7 C 9.24 g/m*3 12.7 C 0 km/h
1906 28-08-2010 21:31:01 12.4 C 9.07 g/m*3 12.4 C 0 km/h
1907 28-08-2010 21:43:01 12.2 C 8.96 g/m*3 12.2 C 0 km/h
1908 28-08-2010 21:55:02 12.2 C 9.06 g/m*3 12.2 C 0 km/h
1909 28-08-2010 22:08:02 12.3 C 9.12 g/m*3 12.3 C 0 km/h
1910 28-08-2010 22:20:02 12.3 C 9.01 g/m*3 12.3 C 0 km/h
1911 28-08-2010 22:32:03 12.2 C 8.85 g/m*3 12.2 C 0 km/h
1912 28-08-2010 22:44:03 12.1 C 8.79 g/m*3 12.1 C 0 km/h
1913 28-08-2010 22:56:03 12.3 C 9.01 g/m*3 12.3 C 0 km/h
1914 28-08-2010 23:08:03 12.6 C 8.96 g/m*3 12.6 C 0 km/h
1915 28-08-2010 23:20:03 12.7 C 8.79 g/m*3 12.7 C 0 km/h
1916 28-08-2010 23:32:03 12.4 C 8.74 g/m*3 12.4 C 0 km/h
1917 28-08-2010 23:44:03 12.1 C 8.58 g/m*3 12.1 C 0 km/h
1918 28-08-2010 23:56:03 12 C 8.53 g/m*3 12 C 0 km/h
1919 29-08-2010 00:08:03 11.8 C 8.42 g/m*3 11.8 C 0 km/h
1920 29-08-2010 00:20:03 11.8 C 8.42 g/m*3 11.8 C 0 km/h
1921 29-08-2010 00:32:03 11.9 C 8.58 g/m*3 11.9 C 0 km/h
1922 29-08-2010 00:44:03 12 C 8.53 g/m*3 12 C 0 km/h
1923 29-08-2010 00:56:03 12 C 8.42 g/m*3 12 C 0 km/h
1924 29-08-2010 01:08:03 11.7 C 8.47 g/m*3 11.7 C 0 km/h
1925 29-08-2010 01:20:03 11.5 C 8.37 g/m*3 11.5 C 0 km/h
Sensor: Nr:Datum:Temp:Abs-Feuchte:Windchill:Wind:
Aussen-T/F 1926 29-08-2010 01:32:03 11.5 C 8.47 g/m*3 11.5 C 0 km/h
1927 29-08-2010 01:44:03 11.4 C 8.42 g/m*3 11.4 C 0 km/h
1928 29-08-2010 01:56:03 11.4 C 8.52 g/m*3 11.4 C 0 km/h
1929 29-08-2010 02:08:03 11.7 C 8.58 g/m*3 11.7 C 0 km/h
1930 29-08-2010 02:20:03 11.7 C 8.47 g/m*3 11.7 C 0 km/h
1931 29-08-2010 02:32:03 11.7 C 8.58 g/m*3 11.7 C 0 km/h
1932 29-08-2010 02:44:04 11.8 C 8.53 g/m*3 11.8 C 0 km/h
1933 29-08-2010 02:56:04 11.8 C 8.53 g/m*3 11.8 C 0 km/h
1934 29-08-2010 03:08:04 11.8 C 8.42 g/m*3 11.8 C 0 km/h
1935 29-08-2010 03:20:04 11.8 C 8.53 g/m*3 11.8 C 0 km/h
1936 29-08-2010 03:32:04 11.8 C 8.53 g/m*3 11.8 C 0 km/h
1937 29-08-2010 03:44:04 11.7 C 8.47 g/m*3 11.7 C 0 km/h
1938 29-08-2010 03:56:04 11.7 C 8.47 g/m*3 11.7 C 0 km/h
1939 29-08-2010 04:08:04 11.6 C 8.42 g/m*3 11.6 C 0 km/h
1940 29-08-2010 04:20:04 11.4 C 8.31 g/m*3 11.4 C 0 km/h
1941 29-08-2010 04:32:04 11.4 C 8.42 g/m*3 11.4 C 0 km/h
1942 29-08-2010 04:44:04 11.4 C 8.42 g/m*3 11.4 C 0 km/h
1943 29-08-2010 04:56:04 11.7 C 8.37 g/m*3 11.7 C 0 km/h
1944 29-08-2010 05:08:04 11.8 C 8.31 g/m*3 11.8 C 0 km/h
1945 29-08-2010 05:20:04 11.7 C 8.26 g/m*3 11.7 C 0 km/h
1946 29-08-2010 05:32:04 11.7 C 8.26 g/m*3 11.7 C 0 km/h
1947 29-08-2010 05:44:04 11.7 C 8.37 g/m*3 11.7 C 0 km/h
1948 29-08-2010 05:56:04 11.8 C 8.42 g/m*3 11.8 C 0 km/h
1949 29-08-2010 06:08:04 12.2 C 8.31 g/m*3 12.2 C 0 km/h
1950 29-08-2010 06:20:04 12.1 C 8.26 g/m*3 12.1 C 0 km/h
Sensor: Nr:Datum:Temp:Abs-Feuchte:Windchill:Wind:
Aussen-T/F 1951 29-08-2010 06:32:04 12.2 C 8.2 g/m*3 12.2 C 0 km/h
1952 29-08-2010 06:44:04 12 C 8.31 g/m*3 12 C 0 km/h
1953 29-08-2010 06:56:04 12 C 8.42 g/m*3 12 C 0 km/h
1954 29-08-2010 07:08:02 12.1 C 8.36 g/m*3 12.1 C 0 km/h
1955 29-08-2010 07:20:02 12.2 C 8.31 g/m*3 12.2 C 0 km/h
1956 29-08-2010 07:32:02 12.2 C 8.31 g/m*3 12.2 C 0 km/h
1957 29-08-2010 07:44:02 12.2 C 8.31 g/m*3 12.2 C 0 km/h
1958 29-08-2010 07:56:02 12.3 C 8.36 g/m*3 12.3 C 0 km/h
1959 29-08-2010 08:08:02 12.1 C 8.36 g/m*3 12.1 C 0 km/h
1960 29-08-2010 08:20:01 12.2 C 8.42 g/m*3 12.2 C 0 km/h
1961 29-08-2010 08:32:02 12.5 C 8.36 g/m*3 12.5 C 0 km/h
1962 29-08-2010 08:44:02 12.6 C 8.3 g/m*3 12.6 C 0 km/h
1963 29-08-2010 08:56:01 12.8 C 8.29 g/m*3 12.8 C 0 km/h
1964 29-08-2010 09:08:02 13.5 C 8.3 g/m*3 13.5 C 0 km/h
1965 29-08-2010 09:20:02 13.8 C 8.1 g/m*3 13.8 C 0 km/h
1966 29-08-2010 09:32:01 14 C 8.08 g/m*3 14 C 0 km/h
1967 29-08-2010 09:44:01 14.3 C 8.23 g/m*3 14.3 C 0 km/h
1968 29-08-2010 09:56:03 14.4 C 8.16 g/m*3 14.4 C 0 km/h
1969 29-08-2010 10:08:03 14.9 C 8.28 g/m*3 14.9 C 0 km/h
1970 29-08-2010 10:20:03 15.3 C 7.97 g/m*3 15.3 C 0 km/h
1971 29-08-2010 10:32:02 15.3 C 7.97 g/m*3 15.3 C 0 km/h
1972 29-08-2010 10:44:02 15.7 C 8.03 g/m*3 15.7 C 0 km/h
1973 29-08-2010 10:56:01 15.8 C 7.94 g/m*3 15.8 C 0 km/h
1974 29-08-2010 11:08:02 16.3 C 8.05 g/m*3 16.3 C 0 km/h
1975 29-08-2010 11:20:01 16.4 C 7.96 g/m*3 16.4 C 0 km/h
Sensor: Nr:Datum:Temp:Abs-Feuchte:Windchill:Wind:
Aussen-T/F 1976 29-08-2010 11:32:01 16.6 C 7.91 g/m*3 16.6 C 0 km/h
1977 29-08-2010 11:44:01 16 C 7.77 g/m*3 16 C 0 km/h
1978 29-08-2010 11:56:01 16 C 7.9 g/m*3 16 C 0 km/h
1979 29-08-2010 12:08:01 15.9 C 7.85 g/m*3 15.9 C 0 km/h
1980 29-08-2010 12:20:02 14 C 9.17 g/m*3 14 C 0 km/h
1981 29-08-2010 12:32:01 14.6 C 9.76 g/m*3 14.6 C 0 km/h
1982 29-08-2010 12:44:01 15.1 C 9.16 g/m*3 15.1 C 0 km/h
1983 29-08-2010 12:56:03 16 C 9.13 g/m*3 16 C 0 km/h
1984 29-08-2010 13:08:02 16.9 C 8.92 g/m*3 16.9 C 0 km/h
1985 29-08-2010 13:20:02 16.9 C 8.63 g/m*3 16.9 C 0 km/h
1986 29-08-2010 13:32:02 16.4 C 8.37 g/m*3 16.4 C 0 km/h
1987 29-08-2010 13:44:02 15.3 C 8.62 g/m*3 15.3 C 0 km/h
1988 29-08-2010 13:56:02 14.7 C 8.94 g/m*3 14.7 C 0 km/h
1989 29-08-2010 14:08:01 15.2 C 8.83 g/m*3 15.2 C 0 km/h
1990 29-08-2010 14:20:02 16.4 C 8.51 g/m*3 16.4 C 0 km/h
1991 29-08-2010 14:32:02 17 C 7.96 g/m*3 17 C 0 km/h
1992 29-08-2010 14:44:02 17.1 C 8.3 g/m*3 17.1 C 0 km/h
1993 29-08-2010 14:56:01 16.6 C 8.33 g/m*3 16.6 C 0 km/h
1994 29-08-2010 15:08:01 15.7 C 8.3 g/m*3 15.7 C 0 km/h
1995 29-08-2010 15:20:01 15.5 C 8.2 g/m*3 15.5 C 0 km/h
1996 29-08-2010 15:32:02 14.2 C 8.91 g/m*3 14.2 C 0 km/h
1997 29-08-2010 15:44:02 14.7 C 9.69 g/m*3 14.7 C 0 km/h
1998 29-08-2010 15:56:02 15.3 C 9.4 g/m*3 15.3 C 0 km/h
1999 29-08-2010 16:08:02 15.1 C 9.03 g/m*3 15.1 C 0 km/h
2000 29-08-2010 16:20:02 15.5 C 8.99 g/m*3 15.5 C 0 km/h
Sensor: Nr:Datum:Temp:Abs-Feuchte:Windchill:Wind:
Aussen-T/F 2001 29-08-2010 16:32:02 15.9 C 8.53 g/m*3 15.9 C 0 km/h
2002 29-08-2010 16:44:03 16.2 C 8.14 g/m*3 16.2 C 0 km/h
2003 29-08-2010 16:56:02 16.1 C 7.81 g/m*3 16.1 C 0 km/h
2004 29-08-2010 17:08:02 15.9 C 7.85 g/m*3 15.9 C 0 km/h
2005 29-08-2010 17:20:02 15.6 C 7.98 g/m*3 15.6 C 0 km/h
2006 29-08-2010 17:32:02 15.2 C 8.18 g/m*3 15.2 C 0 km/h
2007 29-08-2010 17:44:02 14.1 C 8.74 g/m*3 14.1 C 0 km/h
2008 29-08-2010 17:56:02 14 C 8.68 g/m*3 14 C 0 km/h
2009 29-08-2010 18:08:02 13.8 C 8.94 g/m*3 13.8 C 0 km/h
2010 29-08-2010 18:20:01 13.4 C 9.3 g/m*3 13.4 C 0 km/h
2011 29-08-2010 18:32:01 13.1 C 9.59 g/m*3 13.1 C 0 km/h
2012 29-08-2010 18:44:01 12.7 C 9.46 g/m*3 12.7 C 0 km/h
2013 29-08-2010 18:56:02 12.3 C 9.23 g/m*3 12.3 C 0 km/h
2014 29-08-2010 19:08:02 12.2 C 9.28 g/m*3 12.2 C 0 km/h
2015 29-08-2010 19:20:01 12.2 C 9.39 g/m*3 12.2 C 0 km/h
2016 29-08-2010 19:32:02 12 C 9.38 g/m*3 12 C 0 km/h
2017 29-08-2010 19:44:02 11.8 C 9.26 g/m*3 11.8 C 0 km/h
2018 29-08-2010 19:56:02 11.8 C 9.16 g/m*3 11.8 C 0 km/h
2019 29-08-2010 20:08:02 11.8 C 8.95 g/m*3 11.8 C 0 km/h
2020 29-08-2010 20:20:03 11.8 C 8.95 g/m*3 11.8 C 0 km/h
2021 29-08-2010 20:32:02 11.7 C 8.89 g/m*3 11.7 C 0 km/h
2022 29-08-2010 20:44:02 11.7 C 8.99 g/m*3 11.7 C 0 km/h
2023 29-08-2010 20:56:01 11.9 C 9 g/m*3 11.9 C 0 km/h
2024 29-08-2010 21:08:01 12 C 8.95 g/m*3 12 C 0 km/h
2025 29-08-2010 21:20:02 12.2 C 8.96 g/m*3 12.2 C 0 km/h
Sensor: Nr:Datum:Temp:Abs-Feuchte:Windchill:Wind:
Aussen-T/F 2026 29-08-2010 21:32:01 12.3 C 9.01 g/m*3 12.3 C 0 km/h
2027 29-08-2010 21:44:01 12 C 8.95 g/m*3 12 C 0 km/h
2028 29-08-2010 21:56:02 9.7 C 7.74 g/m*3 9.7 C 0 km/h
2029 29-08-2010 22:09:03 9.3 C 7.82 g/m*3 9.3 C 0 km/h
2030 29-08-2010 22:21:03 9.2 C 7.95 g/m*3 9.2 C 0 km/h
2031 29-08-2010 22:33:03 9.2 C 8.04 g/m*3 9.2 C 0 km/h
2032 29-08-2010 22:45:03 9.2 C 8.13 g/m*3 9.2 C 0 km/h
2033 29-08-2010 22:57:03 9.1 C 8.16 g/m*3 9.1 C 0 km/h
2034 29-08-2010 23:09:03 9 C 8.11 g/m*3 9 C 0 km/h
2035 29-08-2010 23:21:03 9 C 8.11 g/m*3 9 C 0 km/h
2036 29-08-2010 23:33:03 9 C 8.11 g/m*3 9 C 0 km/h
2037 29-08-2010 23:45:03 9.3 C 8.27 g/m*3 9.3 C 0 km/h
2038 29-08-2010 23:57:03 9.3 C 8.18 g/m*3 9.3 C 0 km/h
2039 30-08-2010 00:09:03 9.1 C 7.99 g/m*3 9.1 C 0 km/h
2040 30-08-2010 00:21:03 9.1 C 7.99 g/m*3 9.1 C 0 km/h
2041 30-08-2010 00:33:03 9.1 C 7.99 g/m*3 9.1 C 0 km/h
2042 30-08-2010 00:45:03 9.2 C 7.95 g/m*3 9.2 C 0 km/h
2043 30-08-2010 00:57:03 9.5 C 8.01 g/m*3 9.5 C 0 km/h
2044 30-08-2010 01:09:03 9.7 C 7.93 g/m*3 9.7 C 0 km/h
2045 30-08-2010 01:21:03 9.8 C 7.89 g/m*3 9.8 C 0 km/h
2046 30-08-2010 01:33:03 10 C 7.8 g/m*3 10 C 0 km/h
2047 30-08-2010 01:45:04 10 C 7.8 g/m*3 10 C 0 km/h
2048 30-08-2010 01:57:04 10.2 C 7.8 g/m*3 10.2 C 0 km/h
2049 30-08-2010 02:09:04 10.1 C 7.75 g/m*3 10.1 C 0 km/h
2050 30-08-2010 02:21:04 10.2 C 7.8 g/m*3 10.2 C 0 km/h
Sensor: Nr:Datum:Temp:Abs-Feuchte:Windchill:Wind:
Aussen-T/F 2051 30-08-2010 02:33:04 10.5 C 7.86 g/m*3 10.5 C 0 km/h
2052 30-08-2010 02:45:04 10.8 C 7.81 g/m*3 10.8 C 0 km/h
2053 30-08-2010 02:57:04 11 C 7.61 g/m*3 11 C 0 km/h
2054 30-08-2010 03:09:04 11.1 C 7.45 g/m*3 11.1 C 0 km/h
2055 30-08-2010 03:21:04 11.2 C 7.5 g/m*3 11.2 C 0 km/h
2056 30-08-2010 03:33:04 11 C 7.61 g/m*3 11 C 0 km/h
2057 30-08-2010 03:45:04 10.5 C 7.76 g/m*3 10.5 C 0 km/h
2058 30-08-2010 03:57:04 10.3 C 7.95 g/m*3 10.3 C 0 km/h
2059 30-08-2010 04:09:04 10.3 C 8.04 g/m*3 10.3 C 0 km/h
2060 30-08-2010 04:21:04 10.3 C 8.04 g/m*3 10.3 C 0 km/h
2061 30-08-2010 04:33:04 10.3 C 8.04 g/m*3 10.3 C 0 km/h
2062 30-08-2010 04:45:04 10.2 C 7.99 g/m*3 10.2 C 0 km/h
2063 30-08-2010 04:57:04 10.2 C 7.8 g/m*3 10.2 C 0 km/h
2064 30-08-2010 05:09:04 9.8 C 7.7 g/m*3 9.8 C 0 km/h
2065 30-08-2010 05:21:04 9.6 C 7.79 g/m*3 9.6 C 0 km/h
2066 30-08-2010 05:33:04 9.3 C 7.91 g/m*3 9.3 C 0 km/h
2067 30-08-2010 05:45:05 9.6 C 8.24 g/m*3 9.6 C 0 km/h
2068 30-08-2010 05:57:05 9.8 C 8.44 g/m*3 9.8 C 0 km/h
2069 30-08-2010 06:09:05 9.9 C 8.5 g/m*3 9.9 C 0 km/h
2070 30-08-2010 06:21:05 10 C 8.46 g/m*3 10 C 0 km/h
2071 30-08-2010 06:33:05 10.1 C 8.51 g/m*3 10.1 C 0 km/h
2072 30-08-2010 06:45:05 10.1 C 8.42 g/m*3 10.1 C 0 km/h
2073 30-08-2010 06:57:05 10.2 C 8.47 g/m*3 10.2 C 0 km/h
2074 30-08-2010 07:09:05 10.1 C 8.42 g/m*3 10.1 C 0 km/h
2075 30-08-2010 07:21:05 9.9 C 8.4 g/m*3 9.9 C 0 km/h
Sensor: Nr:Datum:Temp:Abs-Feuchte:Windchill:Wind:
Aussen-T/F 2076 30-08-2010 07:33:05 9.8 C 8.35 g/m*3 9.8 C 0 km/h
2077 30-08-2010 07:45:05 9.9 C 8.4 g/m*3 9.9 C 0 km/h
2078 30-08-2010 07:57:05 10.1 C 8.42 g/m*3 10.1 C 0 km/h
2079 30-08-2010 08:09:05 10.1 C 8.42 g/m*3 10.1 C 0 km/h
2080 30-08-2010 08:21:02 10.7 C 8.74 g/m*3 10.7 C 0 km/h
2081 30-08-2010 08:33:02 11 C 8.71 g/m*3 11 C 0 km/h
2082 30-08-2010 08:45:01 11.2 C 8.72 g/m*3 11.2 C 0 km/h
2083 30-08-2010 08:57:01 11.1 C 8.56 g/m*3 11.1 C 0 km/h
2084 30-08-2010 09:09:01 11.2 C 8.62 g/m*3 11.2 C 0 km/h
2085 30-08-2010 09:21:01 10.8 C 8.4 g/m*3 10.8 C 0 km/h
2086 30-08-2010 09:33:01 10.8 C 8.6 g/m*3 10.8 C 0 km/h
2087 30-08-2010 09:45:01 11 C 8.71 g/m*3 11 C 0 km/h
2088 30-08-2010 09:57:01 11.1 C 8.86 g/m*3 11.1 C 0 km/h
2089 30-08-2010 10:09:01 11 C 8.61 g/m*3 11 C 0 km/h
2090 30-08-2010 10:21:02 11.5 C 8.88 g/m*3 11.5 C 0 km/h
2091 30-08-2010 10:33:01 11.9 C 8.9 g/m*3 11.9 C 0 km/h
2092 30-08-2010 10:45:02 12.4 C 8.96 g/m*3 12.4 C 0 km/h
2093 30-08-2010 10:57:02 12.5 C 8.8 g/m*3 12.5 C 0 km/h
2094 30-08-2010 11:09:03 12.6 C 8.96 g/m*3 12.6 C 0 km/h
2095 30-08-2010 11:21:02 12.7 C 8.13 g/m*3 12.7 C 0 km/h
2096 30-08-2010 11:33:02 13.1 C 8.1 g/m*3 13.1 C 0 km/h
2097 30-08-2010 11:45:02 13.1 C 8.1 g/m*3 13.1 C 0 km/h
2098 30-08-2010 11:57:02 13.5 C 8.3 g/m*3 13.5 C 0 km/h
2099 30-08-2010 12:09:01 13.8 C 8.22 g/m*3 13.8 C 0 km/h
2100 30-08-2010 12:21:02 13.4 C 7.9 g/m*3 13.4 C 0 km/h
Sensor: Nr:Datum:Temp:Abs-Feuchte:Windchill:Wind:
Aussen-T/F 2101 30-08-2010 12:33:01 13.8 C 8.22 g/m*3 13.8 C 0 km/h
2102 30-08-2010 12:45:02 14.5 C 6.96 g/m*3 14.5 C 0 km/h
2103 30-08-2010 12:57:02 14.6 C 6.76 g/m*3 14.6 C 0 km/h
2104 30-08-2010 13:09:01 15.5 C 6.74 g/m*3 15.5 C 0 km/h
2105 30-08-2010 13:21:01 16 C 6.81 g/m*3 16 C 0 km/h
2106 30-08-2010 13:33:01 16.3 C 6.52 g/m*3 16.3 C 0 km/h
2107 30-08-2010 13:45:02 16.2 C 6.76 g/m*3 16.2 C 0 km/h
2108 30-08-2010 13:57:02 16.2 C 7.03 g/m*3 16.2 C 0 km/h
2109 30-08-2010 14:09:01 15.7 C 7.36 g/m*3 15.7 C 0 km/h
2110 30-08-2010 14:21:02 15.6 C 7.85 g/m*3 15.6 C 0 km/h
2111 30-08-2010 14:33:02 16.6 C 7.91 g/m*3 16.6 C 0 km/h
2112 30-08-2010 14:45:02 16.7 C 7.67 g/m*3 16.7 C 0 km/h
2113 30-08-2010 14:57:02 16.8 C 7.86 g/m*3 16.8 C 0 km/h
2114 30-08-2010 15:09:03 17.3 C 8.25 g/m*3 17.3 C 0 km/h
2115 30-08-2010 15:21:02 17.7 C 7.85 g/m*3 17.7 C 0 km/h
2116 30-08-2010 15:33:02 17.3 C 7.66 g/m*3 17.3 C 0 km/h
2117 30-08-2010 15:45:01 17.7 C 7.54 g/m*3 17.7 C 0 km/h
2118 30-08-2010 15:57:01 17.4 C 7.71 g/m*3 17.4 C 0 km/h
2119 30-08-2010 16:09:02 16.9 C 7.77 g/m*3 16.9 C 0 km/h
2120 30-08-2010 16:21:01 15.8 C 8.88 g/m*3 15.8 C 0 km/h
2121 30-08-2010 16:33:02 14.8 C 9.37 g/m*3 14.8 C 0 km/h
2122 30-08-2010 16:45:02 15.5 C 9.78 g/m*3 15.5 C 0 km/h
2123 30-08-2010 16:57:02 16.3 C 9.85 g/m*3 16.3 C 0 km/h
2124 30-08-2010 17:09:02 15.8 C 9.42 g/m*3 15.8 C 0 km/h
2125 30-08-2010 17:21:01 15 C 9.49 g/m*3 15 C 0 km/h
Sensor: Nr:Datum:Temp:Abs-Feuchte:Windchill:Wind:
Aussen-T/F 2126 30-08-2010 17:33:02 14.8 C 9.5 g/m*3 14.8 C 0 km/h
2127 30-08-2010 17:45:01 14.7 C 8.81 g/m*3 14.7 C 0 km/h
2128 30-08-2010 17:57:01 14.9 C 8.92 g/m*3 14.9 C 0 km/h
2129 30-08-2010 18:09:02 14.7 C 8.69 g/m*3 14.7 C 0 km/h
2130 30-08-2010 18:21:01 14.6 C 8.76 g/m*3 14.6 C 0 km/h
2131 30-08-2010 18:33:02 14.3 C 8.6 g/m*3 14.3 C 0 km/h
2132 30-08-2010 18:45:01 14.1 C 8.74 g/m*3 14.1 C 0 km/h
2133 30-08-2010 18:57:01 13.9 C 8.99 g/m*3 13.9 C 0 km/h
2134 30-08-2010 19:09:02 13.9 C 8.99 g/m*3 13.9 C 0 km/h
2135 30-08-2010 19:21:02 13.9 C 9.23 g/m*3 13.9 C 0 km/h
2136 30-08-2010 19:33:01 14.1 C 9.22 g/m*3 14.1 C 0 km/h
2137 30-08-2010 19:45:02 14.2 C 8.91 g/m*3 14.2 C 0 km/h
2138 30-08-2010 19:57:02 14.1 C 8.5 g/m*3 14.1 C 0 km/h
2139 30-08-2010 20:09:01 13.9 C 8.51 g/m*3 13.9 C 0 km/h
2140 30-08-2010 20:21:02 13.9 C 8.51 g/m*3 13.9 C 0 km/h
2141 30-08-2010 20:33:01 14 C 8.56 g/m*3 14 C 0 km/h
2142 30-08-2010 20:45:02 13.8 C 8.94 g/m*3 13.8 C 0 km/h
2143 30-08-2010 20:57:02 13.2 C 9.07 g/m*3 13.2 C 0 km/h
2144 30-08-2010 21:09:02 13.1 C 9.36 g/m*3 13.1 C 0 km/h
2145 30-08-2010 21:21:01 12.9 C 9.58 g/m*3 12.9 C 0 km/h
2146 30-08-2010 21:33:01 12.7 C 9.68 g/m*3 12.7 C 0 km/h
2147 30-08-2010 21:45:02 12.4 C 9.51 g/m*3 12.4 C 0 km/h
2148 30-08-2010 21:57:02 12.5 C 9.68 g/m*3 12.5 C 0 km/h
2149 30-08-2010 22:09:02 12.8 C 9.97 g/m*3 12.8 C 0 km/h
2150 30-08-2010 22:21:02 12.8 C 9.97 g/m*3 12.8 C 0 km/h
Sensor: Nr:Datum:Temp:Abs-Feuchte:Windchill:Wind:
Aussen-T/F 2151 30-08-2010 22:33:02 12.7 C 9.91 g/m*3 12.7 C 0 km/h
2152 30-08-2010 22:45:02 12.7 C 9.91 g/m*3 12.7 C 0 km/h
2153 30-08-2010 22:57:02 12.6 C 9.85 g/m*3 12.6 C 0 km/h
2154 30-08-2010 23:10:03 12.4 C 9.72 g/m*3 12.4 C 0 km/h
2155 30-08-2010 23:22:03 12.4 C 9.72 g/m*3 12.4 C 0 km/h
2156 30-08-2010 23:34:03 12.4 C 9.83 g/m*3 12.4 C 0 km/h
2157 30-08-2010 23:46:03 12.2 C 9.6 g/m*3 12.2 C 0 km/h
2158 30-08-2010 23:58:03 12.1 C 9.54 g/m*3 12.1 C 0 km/h
2159 31-08-2010 00:10:03 12 C 9.48 g/m*3 12 C 0 km/h
2160 31-08-2010 00:22:03 12.1 C 9.54 g/m*3 12.1 C 0 km/h
2161 31-08-2010 00:34:03 12.2 C 9.6 g/m*3 12.2 C 0 km/h
2162 31-08-2010 00:46:03 12.4 C 9.72 g/m*3 12.4 C 0 km/h
2163 31-08-2010 00:58:03 12.4 C 9.72 g/m*3 12.4 C 0 km/h
2164 31-08-2010 01:10:03 12.5 C 9.68 g/m*3 12.5 C 0 km/h
2165 31-08-2010 01:22:03 12.6 C 9.62 g/m*3 12.6 C 0 km/h
2166 31-08-2010 01:34:03 12.5 C 9.46 g/m*3 12.5 C 0 km/h
2167 31-08-2010 01:46:03 12.4 C 9.4 g/m*3 12.4 C 0 km/h
2168 31-08-2010 01:58:03 12.1 C 9.12 g/m*3 12.1 C 0 km/h
2169 31-08-2010 02:10:03 12.2 C 9.28 g/m*3 12.2 C 0 km/h
2170 31-08-2010 02:22:03 12.4 C 9.4 g/m*3 12.4 C 0 km/h
2171 31-08-2010 02:34:03 12.4 C 9.29 g/m*3 12.4 C 0 km/h
2172 31-08-2010 02:46:03 12.4 C 9.29 g/m*3 12.4 C 0 km/h
2173 31-08-2010 02:58:04 12.4 C 9.29 g/m*3 12.4 C 0 km/h
2174 31-08-2010 03:10:04 12.3 C 9.12 g/m*3 12.3 C 0 km/h
2175 31-08-2010 03:22:04 12.3 C 9.12 g/m*3 12.3 C 0 km/h
Sensor: Nr:Datum:Temp:Abs-Feuchte:Windchill:Wind:
Aussen-T/F 2176 31-08-2010 03:34:04 12 C 8.95 g/m*3 12 C 0 km/h
2177 31-08-2010 03:46:04 11.9 C 9.11 g/m*3 11.9 C 0 km/h
2178 31-08-2010 03:58:04 12 C 9.06 g/m*3 12 C 0 km/h
2179 31-08-2010 04:10:04 11.5 C 8.88 g/m*3 11.5 C 0 km/h
2180 31-08-2010 04:22:04 11.3 C 8.87 g/m*3 11.3 C 0 km/h
2181 31-08-2010 04:34:04 11.4 C 9.03 g/m*3 11.4 C 0 km/h
2182 31-08-2010 04:46:04 11.6 C 9.15 g/m*3 11.6 C 0 km/h
2183 31-08-2010 04:58:04 11.8 C 9.37 g/m*3 11.8 C 0 km/h
2184 31-08-2010 05:10:04 11.8 C 9.26 g/m*3 11.8 C 0 km/h
2185 31-08-2010 05:22:04 11.5 C 9.09 g/m*3 11.5 C 0 km/h
2186 31-08-2010 05:34:04 11.2 C 8.92 g/m*3 11.2 C 0 km/h
2187 31-08-2010 05:46:04 11.1 C 8.86 g/m*3 11.1 C 0 km/h
2188 31-08-2010 05:58:04 11.3 C 9.08 g/m*3 11.3 C 0 km/h
2189 31-08-2010 06:10:04 11.4 C 9.14 g/m*3 11.4 C 0 km/h
2190 31-08-2010 06:22:04 11.5 C 9.19 g/m*3 11.5 C 0 km/h
2191 31-08-2010 06:34:04 11.7 C 9.31 g/m*3 11.7 C 0 km/h
2192 31-08-2010 06:46:02 11.9 C 9.32 g/m*3 11.9 C 0 km/h
2193 31-08-2010 06:58:02 12 C 9.17 g/m*3 12 C 0 km/h
2194 31-08-2010 07:10:02 12.1 C 9.12 g/m*3 12.1 C 0 km/h
2195 31-08-2010 07:22:03 12.1 C 9.12 g/m*3 12.1 C 0 km/h
2196 31-08-2010 07:34:02 12.2 C 9.06 g/m*3 12.2 C 0 km/h
2197 31-08-2010 07:46:02 12.2 C 9.06 g/m*3 12.2 C 0 km/h
2198 31-08-2010 07:58:02 12.4 C 9.07 g/m*3 12.4 C 0 km/h
2199 31-08-2010 08:10:02 12.5 C 9.02 g/m*3 12.5 C 0 km/h
2200 31-08-2010 08:22:02 12.5 C 9.02 g/m*3 12.5 C 0 km/h
Sensor: Nr:Datum:Temp:Abs-Feuchte:Windchill:Wind:
Aussen-T/F 2201 31-08-2010 08:34:02 12.6 C 9.07 g/m*3 12.6 C 0 km/h
2202 31-08-2010 08:46:02 12.7 C 9.13 g/m*3 12.7 C 0 km/h
2203 31-08-2010 08:58:02 12.9 C 9.13 g/m*3 12.9 C 0 km/h
2204 31-08-2010 09:10:02 13.2 C 9.07 g/m*3 13.2 C 0 km/h
2205 31-08-2010 09:22:02 13.4 C 8.95 g/m*3 13.4 C 0 km/h
2206 31-08-2010 09:34:02 13.6 C 8.94 g/m*3 13.6 C 0 km/h
2207 31-08-2010 09:46:02 13.7 C 8.76 g/m*3 13.7 C 0 km/h
2208 31-08-2010 09:58:02 14 C 8.56 g/m*3 14 C 0 km/h
2209 31-08-2010 10:10:02 14.1 C 8.5 g/m*3 14.1 C 0 km/h
2210 31-08-2010 10:22:03 14 C 8.2 g/m*3 14 C 0 km/h
2211 31-08-2010 10:34:02 14 C 8.32 g/m*3 14 C 0 km/h
2212 31-08-2010 10:46:03 14.2 C 8.3 g/m*3 14.2 C 0 km/h
2213 31-08-2010 10:58:03 14.4 C 8.41 g/m*3 14.4 C 0 km/h
2214 31-08-2010 11:10:02 14.8 C 8.23 g/m*3 14.8 C 0 km/h
2215 31-08-2010 11:22:02 15.1 C 8.13 g/m*3 15.1 C 0 km/h
2216 31-08-2010 11:34:02 15.6 C 8.11 g/m*3 15.6 C 0 km/h
2217 31-08-2010 11:46:02 16.1 C 8.09 g/m*3 16.1 C 0 km/h
2218 31-08-2010 11:58:02 16.4 C 7.82 g/m*3 16.4 C 0 km/h
2219 31-08-2010 12:10:02 16.8 C 7.86 g/m*3 16.8 C 0 km/h
2220 31-08-2010 12:22:02 16.3 C 7.91 g/m*3 16.3 C 0 km/h
2221 31-08-2010 12:34:01 16.9 C 8.2 g/m*3 16.9 C 0 km/h
2222 31-08-2010 12:46:02 16.7 C 7.82 g/m*3 16.7 C 0 km/h
2223 31-08-2010 12:58:03 17.7 C 7.85 g/m*3 17.7 C 0 km/h
2224 31-08-2010 13:10:01 17.3 C 7.37 g/m*3 17.3 C 0 km/h
2225 31-08-2010 13:22:01 17.5 C 6.86 g/m*3 17.5 C 0 km/h
Sensor: Nr:Datum:Temp:Abs-Feuchte:Windchill:Wind:
Aussen-T/F 2226 31-08-2010 13:34:02 18.2 C 6.84 g/m*3 18.2 C 0 km/h
2227 31-08-2010 13:46:02 18.3 C 7.04 g/m*3 18.3 C 0 km/h
2228 31-08-2010 13:58:02 18.5 C 6.8 g/m*3 18.5 C 0 km/h
2229 31-08-2010 14:10:02 19.2 C 6.76 g/m*3 19.2 C 0 km/h
2230 31-08-2010 14:22:02 19.9 C 6.7 g/m*3 19.9 C 0 km/h
2231 31-08-2010 14:34:02 20.3 C 6.51 g/m*3 20.3 C 0 km/h
2232 31-08-2010 14:46:02 20.8 C 6.34 g/m*3 20.8 C 0 km/h
2233 31-08-2010 14:58:02 20.6 C 5.91 g/m*3 20.6 C 0 km/h
2234 31-08-2010 15:10:02 20.4 C 6.19 g/m*3 20.4 C 0 km/h
2235 31-08-2010 15:22:02 20.1 C 6.26 g/m*3 20.1 C 0 km/h
2236 31-08-2010 15:34:02 21.4 C 5.62 g/m*3 21.4 C 0 km/h
2237 31-08-2010 15:46:02 22 C 5.43 g/m*3 22 C 0 km/h
2238 31-08-2010 15:58:02 22.1 C 5.66 g/m*3 22.1 C 0 km/h
2239 31-08-2010 16:10:02 21.4 C 5.81 g/m*3 21.4 C 0 km/h
2240 31-08-2010 16:22:02 21.1 C 5.9 g/m*3 21.1 C 0 km/h
2241 31-08-2010 16:34:02 22.6 C 5.42 g/m*3 22.6 C 0 km/h
2242 31-08-2010 16:46:02 21.3 C 5.59 g/m*3 21.3 C 0 km/h
2243 31-08-2010 16:58:02 20.9 C 5.46 g/m*3 20.9 C 0 km/h
2244 31-08-2010 17:10:02 22.8 C 5.08 g/m*3 22.8 C 0 km/h
2245 31-08-2010 17:22:03 20.9 C 5.83 g/m*3 20.9 C 0 km/h
2246 31-08-2010 17:34:02 21.8 C 5.56 g/m*3 21.8 C 0 km/h
2247 31-08-2010 17:46:02 21.6 C 5.69 g/m*3 21.6 C 0 km/h
2248 31-08-2010 17:58:02 22 C 5.63 g/m*3 22 C 0 km/h
2249 31-08-2010 18:10:02 22.7 C 5.66 g/m*3 22.7 C 0 km/h
2250 31-08-2010 18:22:02 22.3 C 5.33 g/m*3 22.3 C 0 km/h
Sensor: Nr:Datum:Temp:Abs-Feuchte:Windchill:Wind:
Aussen-T/F 2251 31-08-2010 18:34:02 22.1 C 5.47 g/m*3 22.1 C 0 km/h
2252 31-08-2010 18:46:02 22.1 C 5.86 g/m*3 22.1 C 0 km/h
2253 31-08-2010 18:58:02 22.1 C 6.05 g/m*3 22.1 C 0 km/h
2254 31-08-2010 19:10:01 21.7 C 6.1 g/m*3 21.7 C 0 km/h
2255 31-08-2010 19:22:02 20.5 C 5.69 g/m*3 20.5 C 0 km/h
2256 31-08-2010 19:34:02 20.4 C 6.55 g/m*3 20.4 C 0 km/h
2257 31-08-2010 19:46:02 20 C 6.91 g/m*3 20 C 0 km/h
2258 31-08-2010 19:58:03 19 C 7.33 g/m*3 19 C 0 km/h
2259 31-08-2010 20:10:01 17.9 C 7.18 g/m*3 17.9 C 0 km/h
2260 31-08-2010 20:22:01 16.9 C 7.19 g/m*3 16.9 C 0 km/h
2261 31-08-2010 20:34:02 16.2 C 7.17 g/m*3 16.2 C 0 km/h
2262 31-08-2010 20:46:02 15.7 C 7.09 g/m*3 15.7 C 0 km/h
2263 31-08-2010 20:58:02 15.2 C 7.14 g/m*3 15.2 C 0 km/h
2264 31-08-2010 21:10:02 14.9 C 7.39 g/m*3 14.9 C 0 km/h
2265 31-08-2010 21:22:02 14.7 C 7.43 g/m*3 14.7 C 0 km/h
2266 31-08-2010 21:34:02 14.5 C 7.59 g/m*3 14.5 C 0 km/h
2267 31-08-2010 21:47:09 14.2 C 7.69 g/m*3 14.2 C 0 km/h
2268 31-08-2010 21:59:09 13.9 C 7.91 g/m*3 13.9 C 0 km/h
2269 31-08-2010 22:11:09 13.8 C 8.22 g/m*3 13.8 C 0 km/h
2270 31-08-2010 22:23:09 13.5 C 8.07 g/m*3 13.5 C 0 km/h
2271 31-08-2010 22:35:09 13.2 C 8.04 g/m*3 13.2 C 0 km/h
2272 31-08-2010 22:47:09 13 C 8.05 g/m*3 13 C 0 km/h
2273 31-08-2010 22:59:09 12.7 C 8.13 g/m*3 12.7 C 0 km/h
2274 31-08-2010 23:11:09 12.5 C 8.14 g/m*3 12.5 C 0 km/h
2275 31-08-2010 23:23:09 12.4 C 8.19 g/m*3 12.4 C 0 km/h
Sensor: Nr:Datum:Temp:Abs-Feuchte:Windchill:Wind:
Aussen-T/F 2276 31-08-2010 23:35:09 12.4 C 8.09 g/m*3 12.4 C 0 km/h
2277 31-08-2010 23:47:09 12.2 C 7.99 g/m*3 12.2 C 0 km/h
2278 31-08-2010 23:59:09 12.1 C 8.04 g/m*3 12.1 C 0 km/h
2279 01-09-2010 00:11:09 12 C 8.1 g/m*3 12 C 0 km/h
2280 01-09-2010 00:23:09 11.8 C 8.1 g/m*3 11.8 C 0 km/h
2281 01-09-2010 00:35:09 11.6 C 8.11 g/m*3 11.6 C 0 km/h
2282 01-09-2010 00:47:10 11.3 C 8.06 g/m*3 11.3 C 0 km/h
2283 01-09-2010 00:59:10 11.2 C 8.01 g/m*3 11.2 C 0 km/h
2284 01-09-2010 01:11:10 11.2 C 8.11 g/m*3 11.2 C 0 km/h
2285 01-09-2010 01:23:10 11.1 C 8.06 g/m*3 11.1 C 0 km/h
2286 01-09-2010 01:35:10 11 C 8.11 g/m*3 11 C 0 km/h
2287 01-09-2010 01:47:10 10.9 C 8.16 g/m*3 10.9 C 0 km/h
2288 01-09-2010 01:59:10 10.7 C 8.05 g/m*3 10.7 C 0 km/h
2289 01-09-2010 02:11:10 10.6 C 8 g/m*3 10.6 C 0 km/h
2290 01-09-2010 02:23:10 10.5 C 7.95 g/m*3 10.5 C 0 km/h
2291 01-09-2010 02:35:10 10.4 C 8 g/m*3 10.4 C 0 km/h
2292 01-09-2010 02:47:10 10.2 C 7.9 g/m*3 10.2 C 0 km/h
2293 01-09-2010 02:59:10 10.1 C 7.94 g/m*3 10.1 C 0 km/h
2294 01-09-2010 03:11:10 10 C 7.89 g/m*3 10 C 0 km/h
2295 01-09-2010 03:23:10 9.9 C 8.03 g/m*3 9.9 C 0 km/h
2296 01-09-2010 03:35:10 9.8 C 8.07 g/m*3 9.8 C 0 km/h
2297 01-09-2010 03:47:10 9.6 C 7.97 g/m*3 9.6 C 0 km/h
2298 01-09-2010 03:59:10 9.4 C 7.87 g/m*3 9.4 C 0 km/h
2299 01-09-2010 04:11:10 9.3 C 7.91 g/m*3 9.3 C 0 km/h
2300 01-09-2010 04:23:10 9.2 C 7.86 g/m*3 9.2 C 0 km/h
Sensor: Nr:Datum:Temp:Abs-Feuchte:Windchill:Wind:
Aussen-T/F 2301 01-09-2010 04:35:10 9.1 C 7.81 g/m*3 9.1 C 0 km/h
2302 01-09-2010 04:47:10 9.1 C 7.9 g/m*3 9.1 C 0 km/h
2303 01-09-2010 04:59:11 9 C 7.85 g/m*3 9 C 0 km/h
2304 01-09-2010 05:11:11 8.9 C 7.88 g/m*3 8.9 C 0 km/h
2305 01-09-2010 05:23:11 8.9 C 7.97 g/m*3 8.9 C 0 km/h
2306 01-09-2010 05:35:11 8.9 C 7.97 g/m*3 8.9 C 0 km/h
2307 01-09-2010 05:47:11 8.9 C 7.97 g/m*3 8.9 C 0 km/h
2308 01-09-2010 05:59:11 9 C 7.93 g/m*3 9 C 0 km/h
2309 01-09-2010 06:11:11 9 C 8.02 g/m*3 9 C 0 km/h
2310 01-09-2010 06:23:11 8.9 C 8.06 g/m*3 8.9 C 0 km/h
2311 01-09-2010 06:35:11 8.9 C 8.06 g/m*3 8.9 C 0 km/h
2312 01-09-2010 06:47:11 9 C 8.02 g/m*3 9 C 0 km/h
2313 01-09-2010 06:59:11 8.9 C 8.06 g/m*3 8.9 C 0 km/h
2314 01-09-2010 07:11:03 9.1 C 8.07 g/m*3 9.1 C 0 km/h
2315 01-09-2010 07:23:03 9.1 C 7.99 g/m*3 9.1 C 0 km/h
2316 01-09-2010 07:35:02 9 C 7.93 g/m*3 9 C 0 km/h
2317 01-09-2010 07:47:01 8.9 C 7.97 g/m*3 8.9 C 0 km/h
2318 01-09-2010 07:59:01 9 C 7.93 g/m*3 9 C 0 km/h
2319 01-09-2010 08:11:02 9 C 7.93 g/m*3 9 C 0 km/h
2320 01-09-2010 08:23:02 9.1 C 7.99 g/m*3 9.1 C 0 km/h
2321 01-09-2010 08:35:01 9.2 C 8.04 g/m*3 9.2 C 0 km/h
2322 01-09-2010 08:47:02 9.3 C 8.09 g/m*3 9.3 C 0 km/h
2323 01-09-2010 08:59:02 9.7 C 8.2 g/m*3 9.7 C 0 km/h
2324 01-09-2010 09:11:02 9.8 C 8.16 g/m*3 9.8 C 0 km/h
2325 01-09-2010 09:23:02 10 C 8.08 g/m*3 10 C 0 km/h
Sensor: Nr:Datum:Temp:Abs-Feuchte:Windchill:Wind:
Aussen-T/F 2326 01-09-2010 09:35:02 10.2 C 8.09 g/m*3 10.2 C 0 km/h
2327 01-09-2010 09:47:02 10.5 C 8.15 g/m*3 10.5 C 0 km/h
2328 01-09-2010 09:59:02 10.6 C 8.2 g/m*3 10.6 C 0 km/h
2329 01-09-2010 10:11:02 11.2 C 8.41 g/m*3 11.2 C 0 km/h
2330 01-09-2010 10:23:01 11.7 C 8.58 g/m*3 11.7 C 0 km/h
2331 01-09-2010 10:35:02 12.2 C 8.52 g/m*3 12.2 C 0 km/h
2332 01-09-2010 10:47:01 12.4 C 8.52 g/m*3 12.4 C 0 km/h
2333 01-09-2010 10:59:01 13 C 8.73 g/m*3 13 C 0 km/h
2334 01-09-2010 11:11:02 13.4 C 8.72 g/m*3 13.4 C 0 km/h
2335 01-09-2010 11:23:02 13.7 C 8.64 g/m*3 13.7 C 0 km/h
2336 01-09-2010 11:35:02 14.1 C 8.74 g/m*3 14.1 C 0 km/h
2337 01-09-2010 11:47:02 14.7 C 8.94 g/m*3 14.7 C 0 km/h
2338 01-09-2010 11:59:02 15.4 C 8.8 g/m*3 15.4 C 0 km/h
2339 01-09-2010 12:11:02 16 C 8.72 g/m*3 16 C 0 km/h
2340 01-09-2010 12:23:02 16.9 C 8.63 g/m*3 16.9 C 0 km/h
2341 01-09-2010 12:35:01 17.2 C 8.2 g/m*3 17.2 C 0 km/h
2342 01-09-2010 12:47:02 17.8 C 8.5 g/m*3 17.8 C 0 km/h
2343 01-09-2010 12:59:02 18.3 C 8.6 g/m*3 18.3 C 0 km/h
2344 01-09-2010 13:11:01 18.7 C 8.33 g/m*3 18.7 C 0 km/h
2345 01-09-2010 13:23:01 19.2 C 8.08 g/m*3 19.2 C 0 km/h
2346 01-09-2010 13:35:02 19.7 C 7.81 g/m*3 19.7 C 0 km/h
2347 01-09-2010 13:47:02 19.9 C 7.9 g/m*3 19.9 C 0 km/h
2348 01-09-2010 13:59:02 20.1 C 7.65 g/m*3 20.1 C 0 km/h
2349 01-09-2010 14:11:02 20.9 C 7.47 g/m*3 20.9 C 0 km/h
2350 01-09-2010 14:23:02 20.1 C 6.95 g/m*3 20.1 C 0 km/h
Sensor: Nr:Datum:Temp:Abs-Feuchte:Windchill:Wind:
Aussen-T/F 2351 01-09-2010 14:35:02 21 C 7.33 g/m*3 21 C 0 km/h
2352 01-09-2010 14:47:02 21.7 C 6.87 g/m*3 21.7 C 0 km/h
2353 01-09-2010 14:59:02 22.2 C 6.48 g/m*3 22.2 C 0 km/h
2354 01-09-2010 15:11:03 22.6 C 6.43 g/m*3 22.6 C 0 km/h
2355 01-09-2010 15:23:02 23.2 C 6.03 g/m*3 23.2 C 0 km/h
2356 01-09-2010 15:35:02 23.5 C 5.71 g/m*3 23.5 C 0 km/h
2357 01-09-2010 15:47:01 24.1 C 5.91 g/m*3 24.1 C 0 km/h
2358 01-09-2010 15:59:01 24.6 C 5.85 g/m*3 24.6 C 0 km/h
2359 01-09-2010 16:11:02 23.5 C 5.5 g/m*3 23.5 C 0 km/h
2360 01-09-2010 16:23:01 24 C 5.87 g/m*3 24 C 0 km/h
2361 01-09-2010 16:35:01 23.8 C 6.02 g/m*3 23.8 C 0 km/h
2362 01-09-2010 16:47:01 23.8 C 6.45 g/m*3 23.8 C 0 km/h
2363 01-09-2010 16:59:01 23.9 C 6.27 g/m*3 23.9 C 0 km/h
2364 01-09-2010 17:11:02 23.1 C 6.2 g/m*3 23.1 C 0 km/h
2365 01-09-2010 17:23:01 22.7 C 6.47 g/m*3 22.7 C 0 km/h
2366 01-09-2010 17:35:01 22.1 C 6.05 g/m*3 22.1 C 0 km/h
2367 01-09-2010 17:47:01 21.3 C 6.52 g/m*3 21.3 C 0 km/h
2368 01-09-2010 17:59:01 21 C 6.59 g/m*3 21 C 0 km/h
2369 01-09-2010 18:11:01 20.7 C 7.02 g/m*3 20.7 C 0 km/h
2370 01-09-2010 18:23:02 20.3 C 6.86 g/m*3 20.3 C 0 km/h
2371 01-09-2010 18:35:01 21.6 C 7.02 g/m*3 21.6 C 0 km/h
2372 01-09-2010 18:47:02 22.1 C 6.83 g/m*3 22.1 C 0 km/h
2373 01-09-2010 18:59:02 20.8 C 7.06 g/m*3 20.8 C 0 km/h
2374 01-09-2010 19:11:01 20.7 C 7.38 g/m*3 20.7 C 0 km/h
2375 01-09-2010 19:23:02 20.3 C 7.56 g/m*3 20.3 C 0 km/h
Sensor: Nr:Datum:Temp:Abs-Feuchte:Windchill:Wind:
Aussen-T/F 2376 01-09-2010 19:35:01 19.6 C 7.77 g/m*3 19.6 C 0 km/h
2377 01-09-2010 19:47:02 19.1 C 8.03 g/m*3 19.1 C 0 km/h
2378 01-09-2010 19:59:02 18.4 C 8.49 g/m*3 18.4 C 0 km/h
2379 01-09-2010 20:11:02 18 C 8.45 g/m*3 18 C 0 km/h
2380 01-09-2010 20:23:02 17.6 C 8.7 g/m*3 17.6 C 0 km/h
2381 01-09-2010 20:35:03 17.3 C 8.84 g/m*3 17.3 C 0 km/h
2382 01-09-2010 20:47:02 17.1 C 8.73 g/m*3 17.1 C 0 km/h
2383 01-09-2010 20:59:02 16.8 C 8.86 g/m*3 16.8 C 0 km/h
2384 01-09-2010 21:11:01 16.6 C 8.9 g/m*3 16.6 C 0 km/h
2385 01-09-2010 21:23:02 16.5 C 8.85 g/m*3 16.5 C 0 km/h
2386 01-09-2010 21:35:02 16.3 C 8.88 g/m*3 16.3 C 0 km/h
2387 01-09-2010 21:47:02 16 C 8.72 g/m*3 16 C 0 km/h
2388 01-09-2010 21:59:02 15.8 C 8.88 g/m*3 15.8 C 0 km/h
2389 01-09-2010 22:12:03 15.8 C 8.88 g/m*3 15.8 C 0 km/h
2390 01-09-2010 22:24:03 15.6 C 8.78 g/m*3 15.6 C 0 km/h
2391 01-09-2010 22:36:03 15.5 C 8.86 g/m*3 15.5 C 0 km/h
2392 01-09-2010 22:48:03 15.3 C 8.75 g/m*3 15.3 C 0 km/h
2393 01-09-2010 23:00:03 15 C 8.59 g/m*3 15 C 0 km/h
2394 01-09-2010 23:12:03 14.6 C 8.38 g/m*3 14.6 C 0 km/h
2395 01-09-2010 23:24:03 14.1 C 8.13 g/m*3 14.1 C 0 km/h
2396 01-09-2010 23:36:03 13.6 C 8.12 g/m*3 13.6 C 0 km/h
2397 01-09-2010 23:48:03 13.5 C 8.19 g/m*3 13.5 C 0 km/h
2398 02-09-2010 00:00:04 13.3 C 8.2 g/m*3 13.3 C 0 km/h
2399 02-09-2010 00:12:04 13.1 C 8.1 g/m*3 13.1 C 0 km/h
2400 02-09-2010 00:24:04 13 C 8.17 g/m*3 13 C 0 km/h
Sensor: Nr:Datum:Temp:Abs-Feuchte:Windchill:Wind:
Aussen-T/F 2401 02-09-2010 00:36:04 12.9 C 8.34 g/m*3 12.9 C 0 km/h
2402 02-09-2010 00:48:04 12.8 C 8.29 g/m*3 12.8 C 0 km/h
2403 02-09-2010 01:00:04 12.6 C 8.3 g/m*3 12.6 C 0 km/h
2404 02-09-2010 01:12:04 12.5 C 8.36 g/m*3 12.5 C 0 km/h
2405 02-09-2010 01:24:04 12.3 C 8.36 g/m*3 12.3 C 0 km/h
2406 02-09-2010 01:36:04 12.1 C 8.26 g/m*3 12.1 C 0 km/h
2407 02-09-2010 01:48:04 12.1 C 8.58 g/m*3 12.1 C 0 km/h
2408 02-09-2010 02:00:04 11.9 C 8.58 g/m*3 11.9 C 0 km/h
2409 02-09-2010 02:12:04 11.7 C 8.58 g/m*3 11.7 C 0 km/h
2410 02-09-2010 02:24:04 11.6 C 8.63 g/m*3 11.6 C 0 km/h
2411 02-09-2010 02:36:04 11.5 C 8.57 g/m*3 11.5 C 0 km/h
2412 02-09-2010 02:48:04 11.3 C 8.47 g/m*3 11.3 C 0 km/h
2413 02-09-2010 03:00:04 11.2 C 8.41 g/m*3 11.2 C 0 km/h
2414 02-09-2010 03:12:04 11.1 C 8.36 g/m*3 11.1 C 0 km/h
2415 02-09-2010 03:24:04 11 C 8.31 g/m*3 11 C 0 km/h
2416 02-09-2010 03:36:04 10.9 C 8.26 g/m*3 10.9 C 0 km/h
2417 02-09-2010 03:48:04 10.8 C 8.2 g/m*3 10.8 C 0 km/h
2418 02-09-2010 04:00:04 10.7 C 8.25 g/m*3 10.7 C 0 km/h
2419 02-09-2010 04:12:05 10.5 C 8.24 g/m*3 10.5 C 0 km/h
2420 02-09-2010 04:24:05 10.4 C 8.29 g/m*3 10.4 C 0 km/h
2421 02-09-2010 04:36:05 10.3 C 8.33 g/m*3 10.3 C 0 km/h
2422 02-09-2010 04:48:05 10.3 C 8.33 g/m*3 10.3 C 0 km/h
2423 02-09-2010 05:00:05 10.3 C 8.43 g/m*3 10.3 C 0 km/h
2424 02-09-2010 05:12:05 10.3 C 8.43 g/m*3 10.3 C 0 km/h
2425 02-09-2010 05:24:05 10.3 C 8.52 g/m*3 10.3 C 0 km/h
Sensor: Nr:Datum:Temp:Abs-Feuchte:Windchill:Wind:
Aussen-T/F 2426 02-09-2010 05:36:05 10.3 C 8.52 g/m*3 10.3 C 0 km/h
2427 02-09-2010 05:48:05 10.4 C 8.58 g/m*3 10.4 C 0 km/h
2428 02-09-2010 06:00:05 10.3 C 8.52 g/m*3 10.3 C 0 km/h
2429 02-09-2010 06:12:05 10.3 C 8.52 g/m*3 10.3 C 0 km/h
2430 02-09-2010 06:24:05 10.3 C 8.62 g/m*3 10.3 C 0 km/h
2431 02-09-2010 06:36:03 10.4 C 8.67 g/m*3 10.4 C 0 km/h
2432 02-09-2010 06:48:01 10.4 C 8.67 g/m*3 10.4 C 0 km/h
2433 02-09-2010 07:00:01 10.4 C 8.67 g/m*3 10.4 C 0 km/h
2434 02-09-2010 07:12:02 10.5 C 8.73 g/m*3 10.5 C 0 km/h
2435 02-09-2010 07:24:01 10.7 C 8.84 g/m*3 10.7 C 0 km/h
2436 02-09-2010 07:36:01 10.9 C 8.95 g/m*3 10.9 C 0 km/h
2437 02-09-2010 07:48:01 10.9 C 8.85 g/m*3 10.9 C 0 km/h
2438 02-09-2010 08:00:01 11 C 8.81 g/m*3 11 C 0 km/h
2439 02-09-2010 08:12:02 11.3 C 8.98 g/m*3 11.3 C 0 km/h
2440 02-09-2010 08:24:02 11.3 C 8.98 g/m*3 11.3 C 0 km/h
2441 02-09-2010 08:36:01 11.4 C 8.93 g/m*3 11.4 C 0 km/h
2442 02-09-2010 08:48:02 11.7 C 9.1 g/m*3 11.7 C 0 km/h
2443 02-09-2010 09:00:03 11.7 C 8.99 g/m*3 11.7 C 0 km/h
2444 02-09-2010 09:12:02 12 C 8.95 g/m*3 12 C 0 km/h
2445 02-09-2010 09:24:02 12.5 C 9.13 g/m*3 12.5 C 0 km/h
2446 02-09-2010 09:36:02 12.8 C 9.07 g/m*3 12.8 C 0 km/h
2447 02-09-2010 09:48:01 13 C 8.73 g/m*3 13 C 0 km/h
2448 02-09-2010 10:00:01 13.5 C 8.77 g/m*3 13.5 C 0 km/h
2449 02-09-2010 10:12:02 13.9 C 8.75 g/m*3 13.9 C 0 km/h
2450 02-09-2010 10:24:01 14.1 C 8.62 g/m*3 14.1 C 0 km/h
Sensor: Nr:Datum:Temp:Abs-Feuchte:Windchill:Wind:
Aussen-T/F 2451 02-09-2010 10:36:01 14.3 C 8.6 g/m*3 14.3 C 0 km/h
2452 02-09-2010 10:48:02 14.3 C 8.48 g/m*3 14.3 C 0 km/h
2453 02-09-2010 11:00:02 14.4 C 8.65 g/m*3 14.4 C 0 km/h
2454 02-09-2010 11:12:02 14.8 C 9.12 g/m*3 14.8 C 0 km/h
2455 02-09-2010 11:24:01 15.3 C 9.14 g/m*3 15.3 C 0 km/h
2456 02-09-2010 11:36:02 16 C 8.99 g/m*3 16 C 0 km/h
2457 02-09-2010 11:48:01 16.8 C 9.15 g/m*3 16.8 C 0 km/h
2458 02-09-2010 12:00:01 17.5 C 9.24 g/m*3 17.5 C 0 km/h
2459 02-09-2010 12:12:02 18.1 C 9.12 g/m*3 18.1 C 0 km/h
2460 02-09-2010 12:24:02 18.5 C 8.86 g/m*3 18.5 C 0 km/h
2461 02-09-2010 12:36:01 19.2 C 8.41 g/m*3 19.2 C 0 km/h
2462 02-09-2010 12:48:02 20 C 7.95 g/m*3 20 C 0 km/h
2463 02-09-2010 13:00:02 20.2 C 7.34 g/m*3 20.2 C 0 km/h
2464 02-09-2010 13:12:01 20.1 C 7.3 g/m*3 20.1 C 0 km/h
2465 02-09-2010 13:24:01 21 C 7.51 g/m*3 21 C 0 km/h
2466 02-09-2010 13:36:02 21.6 C 7.21 g/m*3 21.6 C 0 km/h
2467 02-09-2010 13:48:02 21.3 C 7.46 g/m*3 21.3 C 0 km/h
2468 02-09-2010 14:00:02 21.7 C 7.63 g/m*3 21.7 C 0 km/h
2469 02-09-2010 14:12:01 22 C 7.38 g/m*3 22 C 0 km/h
2470 02-09-2010 14:24:02 21.7 C 7.06 g/m*3 21.7 C 0 km/h
2471 02-09-2010 14:36:02 22.9 C 6.95 g/m*3 22.9 C 0 km/h
2472 02-09-2010 14:48:02 22.7 C 7.07 g/m*3 22.7 C 0 km/h
2473 02-09-2010 15:00:02 22.6 C 7.03 g/m*3 22.6 C 0 km/h
2474 02-09-2010 15:12:02 21.8 C 6.72 g/m*3 21.8 C 0 km/h
2475 02-09-2010 15:24:02 20.3 C 6.68 g/m*3 20.3 C 0 km/h
Sensor: Nr:Datum:Temp:Abs-Feuchte:Windchill:Wind:
Aussen-T/F 2476 02-09-2010 15:36:02 20.9 C 7.1 g/m*3 20.9 C 0 km/h
2477 02-09-2010 15:48:02 21.5 C 6.98 g/m*3 21.5 C 0 km/h
2478 02-09-2010 16:00:02 20.9 C 6.74 g/m*3 20.9 C 0 km/h
2479 02-09-2010 16:12:02 20.2 C 6.82 g/m*3 20.2 C 0 km/h
2480 02-09-2010 16:24:02 20.3 C 7.03 g/m*3 20.3 C 0 km/h
2481 02-09-2010 16:36:02 20.8 C 7.24 g/m*3 20.8 C 0 km/h
2482 02-09-2010 16:48:02 20.8 C 6.7 g/m*3 20.8 C 0 km/h
2483 02-09-2010 17:00:02 20 C 6.91 g/m*3 20 C 0 km/h
2484 02-09-2010 17:12:02 19.3 C 7.13 g/m*3 19.3 C 0 km/h
2485 02-09-2010 17:24:02 19.6 C 7.26 g/m*3 19.6 C 0 km/h
2486 02-09-2010 17:36:02 19.6 C 7.26 g/m*3 19.6 C 0 km/h
2487 02-09-2010 17:48:02 19.2 C 7.09 g/m*3 19.2 C 0 km/h
2488 02-09-2010 18:00:02 18.9 C 7.13 g/m*3 18.9 C 0 km/h
2489 02-09-2010 18:12:01 18.7 C 7.36 g/m*3 18.7 C 0 km/h
2490 02-09-2010 18:24:02 18.7 C 7.52 g/m*3 18.7 C 0 km/h
2491 02-09-2010 18:36:02 18.6 C 7.48 g/m*3 18.6 C 0 km/h
2492 02-09-2010 18:48:01 18.4 C 7.55 g/m*3 18.4 C 0 km/h
2493 02-09-2010 19:00:01 18.5 C 8.07 g/m*3 18.5 C 0 km/h
2494 02-09-2010 19:12:02 18.3 C 8.6 g/m*3 18.3 C 0 km/h
2495 02-09-2010 19:24:01 17.8 C 8.95 g/m*3 17.8 C 0 km/h
2496 02-09-2010 19:36:02 17.2 C 9.23 g/m*3 17.2 C 0 km/h
2497 02-09-2010 19:48:02 16.4 C 9.63 g/m*3 16.4 C 0 km/h
2498 02-09-2010 20:00:02 15.8 C 9.96 g/m*3 15.8 C 0 km/h
2499 02-09-2010 20:12:02 15.5 C 9.91 g/m*3 15.5 C 0 km/h
2500 02-09-2010 20:24:02 15 C 9.87 g/m*3 15 C 0 km/h
Sensor: Nr:Datum:Temp:Abs-Feuchte:Windchill:Wind:
Aussen-T/F 2501 02-09-2010 20:36:02 14.7 C 10.07 g/m*3 14.7 C 0 km/h
2502 02-09-2010 20:48:01 14.7 C 10.2 g/m*3 14.7 C 0 km/h
2503 02-09-2010 21:00:01 14.5 C 10.07 g/m*3 14.5 C 0 km/h
2504 02-09-2010 21:12:02 14.4 C 9.89 g/m*3 14.4 C 0 km/h
2505 02-09-2010 21:24:01 14.5 C 9.95 g/m*3 14.5 C 0 km/h
2506 02-09-2010 21:36:02 14.4 C 9.77 g/m*3 14.4 C 0 km/h
2507 02-09-2010 21:49:02 14.3 C 9.58 g/m*3 14.3 C 0 km/h
2508 02-09-2010 22:01:02 14.4 C 9.52 g/m*3 14.4 C 0 km/h
2509 02-09-2010 22:13:02 14 C 9.29 g/m*3 14 C 0 km/h
2510 02-09-2010 22:25:02 13.7 C 9.24 g/m*3 13.7 C 0 km/h
2511 02-09-2010 22:37:02 13.6 C 9.3 g/m*3 13.6 C 0 km/h
2512 02-09-2010 22:49:03 13.5 C 9.36 g/m*3 13.5 C 0 km/h
2513 02-09-2010 23:01:03 13 C 9.07 g/m*3 13 C 0 km/h
2514 02-09-2010 23:13:03 13.2 C 9.3 g/m*3 13.2 C 0 km/h
2515 02-09-2010 23:25:03 13.1 C 9.24 g/m*3 13.1 C 0 km/h
2516 02-09-2010 23:37:03 12.9 C 9.24 g/m*3 12.9 C 0 km/h
2517 02-09-2010 23:49:03 12.7 C 9.13 g/m*3 12.7 C 0 km/h
2518 03-09-2010 00:01:03 12.7 C 9.13 g/m*3 12.7 C 0 km/h
2519 03-09-2010 00:13:03 12.5 C 9.13 g/m*3 12.5 C 0 km/h
2520 03-09-2010 00:25:03 12.4 C 9.07 g/m*3 12.4 C 0 km/h
2521 03-09-2010 00:37:03 12.3 C 9.12 g/m*3 12.3 C 0 km/h
2522 03-09-2010 00:49:03 12.2 C 9.06 g/m*3 12.2 C 0 km/h
2523 03-09-2010 01:01:03 12.1 C 9.01 g/m*3 12.1 C 0 km/h
2524 03-09-2010 01:13:03 11.9 C 8.9 g/m*3 11.9 C 0 km/h
2525 03-09-2010 01:25:03 11.9 C 9 g/m*3 11.9 C 0 km/h
Sensor: Nr:Datum:Temp:Abs-Feuchte:Windchill:Wind:
Aussen-T/F 2526 03-09-2010 01:37:03 11.7 C 8.89 g/m*3 11.7 C 0 km/h
2527 03-09-2010 01:49:03 11.5 C 8.78 g/m*3 11.5 C 0 km/h
2528 03-09-2010 02:01:03 11.5 C 8.88 g/m*3 11.5 C 0 km/h
2529 03-09-2010 02:13:03 11.4 C 8.83 g/m*3 11.4 C 0 km/h
2530 03-09-2010 02:25:03 11.1 C 8.66 g/m*3 11.1 C 0 km/h
2531 03-09-2010 02:37:03 11.1 C 8.66 g/m*3 11.1 C 0 km/h
2532 03-09-2010 02:49:03 11.1 C 8.76 g/m*3 11.1 C 0 km/h
2533 03-09-2010 03:01:04 11 C 8.71 g/m*3 11 C 0 km/h
2534 03-09-2010 03:13:04 10.8 C 8.7 g/m*3 10.8 C 0 km/h
2535 03-09-2010 03:25:04 10.7 C 8.64 g/m*3 10.7 C 0 km/h
2536 03-09-2010 03:37:04 10.6 C 8.59 g/m*3 10.6 C 0 km/h
2537 03-09-2010 03:49:04 10.5 C 8.53 g/m*3 10.5 C 0 km/h
2538 03-09-2010 04:01:04 10.4 C 8.58 g/m*3 10.4 C 0 km/h
2539 03-09-2010 04:13:04 10.4 C 8.58 g/m*3 10.4 C 0 km/h
2540 03-09-2010 04:25:04 10.4 C 8.67 g/m*3 10.4 C 0 km/h
2541 03-09-2010 04:37:04 10.3 C 8.62 g/m*3 10.3 C 0 km/h
2542 03-09-2010 04:49:04 10.2 C 8.56 g/m*3 10.2 C 0 km/h
2543 03-09-2010 05:01:04 10.2 C 8.56 g/m*3 10.2 C 0 km/h
2544 03-09-2010 05:13:04 10.3 C 8.62 g/m*3 10.3 C 0 km/h
2545 03-09-2010 05:25:04 10.4 C 8.77 g/m*3 10.4 C 0 km/h
2546 03-09-2010 05:37:04 10.4 C 8.77 g/m*3 10.4 C 0 km/h
2547 03-09-2010 05:49:04 10.7 C 9.04 g/m*3 10.7 C 0 km/h
2548 03-09-2010 06:01:04 10.9 C 9.15 g/m*3 10.9 C 0 km/h
2549 03-09-2010 06:13:04 11 C 9.21 g/m*3 11 C 0 km/h
2550 03-09-2010 06:25:04 11.1 C 9.27 g/m*3 11.1 C 0 km/h
Sensor: Nr:Datum:Temp:Abs-Feuchte:Windchill:Wind:
Aussen-T/F 2551 03-09-2010 06:37:04 11.1 C 9.27 g/m*3 11.1 C 0 km/h
2552 03-09-2010 06:49:04 11.3 C 9.28 g/m*3 11.3 C 0 km/h
2553 03-09-2010 07:01:02 11.4 C 9.34 g/m*3 11.4 C 0 km/h
2554 03-09-2010 07:13:02 11.2 C 9.22 g/m*3 11.2 C 0 km/h
2555 03-09-2010 07:25:02 11.2 C 9.22 g/m*3 11.2 C 0 km/h
2556 03-09-2010 07:37:03 11.5 C 9.4 g/m*3 11.5 C 0 km/h
2557 03-09-2010 07:49:02 11.5 C 9.4 g/m*3 11.5 C 0 km/h
2558 03-09-2010 08:01:03 11.6 C 9.46 g/m*3 11.6 C 0 km/h
2559 03-09-2010 08:13:03 11.7 C 9.41 g/m*3 11.7 C 0 km/h
2560 03-09-2010 08:25:02 11.7 C 9.41 g/m*3 11.7 C 0 km/h
2561 03-09-2010 08:37:03 11.6 C 9.25 g/m*3 11.6 C 0 km/h
2562 03-09-2010 08:49:02 11.6 C 9.15 g/m*3 11.6 C 0 km/h
2563 03-09-2010 09:01:02 12 C 9.27 g/m*3 12 C 0 km/h
2564 03-09-2010 09:13:02 12.1 C 9.22 g/m*3 12.1 C 0 km/h
2565 03-09-2010 09:25:02 12.3 C 9.23 g/m*3 12.3 C 0 km/h
2566 03-09-2010 09:37:02 12.7 C 9.35 g/m*3 12.7 C 0 km/h
2567 03-09-2010 09:49:02 13.1 C 9.36 g/m*3 13.1 C 0 km/h
2568 03-09-2010 10:01:02 12.9 C 9.13 g/m*3 12.9 C 0 km/h
2569 03-09-2010 10:13:02 12.8 C 9.18 g/m*3 12.8 C 0 km/h
2570 03-09-2010 10:25:02 13.5 C 9.36 g/m*3 13.5 C 0 km/h
2571 03-09-2010 10:37:03 14 C 9.05 g/m*3 14 C 0 km/h
2572 03-09-2010 10:49:02 14.7 C 9.32 g/m*3 14.7 C 0 km/h
2573 03-09-2010 11:01:02 15.3 C 9.14 g/m*3 15.3 C 0 km/h
2574 03-09-2010 11:13:02 15.4 C 8.93 g/m*3 15.4 C 0 km/h
2575 03-09-2010 11:25:02 15.8 C 9.02 g/m*3 15.8 C 0 km/h
Sensor: Nr:Datum:Temp:Abs-Feuchte:Windchill:Wind:
Aussen-T/F 2576 03-09-2010 11:37:02 16.4 C 8.93 g/m*3 16.4 C 0 km/h
2577 03-09-2010 11:49:02 16.6 C 8.62 g/m*3 16.6 C 0 km/h
2578 03-09-2010 12:01:02 17.4 C 8.45 g/m*3 17.4 C 0 km/h
2579 03-09-2010 12:13:02 17.7 C 8.6 g/m*3 17.7 C 0 km/h
2580 03-09-2010 12:25:02 17.8 C 8.35 g/m*3 17.8 C 0 km/h
2581 03-09-2010 12:37:02 18.1 C 8.34 g/m*3 18.1 C 0 km/h
2582 03-09-2010 12:49:01 18.3 C 8.6 g/m*3 18.3 C 0 km/h
2583 03-09-2010 13:01:01 18.8 C 8.37 g/m*3 18.8 C 0 km/h
2584 03-09-2010 13:13:01 19.4 C 8.18 g/m*3 19.4 C 0 km/h
2585 03-09-2010 13:25:01 20.1 C 8.17 g/m*3 20.1 C 0 km/h
2586 03-09-2010 13:37:01 19.9 C 7.9 g/m*3 19.9 C 0 km/h
2587 03-09-2010 13:49:01 20.2 C 8.22 g/m*3 20.2 C 0 km/h
2588 03-09-2010 14:01:01 20 C 7.6 g/m*3 20 C 0 km/h
2589 03-09-2010 14:13:01 20.5 C 7.65 g/m*3 20.5 C 0 km/h
2590 03-09-2010 14:25:01 19.7 C 7.64 g/m*3 19.7 C 0 km/h
2591 03-09-2010 14:37:01 20.4 C 7.96 g/m*3 20.4 C 0 km/h
2592 03-09-2010 14:49:01 21.4 C 7.31 g/m*3 21.4 C 0 km/h
2593 03-09-2010 15:01:02 21.8 C 7.1 g/m*3 21.8 C 0 km/h
2594 03-09-2010 15:13:02 22.7 C 7.27 g/m*3 22.7 C 0 km/h
2595 03-09-2010 15:25:01 23.3 C 6.9 g/m*3 23.3 C 0 km/h
2596 03-09-2010 15:37:01 22.7 C 6.87 g/m*3 22.7 C 0 km/h
2597 03-09-2010 15:49:01 23.4 C 6.94 g/m*3 23.4 C 0 km/h
2598 03-09-2010 16:01:01 24.8 C 6.83 g/m*3 24.8 C 0 km/h
2599 03-09-2010 16:13:01 25.5 C 6.63 g/m*3 25.5 C 0 km/h
2600 03-09-2010 16:25:02 25.7 C 6.46 g/m*3 25.7 C 0 km/h
Sensor: Nr:Datum:Temp:Abs-Feuchte:Windchill:Wind:
Aussen-T/F 2601 03-09-2010 16:37:01 25.7 C 6.46 g/m*3 25.7 C 0 km/h
2602 03-09-2010 16:49:02 23.9 C 6.49 g/m*3 23.9 C 0 km/h
2603 03-09-2010 17:01:01 25.3 C 6.32 g/m*3 25.3 C 0 km/h
2604 03-09-2010 17:13:01 24.8 C 6.6 g/m*3 24.8 C 0 km/h
2605 03-09-2010 17:25:01 23.9 C 6.49 g/m*3 23.9 C 0 km/h
2606 03-09-2010 17:37:01 23.4 C 6.52 g/m*3 23.4 C 0 km/h
2607 03-09-2010 17:49:02 23.2 C 6.65 g/m*3 23.2 C 0 km/h
2608 03-09-2010 18:01:02 23 C 7.6 g/m*3 23 C 0 km/h
2609 03-09-2010 18:13:02 23.1 C 8.06 g/m*3 23.1 C 0 km/h
2610 03-09-2010 18:25:02 23.2 C 8.11 g/m*3 23.2 C 0 km/h
2611 03-09-2010 18:37:02 22.5 C 7.99 g/m*3 22.5 C 0 km/h
2612 03-09-2010 18:49:01 21.7 C 8.77 g/m*3 21.7 C 0 km/h
2613 03-09-2010 19:01:02 21.2 C 8.9 g/m*3 21.2 C 0 km/h
2614 03-09-2010 19:13:02 20.6 C 8.95 g/m*3 20.6 C 0 km/h
2615 03-09-2010 19:25:01 20.6 C 8.77 g/m*3 20.6 C 0 km/h
2616 03-09-2010 19:37:02 20.7 C 8.82 g/m*3 20.7 C 0 km/h
2617 03-09-2010 19:49:02 20.4 C 8.85 g/m*3 20.4 C 0 km/h
2618 03-09-2010 20:01:02 19.7 C 8.66 g/m*3 19.7 C 0 km/h
2619 03-09-2010 20:13:02 19.2 C 8.08 g/m*3 19.2 C 0 km/h
2620 03-09-2010 20:25:01 18.3 C 8.6 g/m*3 18.3 C 0 km/h
2621 03-09-2010 20:37:02 18.1 C 7.88 g/m*3 18.1 C 0 km/h
2622 03-09-2010 20:49:02 17.8 C 8.04 g/m*3 17.8 C 0 km/h
2623 03-09-2010 21:01:02 17 C 8.39 g/m*3 17 C 0 km/h
2624 03-09-2010 21:13:02 16.5 C 8.57 g/m*3 16.5 C 0 km/h
2625 03-09-2010 21:25:02 16.2 C 8.55 g/m*3 16.2 C 0 km/h
Sensor: Nr:Datum:Temp:Abs-Feuchte:Windchill:Wind:
Aussen-T/F 2626 03-09-2010 21:37:02 16.1 C 8.64 g/m*3 16.1 C 0 km/h
2627 03-09-2010 21:49:01 15.8 C 8.62 g/m*3 15.8 C 0 km/h
2628 03-09-2010 22:01:01 15.6 C 8.78 g/m*3 15.6 C 0 km/h
2629 03-09-2010 22:13:01 15.3 C 8.75 g/m*3 15.3 C 0 km/h
2630 03-09-2010 22:25:02 15.2 C 8.7 g/m*3 15.2 C 0 km/h
2631 03-09-2010 22:37:01 15.2 C 8.96 g/m*3 15.2 C 0 km/h
2632 03-09-2010 22:50:03 15.5 C 9.12 g/m*3 15.5 C 0 km/h
2633 03-09-2010 23:02:03 15.5 C 9.25 g/m*3 15.5 C 0 km/h
2634 03-09-2010 23:14:03 15.4 C 9.2 g/m*3 15.4 C 0 km/h
2635 03-09-2010 23:26:03 15.4 C 9.2 g/m*3 15.4 C 0 km/h
2636 03-09-2010 23:38:03 15.2 C 9.22 g/m*3 15.2 C 0 km/h
2637 03-09-2010 23:50:03 15.2 C 9.22 g/m*3 15.2 C 0 km/h
2638 04-09-2010 00:02:03 15.2 C 9.22 g/m*3 15.2 C 0 km/h
2639 04-09-2010 00:14:03 15.1 C 9.29 g/m*3 15.1 C 0 km/h
2640 04-09-2010 00:26:03 15.1 C 9.29 g/m*3 15.1 C 0 km/h
2641 04-09-2010 00:38:03 15.1 C 9.29 g/m*3 15.1 C 0 km/h
2642 04-09-2010 00:50:03 15 C 9.36 g/m*3 15 C 0 km/h
2643 04-09-2010 01:02:03 15 C 9.36 g/m*3 15 C 0 km/h
2644 04-09-2010 01:14:03 15 C 9.36 g/m*3 15 C 0 km/h
2645 04-09-2010 01:26:04 14.7 C 9.44 g/m*3 14.7 C 0 km/h
2646 04-09-2010 01:38:04 14.7 C 9.44 g/m*3 14.7 C 0 km/h
2647 04-09-2010 01:50:04 14.7 C 9.44 g/m*3 14.7 C 0 km/h
2648 04-09-2010 02:02:04 14.5 C 9.45 g/m*3 14.5 C 0 km/h
2649 04-09-2010 02:14:04 14.4 C 9.39 g/m*3 14.4 C 0 km/h
2650 04-09-2010 02:26:04 14.2 C 9.4 g/m*3 14.2 C 0 km/h
Sensor: Nr:Datum:Temp:Abs-Feuchte:Windchill:Wind:
Aussen-T/F 2651 04-09-2010 02:38:04 14.2 C 9.4 g/m*3 14.2 C 0 km/h
2652 04-09-2010 02:50:04 14.1 C 9.34 g/m*3 14.1 C 0 km/h
2653 04-09-2010 03:02:04 14 C 9.29 g/m*3 14 C 0 km/h
2654 04-09-2010 03:14:04 13.7 C 9.35 g/m*3 13.7 C 0 km/h
2655 04-09-2010 03:26:04 13.7 C 9.35 g/m*3 13.7 C 0 km/h
2656 04-09-2010 03:38:04 13.6 C 9.53 g/m*3 13.6 C 0 km/h
2657 04-09-2010 03:50:04 13.6 C 9.53 g/m*3 13.6 C 0 km/h
2658 04-09-2010 04:02:04 13.4 C 9.42 g/m*3 13.4 C 0 km/h
2659 04-09-2010 04:14:04 13.3 C 9.47 g/m*3 13.3 C 0 km/h
2660 04-09-2010 04:26:04 13.1 C 9.36 g/m*3 13.1 C 0 km/h
2661 04-09-2010 04:38:04 13.2 C 9.64 g/m*3 13.2 C 0 km/h
2662 04-09-2010 04:50:04 13 C 9.53 g/m*3 13 C 0 km/h
2663 04-09-2010 05:02:04 13.1 C 9.59 g/m*3 13.1 C 0 km/h
2664 04-09-2010 05:14:04 13.2 C 9.64 g/m*3 13.2 C 0 km/h
2665 04-09-2010 05:26:04 13.2 C 9.64 g/m*3 13.2 C 0 km/h
2666 04-09-2010 05:38:05 13.1 C 9.59 g/m*3 13.1 C 0 km/h
2667 04-09-2010 05:50:05 12.9 C 9.47 g/m*3 12.9 C 0 km/h
2668 04-09-2010 06:02:05 12.9 C 9.47 g/m*3 12.9 C 0 km/h
2669 04-09-2010 06:14:05 12.7 C 9.35 g/m*3 12.7 C 0 km/h
2670 04-09-2010 06:26:05 12.5 C 9.24 g/m*3 12.5 C 0 km/h
2671 04-09-2010 06:38:05 12.4 C 9.29 g/m*3 12.4 C 0 km/h
2672 04-09-2010 06:50:05 12.2 C 9.17 g/m*3 12.2 C 0 km/h
2673 04-09-2010 07:02:05 12 C 9.17 g/m*3 12 C 0 km/h
2674 04-09-2010 07:14:05 12 C 9.17 g/m*3 12 C 0 km/h
2675 04-09-2010 07:26:05 12 C 9.17 g/m*3 12 C 0 km/h
Sensor: Nr:Datum:Temp:Abs-Feuchte:Windchill:Wind:
Aussen-T/F 2676 04-09-2010 07:38:05 12.2 C 9.39 g/m*3 12.2 C 0 km/h
2677 04-09-2010 07:50:02 12.2 C 9.39 g/m*3 12.2 C 0 km/h
2678 04-09-2010 08:02:02 12.5 C 9.68 g/m*3 12.5 C 0 km/h
2679 04-09-2010 08:14:02 12.7 C 9.8 g/m*3 12.7 C 0 km/h
2680 04-09-2010 08:26:03 12.7 C 9.68 g/m*3 12.7 C 0 km/h
2681 04-09-2010 08:38:02 12.9 C 9.81 g/m*3 12.9 C 0 km/h
2682 04-09-2010 08:50:02 13.2 C 9.87 g/m*3 13.2 C 0 km/h
2683 04-09-2010 09:02:02 13.7 C 10.07 g/m*3 13.7 C 0 km/h
2684 04-09-2010 09:14:02 14.3 C 10.2 g/m*3 14.3 C 0 km/h
2685 04-09-2010 09:26:02 14.6 C 10.01 g/m*3 14.6 C 0 km/h
2686 04-09-2010 09:38:02 14.7 C 9.82 g/m*3 14.7 C 0 km/h
2687 04-09-2010 09:50:02 14.9 C 9.69 g/m*3 14.9 C 0 km/h
2688 04-09-2010 10:02:02 15.2 C 9.61 g/m*3 15.2 C 0 km/h
2689 04-09-2010 10:14:02 15.6 C 9.58 g/m*3 15.6 C 0 km/h
2690 04-09-2010 10:26:02 15.9 C 9.62 g/m*3 15.9 C 0 km/h
2691 04-09-2010 10:38:02 17 C 9.41 g/m*3 17 C 0 km/h
2692 04-09-2010 10:50:02 17.8 C 9.11 g/m*3 17.8 C 0 km/h
2693 04-09-2010 11:02:02 17.8 C 9.11 g/m*3 17.8 C 0 km/h
2694 04-09-2010 11:14:02 18.1 C 8.96 g/m*3 18.1 C 0 km/h
2695 04-09-2010 11:26:03 18.9 C 8.75 g/m*3 18.9 C 0 km/h
2696 04-09-2010 11:38:02 19.6 C 8.61 g/m*3 19.6 C 0 km/h
2697 04-09-2010 11:50:02 20 C 8.3 g/m*3 20 C 0 km/h
2698 04-09-2010 12:02:02 18.3 C 8.13 g/m*3 18.3 C 0 km/h
2699 04-09-2010 12:14:02 19.7 C 8.49 g/m*3 19.7 C 0 km/h
2700 04-09-2010 12:26:02 19 C 7.33 g/m*3 19 C 0 km/h
Sensor: Nr:Datum:Temp:Abs-Feuchte:Windchill:Wind:
Aussen-T/F 2701 04-09-2010 12:38:02 18.5 C 7.59 g/m*3 18.5 C 0 km/h
2702 04-09-2010 12:50:02 18.8 C 7.89 g/m*3 18.8 C 0 km/h
2703 04-09-2010 13:02:02 19.2 C 7.42 g/m*3 19.2 C 0 km/h
2704 04-09-2010 13:14:02 19.9 C 7.9 g/m*3 19.9 C 0 km/h
2705 04-09-2010 13:26:02 19.9 C 7.56 g/m*3 19.9 C 0 km/h
2706 04-09-2010 13:38:01 18.8 C 7.73 g/m*3 18.8 C 0 km/h
2707 04-09-2010 13:50:02 20.1 C 7.47 g/m*3 20.1 C 0 km/h
2708 04-09-2010 14:02:01 21.5 C 6.98 g/m*3 21.5 C 0 km/h
2709 04-09-2010 14:14:01 22 C 6.79 g/m*3 22 C 0 km/h
2710 04-09-2010 14:26:02 22.2 C 6.68 g/m*3 22.2 C 0 km/h
2711 04-09-2010 14:38:02 22.1 C 6.83 g/m*3 22.1 C 0 km/h
2712 04-09-2010 14:50:02 23.2 C 6.24 g/m*3 23.2 C 0 km/h
2713 04-09-2010 15:02:02 23.4 C 6.1 g/m*3 23.4 C 0 km/h
2714 04-09-2010 15:14:02 24.3 C 6.64 g/m*3 24.3 C 0 km/h
2715 04-09-2010 15:26:02 24.1 C 5.91 g/m*3 24.1 C 0 km/h
2716 04-09-2010 15:38:02 21.8 C 6.14 g/m*3 21.8 C 0 km/h
2717 04-09-2010 15:50:01 20.8 C 6.52 g/m*3 20.8 C 0 km/h
2718 04-09-2010 16:02:02 22.8 C 5.69 g/m*3 22.8 C 0 km/h
2719 04-09-2010 16:14:02 24.7 C 5.21 g/m*3 24.7 C 0 km/h
2720 04-09-2010 16:26:01 22.2 C 5.5 g/m*3 22.2 C 0 km/h
2721 04-09-2010 16:38:01 21.3 C 5.59 g/m*3 21.3 C 0 km/h
2722 04-09-2010 16:50:01 21.1 C 5.53 g/m*3 21.1 C 0 km/h
2723 04-09-2010 17:02:02 22.4 C 5.76 g/m*3 22.4 C 0 km/h
2724 04-09-2010 17:14:02 23.3 C 5.23 g/m*3 23.3 C 0 km/h
2725 04-09-2010 17:26:01 23.5 C 5.08 g/m*3 23.5 C 0 km/h
Sensor: Nr:Datum:Temp:Abs-Feuchte:Windchill:Wind:
Aussen-T/F 2726 04-09-2010 17:38:01 22.9 C 4.09 g/m*3 22.9 C 0 km/h
2727 04-09-2010 17:50:01 23.5 C 4.23 g/m*3 23.5 C 0 km/h
2728 04-09-2010 18:02:01 22.9 C 4.29 g/m*3 22.9 C 0 km/h
2729 04-09-2010 18:14:01 23.2 C 4.57 g/m*3 23.2 C 0 km/h
2730 04-09-2010 18:26:02 23.1 C 4.13 g/m*3 23.1 C 0 km/h
2731 04-09-2010 18:38:01 22.9 C 4.29 g/m*3 22.9 C 0 km/h
2732 04-09-2010 18:50:02 21.6 C 4.55 g/m*3 21.6 C 0 km/h
2733 04-09-2010 19:02:01 21.2 C 5.19 g/m*3 21.2 C 0 km/h
2734 04-09-2010 19:14:01 20.7 C 5.04 g/m*3 20.7 C 0 km/h
2735 04-09-2010 19:26:02 19.4 C 5.34 g/m*3 19.4 C 0 km/h
2736 04-09-2010 19:38:01 19 C 5.7 g/m*3 19 C 0 km/h
2737 04-09-2010 19:50:03 18.4 C 6.29 g/m*3 18.4 C 0 km/h
2738 04-09-2010 20:02:02 17.5 C 6.41 g/m*3 17.5 C 0 km/h
2739 04-09-2010 20:14:02 16.6 C 6.36 g/m*3 16.6 C 0 km/h
2740 04-09-2010 20:26:03 15.9 C 6.5 g/m*3 15.9 C 0 km/h
2741 04-09-2010 20:38:02 15.5 C 6.61 g/m*3 15.5 C 0 km/h
2742 04-09-2010 20:50:02 15.2 C 6.75 g/m*3 15.2 C 0 km/h
2743 04-09-2010 21:02:02 15.2 C 6.88 g/m*3 15.2 C 0 km/h
2744 04-09-2010 21:14:02 14.8 C 6.84 g/m*3 14.8 C 0 km/h
2745 04-09-2010 21:26:02 14.8 C 6.97 g/m*3 14.8 C 0 km/h
2746 04-09-2010 21:38:01 15 C 6.92 g/m*3 15 C 0 km/h
2747 04-09-2010 21:50:02 14.8 C 7.09 g/m*3 14.8 C 0 km/h
2748 04-09-2010 22:02:02 14.8 C 7.22 g/m*3 14.8 C 0 km/h
2749 04-09-2010 22:14:03 14.4 C 7.17 g/m*3 14.4 C 0 km/h
2750 04-09-2010 22:26:01 14.1 C 7.28 g/m*3 14.1 C 0 km/h
Sensor: Nr:Datum:Temp:Abs-Feuchte:Windchill:Wind:
Aussen-T/F 2751 04-09-2010 22:38:02 14 C 7.36 g/m*3 14 C 0 km/h
2752 04-09-2010 22:50:02 13.5 C 7.25 g/m*3 13.5 C 0 km/h
2753 04-09-2010 23:03:03 13.5 C 7.49 g/m*3 13.5 C 0 km/h
2754 04-09-2010 23:15:03 13.2 C 7.46 g/m*3 13.2 C 0 km/h
2755 04-09-2010 23:27:03 13.1 C 7.53 g/m*3 13.1 C 0 km/h
2756 04-09-2010 23:39:03 13 C 7.71 g/m*3 13 C 0 km/h
2757 04-09-2010 23:51:03 12.8 C 7.73 g/m*3 12.8 C 0 km/h
2758 05-09-2010 00:03:03 12.7 C 7.68 g/m*3 12.7 C 0 km/h
2759 05-09-2010 00:15:03 12.3 C 7.49 g/m*3 12.3 C 0 km/h
2760 05-09-2010 00:27:03 12.1 C 7.61 g/m*3 12.1 C 0 km/h
2761 05-09-2010 00:39:03 11.9 C 7.63 g/m*3 11.9 C 0 km/h
2762 05-09-2010 00:51:03 11.8 C 7.68 g/m*3 11.8 C 0 km/h
2763 05-09-2010 01:03:03 11.6 C 7.59 g/m*3 11.6 C 0 km/h
2764 05-09-2010 01:15:03 11.4 C 7.49 g/m*3 11.4 C 0 km/h
2765 05-09-2010 01:27:03 11.2 C 7.6 g/m*3 11.2 C 0 km/h
2766 05-09-2010 01:39:03 11 C 7.51 g/m*3 11 C 0 km/h
2767 05-09-2010 01:51:03 10.9 C 7.46 g/m*3 10.9 C 0 km/h
2768 05-09-2010 02:03:03 10.8 C 7.61 g/m*3 10.8 C 0 km/h
2769 05-09-2010 02:15:03 10.6 C 7.52 g/m*3 10.6 C 0 km/h
2770 05-09-2010 02:27:04 10.4 C 7.52 g/m*3 10.4 C 0 km/h
2771 05-09-2010 02:39:04 10.3 C 7.47 g/m*3 10.3 C 0 km/h
2772 05-09-2010 02:51:04 10.1 C 7.47 g/m*3 10.1 C 0 km/h
2773 05-09-2010 03:03:04 10 C 7.33 g/m*3 10 C 0 km/h
2774 05-09-2010 03:15:04 9.8 C 7.42 g/m*3 9.8 C 0 km/h
2775 05-09-2010 03:27:04 9.7 C 7.47 g/m*3 9.7 C 0 km/h
Sensor: Nr:Datum:Temp:Abs-Feuchte:Windchill:Wind:
Aussen-T/F 2776 05-09-2010 03:39:04 9.6 C 7.42 g/m*3 9.6 C 0 km/h
2777 05-09-2010 03:51:04 9.5 C 7.37 g/m*3 9.5 C 0 km/h
2778 05-09-2010 04:03:04 9.2 C 7.23 g/m*3 9.2 C 0 km/h
2779 05-09-2010 04:15:04 9.2 C 7.23 g/m*3 9.2 C 0 km/h
2780 05-09-2010 04:27:04 9.2 C 7.32 g/m*3 9.2 C 0 km/h
2781 05-09-2010 04:39:04 9.1 C 7.28 g/m*3 9.1 C 0 km/h
2782 05-09-2010 04:51:04 8.9 C 7.27 g/m*3 8.9 C 0 km/h
2783 05-09-2010 05:03:04 8.9 C 7.27 g/m*3 8.9 C 0 km/h
2784 05-09-2010 05:15:04 8.8 C 7.31 g/m*3 8.8 C 0 km/h
2785 05-09-2010 05:27:04 8.5 C 7.17 g/m*3 8.5 C 0 km/h
2786 05-09-2010 05:39:04 8.5 C 7.26 g/m*3 8.5 C 0 km/h
2787 05-09-2010 05:51:04 8.5 C 7.34 g/m*3 8.5 C 0 km/h
2788 05-09-2010 06:03:04 8.3 C 7.33 g/m*3 8.3 C 0 km/h
2789 05-09-2010 06:15:04 8.1 C 7.24 g/m*3 8.1 C 0 km/h
2790 05-09-2010 06:27:04 8.1 C 7.24 g/m*3 8.1 C 0 km/h
2791 05-09-2010 06:39:04 8 C 7.19 g/m*3 8 C 0 km/h
2792 05-09-2010 06:51:05 7.9 C 7.23 g/m*3 7.9 C 0 km/h
2793 05-09-2010 07:03:05 7.9 C 7.23 g/m*3 7.9 C 0 km/h
2794 05-09-2010 07:15:05 8.2 C 7.37 g/m*3 8.2 C 0 km/h
2795 05-09-2010 07:27:05 8.5 C 7.6 g/m*3 8.5 C 0 km/h
2796 05-09-2010 07:39:02 8.6 C 7.65 g/m*3 8.6 C 0 km/h
2797 05-09-2010 07:51:02 8.8 C 7.75 g/m*3 8.8 C 0 km/h
2798 05-09-2010 08:03:02 9.2 C 7.86 g/m*3 9.2 C 0 km/h
2799 05-09-2010 08:15:01 9.5 C 7.92 g/m*3 9.5 C 0 km/h
2800 05-09-2010 08:27:01 9.9 C 8.03 g/m*3 9.9 C 0 km/h
Sensor: Nr:Datum:Temp:Abs-Feuchte:Windchill:Wind:
Aussen-T/F 2801 05-09-2010 08:39:02 10 C 7.8 g/m*3 10 C 0 km/h
2802 05-09-2010 08:51:01 10.5 C 7.95 g/m*3 10.5 C 0 km/h
2803 05-09-2010 09:03:01 10.7 C 7.96 g/m*3 10.7 C 0 km/h
2804 05-09-2010 09:15:01 11.1 C 7.86 g/m*3 11.1 C 0 km/h
2805 05-09-2010 09:27:01 11.2 C 7.8 g/m*3 11.2 C 0 km/h
2806 05-09-2010 09:39:01 11.3 C 7.85 g/m*3 11.3 C 0 km/h
2807 05-09-2010 09:51:01 11.2 C 7.91 g/m*3 11.2 C 0 km/h
2808 05-09-2010 10:03:02 11.2 C 8.01 g/m*3 11.2 C 0 km/h
2809 05-09-2010 10:15:01 11.8 C 8.42 g/m*3 11.8 C 0 km/h
2810 05-09-2010 10:27:01 12.3 C 8.47 g/m*3 12.3 C 0 km/h
2811 05-09-2010 10:39:01 12.9 C 8.68 g/m*3 12.9 C 0 km/h
2812 05-09-2010 10:51:02 13.6 C 8.59 g/m*3 13.6 C 0 km/h
2813 05-09-2010 11:03:02 14.3 C 8.48 g/m*3 14.3 C 0 km/h
2814 05-09-2010 11:15:01 15.1 C 8.51 g/m*3 15.1 C 0 km/h
2815 05-09-2010 11:27:01 15.4 C 8.41 g/m*3 15.4 C 0 km/h
2816 05-09-2010 11:39:02 15.9 C 8.13 g/m*3 15.9 C 0 km/h
2817 05-09-2010 11:51:02 16.4 C 7.12 g/m*3 16.4 C 0 km/h
2818 05-09-2010 12:03:02 17.2 C 7.18 g/m*3 17.2 C 0 km/h
2819 05-09-2010 12:15:02 17.6 C 6.6 g/m*3 17.6 C 0 km/h
2820 05-09-2010 12:27:02 18.2 C 6.53 g/m*3 18.2 C 0 km/h
2821 05-09-2010 12:39:02 18.5 C 6.33 g/m*3 18.5 C 0 km/h
2822 05-09-2010 12:51:01 18.6 C 5.89 g/m*3 18.6 C 0 km/h
2823 05-09-2010 13:03:02 19.3 C 6.47 g/m*3 19.3 C 0 km/h
2824 05-09-2010 13:15:02 19.4 C 6.01 g/m*3 19.4 C 0 km/h
2825 05-09-2010 13:27:02 20 C 5.88 g/m*3 20 C 0 km/h
Sensor: Nr:Datum:Temp:Abs-Feuchte:Windchill:Wind:
Aussen-T/F 2826 05-09-2010 13:39:01 20.6 C 5.55 g/m*3 20.6 C 0 km/h
2827 05-09-2010 13:51:01 21.4 C 5.62 g/m*3 21.4 C 0 km/h
2828 05-09-2010 14:03:01 22.3 C 5.53 g/m*3 22.3 C 0 km/h
2829 05-09-2010 14:15:02 22.9 C 5.31 g/m*3 22.9 C 0 km/h
2830 05-09-2010 14:27:02 23.3 C 5.02 g/m*3 23.3 C 0 km/h
2831 05-09-2010 14:39:01 24.2 C 5.06 g/m*3 24.2 C 0 km/h
2832 05-09-2010 14:51:03 24.8 C 5.01 g/m*3 24.8 C 0 km/h
2833 05-09-2010 15:03:02 24.8 C 5.46 g/m*3 24.8 C 0 km/h
2834 05-09-2010 15:15:02 23.7 C 4.92 g/m*3 23.7 C 0 km/h
2835 05-09-2010 15:27:02 24 C 4.79 g/m*3 24 C 0 km/h
2836 05-09-2010 15:39:02 24.4 C 4.45 g/m*3 24.4 C 0 km/h
2837 05-09-2010 15:51:02 23.9 C 4.54 g/m*3 23.9 C 0 km/h
2838 05-09-2010 16:03:01 24.1 C 4.38 g/m*3 24.1 C 0 km/h
2839 05-09-2010 16:15:02 24.4 C 4.67 g/m*3 24.4 C 0 km/h
2840 05-09-2010 16:27:02 25 C 4.83 g/m*3 25 C 0 km/h
2841 05-09-2010 16:39:02 25 C 4.83 g/m*3 25 C 0 km/h
2842 05-09-2010 16:51:01 23.5 C 4.65 g/m*3 23.5 C 0 km/h
2843 05-09-2010 17:03:02 24.7 C 4.75 g/m*3 24.7 C 0 km/h
2844 05-09-2010 17:15:01 24.7 C 5.21 g/m*3 24.7 C 0 km/h
2845 05-09-2010 17:27:01 24 C 5.44 g/m*3 24 C 0 km/h
2846 05-09-2010 17:39:02 24.6 C 5.18 g/m*3 24.6 C 0 km/h
2847 05-09-2010 17:51:01 25 C 4.6 g/m*3 25 C 0 km/h
2848 05-09-2010 18:03:02 25.7 C 5.51 g/m*3 25.7 C 0 km/h
2849 05-09-2010 18:15:01 26 C 4.87 g/m*3 26 C 0 km/h
2850 05-09-2010 18:27:01 25.4 C 4.71 g/m*3 25.4 C 0 km/h
Sensor: Nr:Datum:Temp:Abs-Feuchte:Windchill:Wind:
Aussen-T/F 2851 05-09-2010 18:39:02 24.1 C 5.03 g/m*3 24.1 C 0 km/h
2852 05-09-2010 18:51:01 23 C 6.17 g/m*3 23 C 0 km/h
2853 05-09-2010 19:03:02 21.9 C 6.37 g/m*3 21.9 C 0 km/h
2854 05-09-2010 19:15:02 20.1 C 6.26 g/m*3 20.1 C 0 km/h
2855 05-09-2010 19:27:02 19.2 C 6.43 g/m*3 19.2 C 0 km/h
2856 05-09-2010 19:39:02 18.2 C 6.37 g/m*3 18.2 C 0 km/h
2857 05-09-2010 19:51:02 17.5 C 6.41 g/m*3 17.5 C 0 km/h
2858 05-09-2010 20:03:01 17 C 6.37 g/m*3 17 C 0 km/h
2859 05-09-2010 20:15:02 16.6 C 6.36 g/m*3 16.6 C 0 km/h
2860 05-09-2010 20:27:03 16.6 C 6.36 g/m*3 16.6 C 0 km/h
2861 05-09-2010 20:39:01 16.2 C 6.34 g/m*3 16.2 C 0 km/h
2862 05-09-2010 20:51:02 15.8 C 6.46 g/m*3 15.8 C 0 km/h
2863 05-09-2010 21:03:01 15.3 C 6.66 g/m*3 15.3 C 0 km/h
2864 05-09-2010 21:15:01 15.1 C 6.71 g/m*3 15.1 C 0 km/h
2865 05-09-2010 21:27:01 14.9 C 6.75 g/m*3 14.9 C 0 km/h
2866 05-09-2010 21:39:02 14.7 C 6.92 g/m*3 14.7 C 0 km/h
2867 05-09-2010 21:51:02 14.5 C 6.96 g/m*3 14.5 C 0 km/h
2868 05-09-2010 22:03:02 14.4 C 7.05 g/m*3 14.4 C 0 km/h
2869 05-09-2010 22:15:02 14.2 C 7.08 g/m*3 14.2 C 0 km/h
2870 05-09-2010 22:27:02 14 C 7.12 g/m*3 14 C 0 km/h
2871 05-09-2010 22:40:03 14 C 7.12 g/m*3 14 C 0 km/h
2872 05-09-2010 22:52:03 14 C 7.12 g/m*3 14 C 0 km/h
2873 05-09-2010 23:04:03 14 C 7 g/m*3 14 C 0 km/h
2874 05-09-2010 23:16:03 14.1 C 6.92 g/m*3 14.1 C 0 km/h
2875 05-09-2010 23:28:03 14.1 C 6.92 g/m*3 14.1 C 0 km/h
Sensor: Nr:Datum:Temp:Abs-Feuchte:Windchill:Wind:
Aussen-T/F 2876 05-09-2010 23:40:03 13.7 C 6.87 g/m*3 13.7 C 0 km/h
2877 05-09-2010 23:52:03 13.8 C 6.91 g/m*3 13.8 C 0 km/h
2878 06-09-2010 00:04:03 13.6 C 7.06 g/m*3 13.6 C 0 km/h
2879 06-09-2010 00:16:03 13.4 C 7.09 g/m*3 13.4 C 0 km/h
2880 06-09-2010 00:28:03 13.2 C 7.12 g/m*3 13.2 C 0 km/h
2881 06-09-2010 00:40:03 13.1 C 7.07 g/m*3 13.1 C 0 km/h
2882 06-09-2010 00:52:03 12.8 C 7.06 g/m*3 12.8 C 0 km/h
2883 06-09-2010 01:04:03 12.7 C 7.12 g/m*3 12.7 C 0 km/h
2884 06-09-2010 01:16:03 12.5 C 7.15 g/m*3 12.5 C 0 km/h
2885 06-09-2010 01:28:03 12.3 C 7.06 g/m*3 12.3 C 0 km/h
2886 06-09-2010 01:40:03 12.2 C 7.12 g/m*3 12.2 C 0 km/h
2887 06-09-2010 01:52:03 12.1 C 7.08 g/m*3 12.1 C 0 km/h
2888 06-09-2010 02:04:03 12 C 7.14 g/m*3 12 C 0 km/h
2889 06-09-2010 02:16:04 11.8 C 7.26 g/m*3 11.8 C 0 km/h
2890 06-09-2010 02:28:04 11.6 C 7.17 g/m*3 11.6 C 0 km/h
2891 06-09-2010 02:40:04 11.5 C 7.23 g/m*3 11.5 C 0 km/h
2892 06-09-2010 02:52:04 11.2 C 7.2 g/m*3 11.2 C 0 km/h
2893 06-09-2010 03:04:04 11.2 C 7.2 g/m*3 11.2 C 0 km/h
2894 06-09-2010 03:16:04 11.2 C 7.2 g/m*3 11.2 C 0 km/h
2895 06-09-2010 03:28:04 11.1 C 7.15 g/m*3 11.1 C 0 km/h
2896 06-09-2010 03:40:04 11 C 7.11 g/m*3 11 C 0 km/h
2897 06-09-2010 03:52:04 11 C 7.11 g/m*3 11 C 0 km/h
2898 06-09-2010 04:04:04 11 C 7.11 g/m*3 11 C 0 km/h
2899 06-09-2010 04:16:04 10.8 C 7.12 g/m*3 10.8 C 0 km/h
2900 06-09-2010 04:28:04 10.7 C 7.07 g/m*3 10.7 C 0 km/h
Sensor: Nr:Datum:Temp:Abs-Feuchte:Windchill:Wind:
Aussen-T/F 2901 06-09-2010 04:40:04 10.6 C 7.12 g/m*3 10.6 C 0 km/h
2902 06-09-2010 04:52:04 10.4 C 7.04 g/m*3 10.4 C 0 km/h
2903 06-09-2010 05:04:04 10.3 C 7.09 g/m*3 10.3 C 0 km/h
2904 06-09-2010 05:16:04 10.4 C 7.13 g/m*3 10.4 C 0 km/h
2905 06-09-2010 05:28:04 10.2 C 6.95 g/m*3 10.2 C 0 km/h
2906 06-09-2010 05:40:04 10.2 C 6.95 g/m*3 10.2 C 0 km/h
2907 06-09-2010 05:52:04 10.1 C 7 g/m*3 10.1 C 0 km/h
2908 06-09-2010 06:04:04 9.8 C 6.96 g/m*3 9.8 C 0 km/h
2909 06-09-2010 06:16:04 9.7 C 7.01 g/m*3 9.7 C 0 km/h
2910 06-09-2010 06:28:04 9.5 C 7.01 g/m*3 9.5 C 0 km/h
2911 06-09-2010 06:40:05 9.5 C 7.01 g/m*3 9.5 C 0 km/h
2912 06-09-2010 06:52:05 9.3 C 7.01 g/m*3 9.3 C 0 km/h
2913 06-09-2010 07:04:05 9.2 C 6.97 g/m*3 9.2 C 0 km/h
2914 06-09-2010 07:16:03 9.3 C 7.1 g/m*3 9.3 C 0 km/h
2915 06-09-2010 07:28:03 9.3 C 7.1 g/m*3 9.3 C 0 km/h
2916 06-09-2010 07:40:03 9.3 C 7.1 g/m*3 9.3 C 0 km/h
2917 06-09-2010 07:52:01 9.3 C 7.1 g/m*3 9.3 C 0 km/h
2918 06-09-2010 08:04:02 9.4 C 7.15 g/m*3 9.4 C 0 km/h
2919 06-09-2010 08:16:01 9.6 C 7.24 g/m*3 9.6 C 0 km/h
2920 06-09-2010 08:28:01 9.6 C 7.24 g/m*3 9.6 C 0 km/h
2921 06-09-2010 08:40:02 9.8 C 7.24 g/m*3 9.8 C 0 km/h
2922 06-09-2010 08:52:02 10 C 7.24 g/m*3 10 C 0 km/h
2923 06-09-2010 09:04:02 10.2 C 7.33 g/m*3 10.2 C 0 km/h
2924 06-09-2010 09:16:01 10.5 C 7.47 g/m*3 10.5 C 0 km/h
2925 06-09-2010 09:28:01 10.8 C 7.51 g/m*3 10.8 C 0 km/h
Sensor: Nr:Datum:Temp:Abs-Feuchte:Windchill:Wind:
Aussen-T/F 2926 06-09-2010 09:40:02 11.3 C 7.55 g/m*3 11.3 C 0 km/h
2927 06-09-2010 09:52:02 11.9 C 7.73 g/m*3 11.9 C 0 km/h
2928 06-09-2010 10:04:02 12.5 C 7.59 g/m*3 12.5 C 0 km/h
2929 06-09-2010 10:16:02 13.1 C 7.53 g/m*3 13.1 C 0 km/h
2930 06-09-2010 10:28:02 13.5 C 7.37 g/m*3 13.5 C 0 km/h
2931 06-09-2010 10:40:02 13.9 C 7.67 g/m*3 13.9 C 0 km/h
2932 06-09-2010 10:52:02 14.4 C 7.42 g/m*3 14.4 C 0 km/h
2933 06-09-2010 11:04:02 15.2 C 7.4 g/m*3 15.2 C 0 km/h
2934 06-09-2010 11:16:02 15.8 C 7.27 g/m*3 15.8 C 0 km/h
2935 06-09-2010 11:28:02 16.2 C 7.45 g/m*3 16.2 C 0 km/h
2936 06-09-2010 11:40:01 16.9 C 6.76 g/m*3 16.9 C 0 km/h
2937 06-09-2010 11:52:02 17.5 C 6.71 g/m*3 17.5 C 0 km/h
2938 06-09-2010 12:04:01 18.1 C 5.87 g/m*3 18.1 C 0 km/h
2939 06-09-2010 12:16:02 18.5 C 5.7 g/m*3 18.5 C 0 km/h
2940 06-09-2010 12:28:02 18.7 C 5.6 g/m*3 18.7 C 0 km/h
2941 06-09-2010 12:40:02 18.9 C 5.35 g/m*3 18.9 C 0 km/h
2942 06-09-2010 12:52:02 19 C 5.38 g/m*3 19 C 0 km/h
2943 06-09-2010 13:04:03 19.3 C 5.31 g/m*3 19.3 C 0 km/h
2944 06-09-2010 13:16:02 19.7 C 5.6 g/m*3 19.7 C 0 km/h
2945 06-09-2010 13:28:02 20.1 C 5.56 g/m*3 20.1 C 0 km/h
2946 06-09-2010 13:40:02 20.8 C 5.43 g/m*3 20.8 C 0 km/h
2947 06-09-2010 13:52:01 21.3 C 5.03 g/m*3 21.3 C 0 km/h
2948 06-09-2010 14:04:02 21.6 C 4.74 g/m*3 21.6 C 0 km/h
2949 06-09-2010 14:16:01 21.9 C 4.82 g/m*3 21.9 C 0 km/h
2950 06-09-2010 14:28:01 22.3 C 4.54 g/m*3 22.3 C 0 km/h
Sensor: Nr:Datum:Temp:Abs-Feuchte:Windchill:Wind:
Aussen-T/F 2951 06-09-2010 14:40:02 22.7 C 4.24 g/m*3 22.7 C 0 km/h
2952 06-09-2010 14:52:01 23.2 C 4.16 g/m*3 23.2 C 0 km/h
2953 06-09-2010 15:04:02 23.6 C 4.25 g/m*3 23.6 C 0 km/h
2954 06-09-2010 15:16:02 23.9 C 4.33 g/m*3 23.9 C 0 km/h
2955 06-09-2010 15:28:02 24.1 C 4.38 g/m*3 24.1 C 0 km/h
2956 06-09-2010 15:40:01 24.3 C 4.43 g/m*3 24.3 C 0 km/h
2957 06-09-2010 15:52:01 24.1 C 4.38 g/m*3 24.1 C 0 km/h
2958 06-09-2010 16:04:01 24 C 4.35 g/m*3 24 C 0 km/h
2959 06-09-2010 16:16:02 23.8 C 4.3 g/m*3 23.8 C 0 km/h
2960 06-09-2010 16:28:02 23.7 C 4.28 g/m*3 23.7 C 0 km/h
2961 06-09-2010 16:40:01 23.9 C 4.33 g/m*3 23.9 C 0 km/h
2962 06-09-2010 16:52:02 24 C 4.35 g/m*3 24 C 0 km/h
2963 06-09-2010 17:04:01 24.5 C 4.48 g/m*3 24.5 C 0 km/h
2964 06-09-2010 17:16:01 24.7 C 4.53 g/m*3 24.7 C 0 km/h
2965 06-09-2010 17:28:01 25.4 C 4.71 g/m*3 25.4 C 0 km/h
2966 06-09-2010 17:40:01 24.2 C 4.4 g/m*3 24.2 C 0 km/h
2967 06-09-2010 17:52:02 23.3 C 4.18 g/m*3 23.3 C 0 km/h
2968 06-09-2010 18:04:02 22.6 C 4.82 g/m*3 22.6 C 0 km/h
2969 06-09-2010 18:16:02 21.5 C 4.9 g/m*3 21.5 C 0 km/h
2970 06-09-2010 18:28:02 21.1 C 5.53 g/m*3 21.1 C 0 km/h
2971 06-09-2010 18:40:02 21.2 C 5.37 g/m*3 21.2 C 0 km/h
2972 06-09-2010 18:52:01 20.8 C 5.98 g/m*3 20.8 C 0 km/h
2973 06-09-2010 19:04:02 20 C 6.05 g/m*3 20 C 0 km/h
2974 06-09-2010 19:16:01 19.1 C 5.9 g/m*3 19.1 C 0 km/h
2975 06-09-2010 19:28:01 18.7 C 5.76 g/m*3 18.7 C 0 km/h
Sensor: Nr:Datum:Temp:Abs-Feuchte:Windchill:Wind:
Aussen-T/F 2976 06-09-2010 19:40:02 18.1 C 5.87 g/m*3 18.1 C 0 km/h
2977 06-09-2010 19:52:01 17.7 C 5.73 g/m*3 17.7 C 0 km/h
2978 06-09-2010 20:04:02 17.6 C 5.55 g/m*3 17.6 C 0 km/h
2979 06-09-2010 20:16:01 17.3 C 5.6 g/m*3 17.3 C 0 km/h
2980 06-09-2010 20:28:01 17.1 C 5.68 g/m*3 17.1 C 0 km/h
2981 06-09-2010 20:40:02 16.9 C 5.61 g/m*3 16.9 C 0 km/h
2982 06-09-2010 20:52:01 16.6 C 5.65 g/m*3 16.6 C 0 km/h
2983 06-09-2010 21:04:02 16.5 C 5.2 g/m*3 16.5 C 0 km/h
2984 06-09-2010 21:16:02 16.4 C 5.44 g/m*3 16.4 C 0 km/h
2985 06-09-2010 21:28:02 16.2 C 5.52 g/m*3 16.2 C 0 km/h
2986 06-09-2010 21:41:03 16.1 C 5.48 g/m*3 16.1 C 0 km/h
2987 06-09-2010 21:53:03 15.9 C 5.55 g/m*3 15.9 C 0 km/h
2988 06-09-2010 22:05:03 15.7 C 5.62 g/m*3 15.7 C 0 km/h
2989 06-09-2010 22:17:03 15.6 C 5.59 g/m*3 15.6 C 0 km/h
2990 06-09-2010 22:29:03 15.6 C 5.59 g/m*3 15.6 C 0 km/h
2991 06-09-2010 22:41:03 15.3 C 5.62 g/m*3 15.3 C 0 km/h
2992 06-09-2010 22:53:03 15.3 C 5.62 g/m*3 15.3 C 0 km/h
2993 06-09-2010 23:05:03 15.2 C 5.71 g/m*3 15.2 C 0 km/h
2994 06-09-2010 23:17:03 15.1 C 5.68 g/m*3 15.1 C 0 km/h
2995 06-09-2010 23:29:03 15.2 C 5.58 g/m*3 15.2 C 0 km/h
2996 06-09-2010 23:41:03 15.3 C 5.48 g/m*3 15.3 C 0 km/h
2997 06-09-2010 23:53:03 15.2 C 5.71 g/m*3 15.2 C 0 km/h
2998 07-09-2010 00:05:03 15.2 C 5.71 g/m*3 15.2 C 0 km/h
2999 07-09-2010 00:17:03 15.4 C 5.52 g/m*3 15.4 C 0 km/h
3000 07-09-2010 00:29:03 15.4 C 5.52 g/m*3 15.4 C 0 km/h
Sensor: Nr:Datum:Temp:Abs-Feuchte:Windchill:Wind:
Aussen-T/F 3001 07-09-2010 00:41:03 15.5 C 5.42 g/m*3 15.5 C 0 km/h
3002 07-09-2010 00:53:03 15.4 C 5.39 g/m*3 15.4 C 0 km/h
3003 07-09-2010 01:05:03 15.4 C 5.52 g/m*3 15.4 C 0 km/h
3004 07-09-2010 01:17:04 15.4 C 5.39 g/m*3 15.4 C 0 km/h
3005 07-09-2010 01:29:04 15.4 C 5.39 g/m*3 15.4 C 0 km/h
3006 07-09-2010 01:41:04 15.4 C 5.39 g/m*3 15.4 C 0 km/h
3007 07-09-2010 01:53:04 15.5 C 5.29 g/m*3 15.5 C 0 km/h
3008 07-09-2010 02:05:04 15.5 C 5.29 g/m*3 15.5 C 0 km/h
3009 07-09-2010 02:17:04 15.5 C 5.29 g/m*3 15.5 C 0 km/h
3010 07-09-2010 02:29:04 15.5 C 5.55 g/m*3 15.5 C 0 km/h
3011 07-09-2010 02:41:04 15.4 C 5.39 g/m*3 15.4 C 0 km/h
3012 07-09-2010 02:53:04 15.4 C 5.39 g/m*3 15.4 C 0 km/h
3013 07-09-2010 03:05:04 15.4 C 5.52 g/m*3 15.4 C 0 km/h
3014 07-09-2010 03:17:04 15.4 C 5.26 g/m*3 15.4 C 0 km/h
3015 07-09-2010 03:29:04 14.8 C 5.7 g/m*3 14.8 C 0 km/h
3016 07-09-2010 03:41:04 13.3 C 6.47 g/m*3 13.3 C 0 km/h
3017 07-09-2010 03:53:04 12.8 C 6.94 g/m*3 12.8 C 0 km/h
3018 07-09-2010 04:05:04 13.1 C 6.85 g/m*3 13.1 C 0 km/h
3019 07-09-2010 04:17:04 13.4 C 6.97 g/m*3 13.4 C 0 km/h
3020 07-09-2010 04:29:04 13.1 C 6.62 g/m*3 13.1 C 0 km/h
3021 07-09-2010 04:41:04 12.8 C 7.28 g/m*3 12.8 C 0 km/h
3022 07-09-2010 04:53:04 12.9 C 7.33 g/m*3 12.9 C 0 km/h
3023 07-09-2010 05:05:04 12.9 C 7.21 g/m*3 12.9 C 0 km/h
3024 07-09-2010 05:17:04 13 C 7.26 g/m*3 13 C 0 km/h
3025 07-09-2010 05:29:05 13 C 7.03 g/m*3 13 C 0 km/h
Sensor: Nr:Datum:Temp:Abs-Feuchte:Windchill:Wind:
Aussen-T/F 3026 07-09-2010 05:41:05 13.2 C 6.77 g/m*3 13.2 C 0 km/h
3027 07-09-2010 05:53:05 12.8 C 7.28 g/m*3 12.8 C 0 km/h
3028 07-09-2010 06:05:05 12.5 C 7.26 g/m*3 12.5 C 0 km/h
3029 07-09-2010 06:17:05 12.3 C 7.38 g/m*3 12.3 C 0 km/h
3030 07-09-2010 06:29:05 12.4 C 7.1 g/m*3 12.4 C 0 km/h
3031 07-09-2010 06:41:05 12.6 C 6.75 g/m*3 12.6 C 0 km/h
3032 07-09-2010 06:53:05 12.7 C 6.68 g/m*3 12.7 C 0 km/h
3033 07-09-2010 07:05:05 12.4 C 6.66 g/m*3 12.4 C 0 km/h
3034 07-09-2010 07:17:05 12.2 C 7.01 g/m*3 12.2 C 0 km/h
3035 07-09-2010 07:29:05 12.1 C 6.97 g/m*3 12.1 C 0 km/h
3036 07-09-2010 07:41:05 12 C 7.35 g/m*3 12 C 0 km/h
3037 07-09-2010 07:53:01 11.9 C 7.41 g/m*3 11.9 C 0 km/h
3038 07-09-2010 08:05:02 11.7 C 7.74 g/m*3 11.7 C 0 km/h
3039 07-09-2010 08:17:02 11.6 C 8.11 g/m*3 11.6 C 0 km/h
3040 07-09-2010 08:29:02 11.7 C 8.37 g/m*3 11.7 C 0 km/h
3041 07-09-2010 08:41:02 11.4 C 8.11 g/m*3 11.4 C 0 km/h
3042 07-09-2010 08:53:01 11.4 C 8.21 g/m*3 11.4 C 0 km/h
3043 07-09-2010 09:05:02 11.4 C 8.21 g/m*3 11.4 C 0 km/h
3044 07-09-2010 09:17:02 11.4 C 8.21 g/m*3 11.4 C 0 km/h
3045 07-09-2010 09:29:02 11.5 C 8.47 g/m*3 11.5 C 0 km/h
3046 07-09-2010 09:41:01 11.5 C 8.47 g/m*3 11.5 C 0 km/h
3047 07-09-2010 09:53:02 11.5 C 8.68 g/m*3 11.5 C 0 km/h
3048 07-09-2010 10:05:01 11.4 C 8.72 g/m*3 11.4 C 0 km/h
3049 07-09-2010 10:17:02 11.4 C 8.83 g/m*3 11.4 C 0 km/h
3050 07-09-2010 10:29:02 11.5 C 8.88 g/m*3 11.5 C 0 km/h
Sensor: Nr:Datum:Temp:Abs-Feuchte:Windchill:Wind:
Aussen-T/F 3051 07-09-2010 10:41:01 11.4 C 8.93 g/m*3 11.4 C 0 km/h
3052 07-09-2010 10:53:02 11.6 C 9.04 g/m*3 11.6 C 0 km/h
3053 07-09-2010 11:05:01 11.6 C 9.15 g/m*3 11.6 C 0 km/h
3054 07-09-2010 11:17:01 11.5 C 9.09 g/m*3 11.5 C 0 km/h
3055 07-09-2010 11:29:01 11.2 C 8.92 g/m*3 11.2 C 0 km/h
3056 07-09-2010 11:41:02 11.7 C 9.41 g/m*3 11.7 C 0 km/h
3057 07-09-2010 11:53:02 12.2 C 9.5 g/m*3 12.2 C 0 km/h
3058 07-09-2010 12:05:02 12 C 9.38 g/m*3 12 C 0 km/h
3059 07-09-2010 12:17:02 12.4 C 9.62 g/m*3 12.4 C 0 km/h
3060 07-09-2010 12:29:02 12.4 C 9.4 g/m*3 12.4 C 0 km/h
3061 07-09-2010 12:41:02 12.5 C 9.46 g/m*3 12.5 C 0 km/h
3062 07-09-2010 12:53:02 12.8 C 9.63 g/m*3 12.8 C 0 km/h
3063 07-09-2010 13:05:02 12.7 C 9.35 g/m*3 12.7 C 0 km/h
3064 07-09-2010 13:17:02 12.8 C 9.41 g/m*3 12.8 C 0 km/h
3065 07-09-2010 13:29:02 12.8 C 9.3 g/m*3 12.8 C 0 km/h
3066 07-09-2010 13:41:02 12.7 C 9.13 g/m*3 12.7 C 0 km/h
3067 07-09-2010 13:53:01 12.9 C 9.35 g/m*3 12.9 C 0 km/h
3068 07-09-2010 14:05:01 12.9 C 9.35 g/m*3 12.9 C 0 km/h
3069 07-09-2010 14:17:01 13.1 C 9.36 g/m*3 13.1 C 0 km/h
3070 07-09-2010 14:29:01 13.3 C 9.47 g/m*3 13.3 C 0 km/h
3071 07-09-2010 14:41:01 13.4 C 9.3 g/m*3 13.4 C 0 km/h
3072 07-09-2010 14:53:01 14.1 C 9.34 g/m*3 14.1 C 0 km/h
3073 07-09-2010 15:05:01 14.4 C 9.39 g/m*3 14.4 C 0 km/h
3074 07-09-2010 15:17:02 14.4 C 8.9 g/m*3 14.4 C 0 km/h
3075 07-09-2010 15:29:02 14.7 C 9.07 g/m*3 14.7 C 0 km/h
Sensor: Nr:Datum:Temp:Abs-Feuchte:Windchill:Wind:
Aussen-T/F 3076 07-09-2010 15:41:01 14.7 C 9.07 g/m*3 14.7 C 0 km/h
3077 07-09-2010 15:53:03 14.7 C 9.19 g/m*3 14.7 C 0 km/h
3078 07-09-2010 16:05:02 15.3 C 9.27 g/m*3 15.3 C 0 km/h
3079 07-09-2010 16:17:02 15.6 C 9.04 g/m*3 15.6 C 0 km/h
3080 07-09-2010 16:29:02 15.7 C 9.1 g/m*3 15.7 C 0 km/h
3081 07-09-2010 16:41:02 15.6 C 9.04 g/m*3 15.6 C 0 km/h
3082 07-09-2010 16:53:02 15.4 C 9.07 g/m*3 15.4 C 0 km/h
3083 07-09-2010 17:05:02 15.2 C 8.96 g/m*3 15.2 C 0 km/h
3084 07-09-2010 17:17:02 14.9 C 8.92 g/m*3 14.9 C 0 km/h
3085 07-09-2010 17:29:02 14.8 C 9.12 g/m*3 14.8 C 0 km/h
3086 07-09-2010 17:41:02 14.8 C 9.12 g/m*3 14.8 C 0 km/h
3087 07-09-2010 17:53:02 14.7 C 9.19 g/m*3 14.7 C 0 km/h
3088 07-09-2010 18:05:02 14.1 C 8.86 g/m*3 14.1 C 0 km/h
3089 07-09-2010 18:17:01 14 C 9.05 g/m*3 14 C 0 km/h
3090 07-09-2010 18:29:01 14 C 9.05 g/m*3 14 C 0 km/h
3091 07-09-2010 18:41:02 13.9 C 9.23 g/m*3 13.9 C 0 km/h
3092 07-09-2010 18:53:02 13.9 C 9.23 g/m*3 13.9 C 0 km/h
3093 07-09-2010 19:05:02 13.9 C 9.35 g/m*3 13.9 C 0 km/h
3094 07-09-2010 19:17:01 13.8 C 9.29 g/m*3 13.8 C 0 km/h
3095 07-09-2010 19:29:01 13.8 C 9.41 g/m*3 13.8 C 0 km/h
3096 07-09-2010 19:41:02 13.7 C 9.35 g/m*3 13.7 C 0 km/h
3097 07-09-2010 19:53:02 13.7 C 9.47 g/m*3 13.7 C 0 km/h
3098 07-09-2010 20:05:02 13.5 C 9.47 g/m*3 13.5 C 0 km/h
3099 07-09-2010 20:17:02 13.3 C 9.47 g/m*3 13.3 C 0 km/h
3100 07-09-2010 20:29:02 13.2 C 9.53 g/m*3 13.2 C 0 km/h
Sensor: Nr:Datum:Temp:Abs-Feuchte:Windchill:Wind:
Aussen-T/F 3101 07-09-2010 20:41:02 13.1 C 9.59 g/m*3 13.1 C 0 km/h
3102 07-09-2010 20:53:02 13.1 C 9.7 g/m*3 13.1 C 0 km/h
3103 07-09-2010 21:05:02 13 C 9.75 g/m*3 13 C 0 km/h
3104 07-09-2010 21:17:02 13 C 9.87 g/m*3 13 C 0 km/h
3105 07-09-2010 21:29:02 13 C 9.87 g/m*3 13 C 0 km/h
3106 07-09-2010 21:41:02 13 C 9.98 g/m*3 13 C 0 km/h
3107 07-09-2010 21:53:02 12.8 C 9.97 g/m*3 12.8 C 0 km/h
3108 07-09-2010 22:05:02 12.9 C 10.03 g/m*3 12.9 C 0 km/h
3109 07-09-2010 22:18:05 12.9 C 10.03 g/m*3 12.9 C 0 km/h
3110 07-09-2010 22:30:05 12.9 C 10.03 g/m*3 12.9 C 0 km/h
3111 07-09-2010 22:42:05 12.8 C 9.97 g/m*3 12.8 C 0 km/h
3112 07-09-2010 22:54:05 12.8 C 10.08 g/m*3 12.8 C 0 km/h
3113 07-09-2010 23:06:05 12.9 C 10.14 g/m*3 12.9 C 0 km/h
3114 07-09-2010 23:18:05 12.9 C 10.14 g/m*3 12.9 C 0 km/h
3115 07-09-2010 23:30:05 12.8 C 10.08 g/m*3 12.8 C 0 km/h
3116 07-09-2010 23:42:05 13 C 10.21 g/m*3 13 C 0 km/h
3117 07-09-2010 23:54:05 13 C 10.21 g/m*3 13 C 0 km/h
3118 08-09-2010 00:06:05 12.9 C 10.26 g/m*3 12.9 C 0 km/h
3119 08-09-2010 00:18:05 12.8 C 10.19 g/m*3 12.8 C 0 km/h
3120 08-09-2010 00:30:05 12.9 C 10.26 g/m*3 12.9 C 0 km/h
3121 08-09-2010 00:42:06 12.9 C 10.26 g/m*3 12.9 C 0 km/h
3122 08-09-2010 00:54:06 12.9 C 10.26 g/m*3 12.9 C 0 km/h
3123 08-09-2010 01:06:06 13 C 10.32 g/m*3 13 C 0 km/h
3124 08-09-2010 01:18:06 13 C 10.32 g/m*3 13 C 0 km/h
3125 08-09-2010 01:30:06 13 C 10.32 g/m*3 13 C 0 km/h
Sensor: Nr:Datum:Temp:Abs-Feuchte:Windchill:Wind:
Aussen-T/F 3126 08-09-2010 01:42:06 13 C 10.43 g/m*3 13 C 0 km/h
3127 08-09-2010 01:54:06 13 C 10.43 g/m*3 13 C 0 km/h
3128 08-09-2010 02:06:06 13.1 C 10.5 g/m*3 13.1 C 0 km/h
3129 08-09-2010 02:18:06 13.1 C 10.5 g/m*3 13.1 C 0 km/h
3130 08-09-2010 02:30:06 13.2 C 10.56 g/m*3 13.2 C 0 km/h
3131 08-09-2010 02:42:06 13.2 C 10.68 g/m*3 13.2 C 0 km/h
3132 08-09-2010 02:54:06 13.4 C 10.81 g/m*3 13.4 C 0 km/h
3133 08-09-2010 03:06:06 13.4 C 10.81 g/m*3 13.4 C 0 km/h
3134 08-09-2010 03:18:06 13.5 C 10.88 g/m*3 13.5 C 0 km/h
3135 08-09-2010 03:30:06 13.6 C 10.95 g/m*3 13.6 C 0 km/h
3136 08-09-2010 03:42:06 13.7 C 11.01 g/m*3 13.7 C 0 km/h
3137 08-09-2010 03:54:06 13.6 C 10.95 g/m*3 13.6 C 0 km/h
3138 08-09-2010 04:06:06 13.5 C 10.88 g/m*3 13.5 C 0 km/h
3139 08-09-2010 04:18:06 13.5 C 10.88 g/m*3 13.5 C 0 km/h
3140 08-09-2010 04:30:06 13.6 C 10.95 g/m*3 13.6 C 0 km/h
3141 08-09-2010 04:42:06 13.5 C 10.88 g/m*3 13.5 C 0 km/h
3142 08-09-2010 04:54:07 13.7 C 11.01 g/m*3 13.7 C 0 km/h
3143 08-09-2010 05:06:07 14.1 C 11.29 g/m*3 14.1 C 0 km/h
3144 08-09-2010 05:18:07 14 C 11.34 g/m*3 14 C 0 km/h
3145 08-09-2010 05:30:07 14.1 C 11.41 g/m*3 14.1 C 0 km/h
3146 08-09-2010 05:42:07 14.4 C 11.62 g/m*3 14.4 C 0 km/h
3147 08-09-2010 05:54:07 14.2 C 11.36 g/m*3 14.2 C 0 km/h
3148 08-09-2010 06:06:07 14.4 C 11.5 g/m*3 14.4 C 0 km/h
3149 08-09-2010 06:18:07 14.4 C 11.5 g/m*3 14.4 C 0 km/h
3150 08-09-2010 06:30:07 14.3 C 11.43 g/m*3 14.3 C 0 km/h
Sensor: Nr:Datum:Temp:Abs-Feuchte:Windchill:Wind:
Aussen-T/F 3151 08-09-2010 06:42:07 14.3 C 11.43 g/m*3 14.3 C 0 km/h
3152 08-09-2010 06:54:07 14.4 C 11.37 g/m*3 14.4 C 0 km/h
3153 08-09-2010 07:06:07 14.3 C 11.3 g/m*3 14.3 C 0 km/h
3154 08-09-2010 07:18:04 14.3 C 11.3 g/m*3 14.3 C 0 km/h
3155 08-09-2010 07:30:04 14.3 C 11.3 g/m*3 14.3 C 0 km/h
3156 08-09-2010 07:42:04 14.1 C 11.17 g/m*3 14.1 C 0 km/h
3157 08-09-2010 07:54:02 14.1 C 11.17 g/m*3 14.1 C 0 km/h
3158 08-09-2010 08:06:02 14.1 C 11.17 g/m*3 14.1 C 0 km/h
3159 08-09-2010 08:18:02 14.1 C 11.17 g/m*3 14.1 C 0 km/h
3160 08-09-2010 08:30:02 14.2 C 11.23 g/m*3 14.2 C 0 km/h
3161 08-09-2010 08:42:02 14.3 C 11.3 g/m*3 14.3 C 0 km/h
3162 08-09-2010 08:54:02 14.4 C 11.37 g/m*3 14.4 C 0 km/h
3163 08-09-2010 09:06:01 14.8 C 11.65 g/m*3 14.8 C 0 km/h
3164 08-09-2010 09:18:02 15 C 11.54 g/m*3 15 C 0 km/h
3165 08-09-2010 09:30:02 15.3 C 11.62 g/m*3 15.3 C 0 km/h
3166 08-09-2010 09:42:02 15.5 C 11.76 g/m*3 15.5 C 0 km/h
3167 08-09-2010 09:54:02 15.5 C 11.5 g/m*3 15.5 C 0 km/h
3168 08-09-2010 10:06:02 15.5 C 11.5 g/m*3 15.5 C 0 km/h
3169 08-09-2010 10:18:02 15.3 C 11.36 g/m*3 15.3 C 0 km/h
3170 08-09-2010 10:30:02 15.5 C 11.37 g/m*3 15.5 C 0 km/h
3171 08-09-2010 10:42:02 15.6 C 11.44 g/m*3 15.6 C 0 km/h
3172 08-09-2010 10:54:02 15.7 C 11.37 g/m*3 15.7 C 0 km/h
3173 08-09-2010 11:06:02 15.7 C 11.11 g/m*3 15.7 C 0 km/h
3174 08-09-2010 11:18:02 15.4 C 10.9 g/m*3 15.4 C 0 km/h
3175 08-09-2010 11:30:02 15.1 C 10.97 g/m*3 15.1 C 0 km/h
Sensor: Nr:Datum:Temp:Abs-Feuchte:Windchill:Wind:
Aussen-T/F 3176 08-09-2010 11:42:02 15 C 11.03 g/m*3 15 C 0 km/h
3177 08-09-2010 11:54:02 15 C 11.16 g/m*3 15 C 0 km/h
3178 08-09-2010 12:06:02 14.6 C 11.01 g/m*3 14.6 C 0 km/h
3179 08-09-2010 12:18:03 14.6 C 11.14 g/m*3 14.6 C 0 km/h
3180 08-09-2010 12:30:03 14.7 C 11.21 g/m*3 14.7 C 0 km/h
3181 08-09-2010 12:42:02 14.8 C 11.4 g/m*3 14.8 C 0 km/h
3182 08-09-2010 12:54:01 15 C 11.54 g/m*3 15 C 0 km/h
3183 08-09-2010 13:06:01 15.5 C 11.9 g/m*3 15.5 C 0 km/h
3184 08-09-2010 13:18:02 15.8 C 12.11 g/m*3 15.8 C 0 km/h
3185 08-09-2010 13:30:02 16.3 C 12.35 g/m*3 16.3 C 0 km/h
3186 08-09-2010 13:42:01 16.8 C 12.44 g/m*3 16.8 C 0 km/h
3187 08-09-2010 13:54:02 16.7 C 11.8 g/m*3 16.7 C 0 km/h
3188 08-09-2010 14:06:02 17.4 C 12 g/m*3 17.4 C 0 km/h
3189 08-09-2010 14:18:02 17.2 C 11.42 g/m*3 17.2 C 0 km/h
3190 08-09-2010 14:30:02 17 C 11.29 g/m*3 17 C 0 km/h
3191 08-09-2010 14:42:02 17.9 C 11.6 g/m*3 17.9 C 0 km/h
3192 08-09-2010 14:54:02 18.4 C 11.48 g/m*3 18.4 C 0 km/h
3193 08-09-2010 15:06:01 18.2 C 11.04 g/m*3 18.2 C 0 km/h
3194 08-09-2010 15:18:01 17.8 C 11.08 g/m*3 17.8 C 0 km/h
3195 08-09-2010 15:30:02 17.6 C 11.1 g/m*3 17.6 C 0 km/h
3196 08-09-2010 15:42:01 17.8 C 11.23 g/m*3 17.8 C 0 km/h
3197 08-09-2010 15:54:02 18.3 C 11.41 g/m*3 18.3 C 0 km/h
3198 08-09-2010 16:06:01 19 C 10.92 g/m*3 19 C 0 km/h
3199 08-09-2010 16:18:01 18.7 C 10.89 g/m*3 18.7 C 0 km/h
3200 08-09-2010 16:30:01 18.5 C 10.6 g/m*3 18.5 C 0 km/h
Sensor: Nr:Datum:Temp:Abs-Feuchte:Windchill:Wind:
Aussen-T/F 3201 08-09-2010 16:42:02 18.5 C 10.6 g/m*3 18.5 C 0 km/h
3202 08-09-2010 16:54:02 18 C 10.44 g/m*3 18 C 0 km/h
3203 08-09-2010 17:06:02 19.3 C 10.45 g/m*3 19.3 C 0 km/h
3204 08-09-2010 17:18:02 20.4 C 10.08 g/m*3 20.4 C 0 km/h
3205 08-09-2010 17:30:02 20.5 C 10.14 g/m*3 20.5 C 0 km/h
3206 08-09-2010 17:42:02 19.5 C 10.07 g/m*3 19.5 C 0 km/h
3207 08-09-2010 17:54:02 19.7 C 10.36 g/m*3 19.7 C 0 km/h
3208 08-09-2010 18:06:02 19.3 C 10.28 g/m*3 19.3 C 0 km/h
3209 08-09-2010 18:18:01 20.2 C 9.97 g/m*3 20.2 C 0 km/h
3210 08-09-2010 18:30:01 19.3 C 10.12 g/m*3 19.3 C 0 km/h
3211 08-09-2010 18:42:02 18.3 C 10.16 g/m*3 18.3 C 0 km/h
3212 08-09-2010 18:54:02 18.2 C 10.57 g/m*3 18.2 C 0 km/h
3213 08-09-2010 19:06:02 18.6 C 10.66 g/m*3 18.6 C 0 km/h
3214 08-09-2010 19:18:01 18.7 C 10.57 g/m*3 18.7 C 0 km/h
3215 08-09-2010 19:30:01 18.3 C 10.48 g/m*3 18.3 C 0 km/h
3216 08-09-2010 19:42:02 17.9 C 10.69 g/m*3 17.9 C 0 km/h
3217 08-09-2010 19:54:02 17.5 C 10.29 g/m*3 17.5 C 0 km/h
3218 08-09-2010 20:06:03 17.4 C 10.52 g/m*3 17.4 C 0 km/h
3219 08-09-2010 20:18:02 17 C 10.42 g/m*3 17 C 0 km/h
3220 08-09-2010 20:30:02 16.7 C 10.66 g/m*3 16.7 C 0 km/h
3221 08-09-2010 20:42:02 16.6 C 10.74 g/m*3 16.6 C 0 km/h
3222 08-09-2010 20:54:01 16.3 C 10.27 g/m*3 16.3 C 0 km/h
3223 08-09-2010 21:06:01 15.9 C 10.02 g/m*3 15.9 C 0 km/h
3224 08-09-2010 21:18:01 15.8 C 9.69 g/m*3 15.8 C 0 km/h
3225 08-09-2010 21:30:01 15.7 C 9.63 g/m*3 15.7 C 0 km/h
Sensor: Nr:Datum:Temp:Abs-Feuchte:Windchill:Wind:
Aussen-T/F 3226 08-09-2010 21:42:01 15.7 C 9.63 g/m*3 15.7 C 0 km/h
3227 08-09-2010 21:54:01 15.5 C 9.52 g/m*3 15.5 C 0 km/h
3228 08-09-2010 22:06:01 15.2 C 9.48 g/m*3 15.2 C 0 km/h